<?xml version="1.0" encoding="UTF-8" standalone="no" ?>
<gpx xmlns="http://www.topografix.com/GPX/1/1" xmlns:xsi="http://www.w3.org/2001/XMLSchema-instance" xsi:schemaLocation="http://www.topografix.com/GPX/1/1 http://www.topografix.com/GPX/1/1/gpx.xsd" version="1.1" creator="VisuGPX - https://www.visugpx.com">
  <metadata>
    <name>83-Ma-Vidauban</name>
    <desc><![CDATA[83-Ma-Vidauban : Collet Redon
2020-10-13]]></desc>
  </metadata>
  <trk>
    <name><![CDATA[2020-10-13-Ma-collet redon]]></name>
    <trkseg>
      <trkpt lat="43.43583" lon="6.40935">
        <ele>73.3</ele>
        <time>2020-10-13T11:51:06Z</time>
      </trkpt>
      <trkpt lat="43.43584" lon="6.40935">
        <ele>73.4</ele>
        <time>2020-10-13T11:51:07Z</time>
      </trkpt>
      <trkpt lat="43.43588" lon="6.40936">
        <ele>73.8</ele>
        <time>2020-10-13T11:52:31Z</time>
      </trkpt>
      <trkpt lat="43.43593" lon="6.40937">
        <ele>74.3</ele>
        <time>2020-10-13T11:52:42Z</time>
      </trkpt>
      <trkpt lat="43.43597" lon="6.40942">
        <ele>74.5</ele>
        <time>2020-10-13T11:52:49Z</time>
      </trkpt>
      <trkpt lat="43.43601" lon="6.40945">
        <ele>74.5</ele>
        <time>2020-10-13T11:52:54Z</time>
      </trkpt>
      <trkpt lat="43.43606" lon="6.40944">
        <ele>74.9</ele>
        <time>2020-10-13T11:52:59Z</time>
      </trkpt>
      <trkpt lat="43.4361" lon="6.40939">
        <ele>74.8</ele>
        <time>2020-10-13T11:53:06Z</time>
      </trkpt>
      <trkpt lat="43.43612" lon="6.40934">
        <ele>74.7</ele>
        <time>2020-10-13T11:53:12Z</time>
      </trkpt>
      <trkpt lat="43.43615" lon="6.40929">
        <ele>74.6</ele>
        <time>2020-10-13T11:53:17Z</time>
      </trkpt>
      <trkpt lat="43.43618" lon="6.40924">
        <ele>74.4</ele>
        <time>2020-10-13T11:53:23Z</time>
      </trkpt>
      <trkpt lat="43.43622" lon="6.4092">
        <ele>74.5</ele>
        <time>2020-10-13T11:53:45Z</time>
      </trkpt>
      <trkpt lat="43.43626" lon="6.40922">
        <ele>74.9</ele>
        <time>2020-10-13T11:53:51Z</time>
      </trkpt>
      <trkpt lat="43.4363" lon="6.40918">
        <ele>75.2</ele>
        <time>2020-10-13T11:53:56Z</time>
      </trkpt>
      <trkpt lat="43.43635" lon="6.40916">
        <ele>75.6</ele>
        <time>2020-10-13T11:54:00Z</time>
      </trkpt>
      <trkpt lat="43.43639" lon="6.40914">
        <ele>76</ele>
        <time>2020-10-13T11:54:04Z</time>
      </trkpt>
      <trkpt lat="43.43644" lon="6.40911">
        <ele>76.3</ele>
        <time>2020-10-13T11:54:08Z</time>
      </trkpt>
      <trkpt lat="43.43648" lon="6.4091">
        <ele>76.6</ele>
        <time>2020-10-13T11:54:12Z</time>
      </trkpt>
      <trkpt lat="43.43653" lon="6.40908">
        <ele>76.9</ele>
        <time>2020-10-13T11:54:16Z</time>
      </trkpt>
      <trkpt lat="43.43658" lon="6.40906">
        <ele>77.3</ele>
        <time>2020-10-13T11:54:21Z</time>
      </trkpt>
      <trkpt lat="43.43663" lon="6.40904">
        <ele>77.7</ele>
        <time>2020-10-13T11:54:25Z</time>
      </trkpt>
      <trkpt lat="43.43668" lon="6.40902">
        <ele>78.1</ele>
        <time>2020-10-13T11:54:29Z</time>
      </trkpt>
      <trkpt lat="43.43673" lon="6.409">
        <ele>78.4</ele>
        <time>2020-10-13T11:54:33Z</time>
      </trkpt>
      <trkpt lat="43.43678" lon="6.40899">
        <ele>79</ele>
        <time>2020-10-13T11:54:41Z</time>
      </trkpt>
      <trkpt lat="43.43683" lon="6.40897">
        <ele>79.5</ele>
        <time>2020-10-13T11:54:46Z</time>
      </trkpt>
      <trkpt lat="43.43688" lon="6.40894">
        <ele>79.9</ele>
        <time>2020-10-13T11:54:51Z</time>
      </trkpt>
      <trkpt lat="43.43693" lon="6.40892">
        <ele>80.5</ele>
        <time>2020-10-13T11:54:56Z</time>
      </trkpt>
      <trkpt lat="43.43698" lon="6.4089">
        <ele>80.8</ele>
        <time>2020-10-13T11:55:00Z</time>
      </trkpt>
      <trkpt lat="43.43703" lon="6.40888">
        <ele>81.1</ele>
        <time>2020-10-13T11:55:04Z</time>
      </trkpt>
      <trkpt lat="43.43708" lon="6.40886">
        <ele>81.5</ele>
        <time>2020-10-13T11:55:08Z</time>
      </trkpt>
      <trkpt lat="43.43713" lon="6.40885">
        <ele>81.9</ele>
        <time>2020-10-13T11:55:12Z</time>
      </trkpt>
      <trkpt lat="43.43717" lon="6.40883">
        <ele>82.5</ele>
        <time>2020-10-13T11:55:16Z</time>
      </trkpt>
      <trkpt lat="43.43723" lon="6.40882">
        <ele>83</ele>
        <time>2020-10-13T11:55:20Z</time>
      </trkpt>
      <trkpt lat="43.43727" lon="6.40881">
        <ele>83.5</ele>
        <time>2020-10-13T11:55:24Z</time>
      </trkpt>
      <trkpt lat="43.43732" lon="6.40881">
        <ele>83.8</ele>
        <time>2020-10-13T11:55:28Z</time>
      </trkpt>
      <trkpt lat="43.43737" lon="6.40883">
        <ele>84.3</ele>
        <time>2020-10-13T11:55:32Z</time>
      </trkpt>
      <trkpt lat="43.43742" lon="6.40884">
        <ele>84.9</ele>
        <time>2020-10-13T11:55:36Z</time>
      </trkpt>
      <trkpt lat="43.43747" lon="6.40885">
        <ele>85.4</ele>
        <time>2020-10-13T11:55:40Z</time>
      </trkpt>
      <trkpt lat="43.43752" lon="6.40884">
        <ele>85.9</ele>
        <time>2020-10-13T11:55:44Z</time>
      </trkpt>
      <trkpt lat="43.43757" lon="6.40881">
        <ele>86.5</ele>
        <time>2020-10-13T11:55:48Z</time>
      </trkpt>
      <trkpt lat="43.43762" lon="6.40879">
        <ele>87.2</ele>
        <time>2020-10-13T11:55:52Z</time>
      </trkpt>
      <trkpt lat="43.43766" lon="6.40876">
        <ele>87.4</ele>
        <time>2020-10-13T11:55:56Z</time>
      </trkpt>
      <trkpt lat="43.4377" lon="6.40873">
        <ele>87.4</ele>
        <time>2020-10-13T11:55:59Z</time>
      </trkpt>
      <trkpt lat="43.43775" lon="6.40871">
        <ele>87.3</ele>
        <time>2020-10-13T11:56:02Z</time>
      </trkpt>
      <trkpt lat="43.43779" lon="6.40868">
        <ele>87.3</ele>
        <time>2020-10-13T11:56:05Z</time>
      </trkpt>
      <trkpt lat="43.43784" lon="6.40864">
        <ele>87.5</ele>
        <time>2020-10-13T11:56:09Z</time>
      </trkpt>
      <trkpt lat="43.43788" lon="6.4086">
        <ele>87.7</ele>
        <time>2020-10-13T11:56:13Z</time>
      </trkpt>
      <trkpt lat="43.43793" lon="6.40856">
        <ele>88</ele>
        <time>2020-10-13T11:56:17Z</time>
      </trkpt>
      <trkpt lat="43.43797" lon="6.40853">
        <ele>88.2</ele>
        <time>2020-10-13T11:56:21Z</time>
      </trkpt>
      <trkpt lat="43.43802" lon="6.4085">
        <ele>88.4</ele>
        <time>2020-10-13T11:56:25Z</time>
      </trkpt>
      <trkpt lat="43.43806" lon="6.40847">
        <ele>88.6</ele>
        <time>2020-10-13T11:56:29Z</time>
      </trkpt>
      <trkpt lat="43.43811" lon="6.40845">
        <ele>88.8</ele>
        <time>2020-10-13T11:56:32Z</time>
      </trkpt>
      <trkpt lat="43.43816" lon="6.40842">
        <ele>88.8</ele>
        <time>2020-10-13T11:56:36Z</time>
      </trkpt>
      <trkpt lat="43.43821" lon="6.40838">
        <ele>88.8</ele>
        <time>2020-10-13T11:56:40Z</time>
      </trkpt>
      <trkpt lat="43.43826" lon="6.40835">
        <ele>88.9</ele>
        <time>2020-10-13T11:56:44Z</time>
      </trkpt>
      <trkpt lat="43.4383" lon="6.40832">
        <ele>89</ele>
        <time>2020-10-13T11:56:48Z</time>
      </trkpt>
      <trkpt lat="43.43834" lon="6.40828">
        <ele>89</ele>
        <time>2020-10-13T11:56:52Z</time>
      </trkpt>
      <trkpt lat="43.43839" lon="6.40824">
        <ele>89.2</ele>
        <time>2020-10-13T11:56:57Z</time>
      </trkpt>
      <trkpt lat="43.43844" lon="6.40821">
        <ele>89.6</ele>
        <time>2020-10-13T11:57:02Z</time>
      </trkpt>
      <trkpt lat="43.43849" lon="6.40819">
        <ele>90.3</ele>
        <time>2020-10-13T11:57:09Z</time>
      </trkpt>
      <trkpt lat="43.43853" lon="6.40816">
        <ele>90.5</ele>
        <time>2020-10-13T11:57:13Z</time>
      </trkpt>
      <trkpt lat="43.43858" lon="6.40814">
        <ele>90.8</ele>
        <time>2020-10-13T11:57:17Z</time>
      </trkpt>
      <trkpt lat="43.43864" lon="6.40812">
        <ele>91.1</ele>
        <time>2020-10-13T11:57:21Z</time>
      </trkpt>
      <trkpt lat="43.43869" lon="6.40809">
        <ele>91.4</ele>
        <time>2020-10-13T11:57:25Z</time>
      </trkpt>
      <trkpt lat="43.43874" lon="6.40807">
        <ele>91.5</ele>
        <time>2020-10-13T11:57:28Z</time>
      </trkpt>
      <trkpt lat="43.43879" lon="6.40805">
        <ele>91.8</ele>
        <time>2020-10-13T11:57:32Z</time>
      </trkpt>
      <trkpt lat="43.43884" lon="6.40803">
        <ele>92.3</ele>
        <time>2020-10-13T11:57:36Z</time>
      </trkpt>
      <trkpt lat="43.43888" lon="6.40801">
        <ele>92.5</ele>
        <time>2020-10-13T11:57:40Z</time>
      </trkpt>
      <trkpt lat="43.43893" lon="6.40799">
        <ele>92.7</ele>
        <time>2020-10-13T11:57:44Z</time>
      </trkpt>
      <trkpt lat="43.43898" lon="6.40797">
        <ele>93</ele>
        <time>2020-10-13T11:57:49Z</time>
      </trkpt>
      <trkpt lat="43.43903" lon="6.40795">
        <ele>93.4</ele>
        <time>2020-10-13T11:57:52Z</time>
      </trkpt>
      <trkpt lat="43.43909" lon="6.40792">
        <ele>93.8</ele>
        <time>2020-10-13T11:57:57Z</time>
      </trkpt>
      <trkpt lat="43.43914" lon="6.4079">
        <ele>94.2</ele>
        <time>2020-10-13T11:58:01Z</time>
      </trkpt>
      <trkpt lat="43.43918" lon="6.40789">
        <ele>94.5</ele>
        <time>2020-10-13T11:58:05Z</time>
      </trkpt>
      <trkpt lat="43.43923" lon="6.40787">
        <ele>94.8</ele>
        <time>2020-10-13T11:58:10Z</time>
      </trkpt>
      <trkpt lat="43.43929" lon="6.40784">
        <ele>95.3</ele>
        <time>2020-10-13T11:58:14Z</time>
      </trkpt>
      <trkpt lat="43.43934" lon="6.40782">
        <ele>95.8</ele>
        <time>2020-10-13T11:58:18Z</time>
      </trkpt>
      <trkpt lat="43.43939" lon="6.4078">
        <ele>96.3</ele>
        <time>2020-10-13T11:58:22Z</time>
      </trkpt>
      <trkpt lat="43.43944" lon="6.40778">
        <ele>96.8</ele>
        <time>2020-10-13T11:58:27Z</time>
      </trkpt>
      <trkpt lat="43.43948" lon="6.40776">
        <ele>97.2</ele>
        <time>2020-10-13T11:58:32Z</time>
      </trkpt>
      <trkpt lat="43.43953" lon="6.40773">
        <ele>97.5</ele>
        <time>2020-10-13T11:58:37Z</time>
      </trkpt>
      <trkpt lat="43.43957" lon="6.40771">
        <ele>97.8</ele>
        <time>2020-10-13T11:58:41Z</time>
      </trkpt>
      <trkpt lat="43.43962" lon="6.40769">
        <ele>98.1</ele>
        <time>2020-10-13T11:58:45Z</time>
      </trkpt>
      <trkpt lat="43.43967" lon="6.40767">
        <ele>98.6</ele>
        <time>2020-10-13T11:58:49Z</time>
      </trkpt>
      <trkpt lat="43.43971" lon="6.40764">
        <ele>98.9</ele>
        <time>2020-10-13T11:58:53Z</time>
      </trkpt>
      <trkpt lat="43.43976" lon="6.40762">
        <ele>99.5</ele>
        <time>2020-10-13T11:58:57Z</time>
      </trkpt>
      <trkpt lat="43.43982" lon="6.4076">
        <ele>99.8</ele>
        <time>2020-10-13T11:59:01Z</time>
      </trkpt>
      <trkpt lat="43.43987" lon="6.40758">
        <ele>100.2</ele>
        <time>2020-10-13T11:59:07Z</time>
      </trkpt>
      <trkpt lat="43.43991" lon="6.40756">
        <ele>100.8</ele>
        <time>2020-10-13T11:59:11Z</time>
      </trkpt>
      <trkpt lat="43.43996" lon="6.40754">
        <ele>101.4</ele>
        <time>2020-10-13T11:59:15Z</time>
      </trkpt>
      <trkpt lat="43.44001" lon="6.40752">
        <ele>102.2</ele>
        <time>2020-10-13T11:59:20Z</time>
      </trkpt>
      <trkpt lat="43.44005" lon="6.4075">
        <ele>102.7</ele>
        <time>2020-10-13T11:59:24Z</time>
      </trkpt>
      <trkpt lat="43.4401" lon="6.40747">
        <ele>103.1</ele>
        <time>2020-10-13T11:59:28Z</time>
      </trkpt>
      <trkpt lat="43.44015" lon="6.40745">
        <ele>103.9</ele>
        <time>2020-10-13T11:59:33Z</time>
      </trkpt>
      <trkpt lat="43.4402" lon="6.40743">
        <ele>104.6</ele>
        <time>2020-10-13T11:59:37Z</time>
      </trkpt>
      <trkpt lat="43.44025" lon="6.4074">
        <ele>105.2</ele>
        <time>2020-10-13T11:59:41Z</time>
      </trkpt>
      <trkpt lat="43.4403" lon="6.40738">
        <ele>105.9</ele>
        <time>2020-10-13T11:59:45Z</time>
      </trkpt>
      <trkpt lat="43.44035" lon="6.40736">
        <ele>106.4</ele>
        <time>2020-10-13T11:59:49Z</time>
      </trkpt>
      <trkpt lat="43.4404" lon="6.40734">
        <ele>106.7</ele>
        <time>2020-10-13T11:59:53Z</time>
      </trkpt>
      <trkpt lat="43.44045" lon="6.40732">
        <ele>106.8</ele>
        <time>2020-10-13T11:59:57Z</time>
      </trkpt>
      <trkpt lat="43.4405" lon="6.40729">
        <ele>107.1</ele>
        <time>2020-10-13T12:00:01Z</time>
      </trkpt>
      <trkpt lat="43.44055" lon="6.40727">
        <ele>107.2</ele>
        <time>2020-10-13T12:00:05Z</time>
      </trkpt>
      <trkpt lat="43.4406" lon="6.40725">
        <ele>107.4</ele>
        <time>2020-10-13T12:00:10Z</time>
      </trkpt>
      <trkpt lat="43.44065" lon="6.40723">
        <ele>107.8</ele>
        <time>2020-10-13T12:00:14Z</time>
      </trkpt>
      <trkpt lat="43.4407" lon="6.4072">
        <ele>108.2</ele>
        <time>2020-10-13T12:00:18Z</time>
      </trkpt>
      <trkpt lat="43.44076" lon="6.40718">
        <ele>108.7</ele>
        <time>2020-10-13T12:00:22Z</time>
      </trkpt>
      <trkpt lat="43.4408" lon="6.40716">
        <ele>108.9</ele>
        <time>2020-10-13T12:00:25Z</time>
      </trkpt>
      <trkpt lat="43.44085" lon="6.40713">
        <ele>109.4</ele>
        <time>2020-10-13T12:00:29Z</time>
      </trkpt>
      <trkpt lat="43.44091" lon="6.4071">
        <ele>109.7</ele>
        <time>2020-10-13T12:00:33Z</time>
      </trkpt>
      <trkpt lat="43.44095" lon="6.40709">
        <ele>109.9</ele>
        <time>2020-10-13T12:00:36Z</time>
      </trkpt>
      <trkpt lat="43.441" lon="6.40707">
        <ele>110.4</ele>
        <time>2020-10-13T12:00:40Z</time>
      </trkpt>
      <trkpt lat="43.44105" lon="6.40705">
        <ele>110.7</ele>
        <time>2020-10-13T12:00:44Z</time>
      </trkpt>
      <trkpt lat="43.4411" lon="6.40703">
        <ele>110.8</ele>
        <time>2020-10-13T12:00:48Z</time>
      </trkpt>
      <trkpt lat="43.44115" lon="6.40702">
        <ele>110.9</ele>
        <time>2020-10-13T12:00:52Z</time>
      </trkpt>
      <trkpt lat="43.4412" lon="6.40699">
        <ele>110.9</ele>
        <time>2020-10-13T12:00:56Z</time>
      </trkpt>
      <trkpt lat="43.44126" lon="6.40697">
        <ele>111</ele>
        <time>2020-10-13T12:01:00Z</time>
      </trkpt>
      <trkpt lat="43.44131" lon="6.40695">
        <ele>111.3</ele>
        <time>2020-10-13T12:01:04Z</time>
      </trkpt>
      <trkpt lat="43.44136" lon="6.40693">
        <ele>111.4</ele>
        <time>2020-10-13T12:01:08Z</time>
      </trkpt>
      <trkpt lat="43.44141" lon="6.40691">
        <ele>111.4</ele>
        <time>2020-10-13T12:01:12Z</time>
      </trkpt>
      <trkpt lat="43.44147" lon="6.40688">
        <ele>111.5</ele>
        <time>2020-10-13T12:01:16Z</time>
      </trkpt>
      <trkpt lat="43.44151" lon="6.40686">
        <ele>111.6</ele>
        <time>2020-10-13T12:01:19Z</time>
      </trkpt>
      <trkpt lat="43.44156" lon="6.40684">
        <ele>111.1</ele>
        <time>2020-10-13T12:01:23Z</time>
      </trkpt>
      <trkpt lat="43.44161" lon="6.40683">
        <ele>110.8</ele>
        <time>2020-10-13T12:01:27Z</time>
      </trkpt>
      <trkpt lat="43.44166" lon="6.40681">
        <ele>110.8</ele>
        <time>2020-10-13T12:01:31Z</time>
      </trkpt>
      <trkpt lat="43.44171" lon="6.40679">
        <ele>111</ele>
        <time>2020-10-13T12:01:35Z</time>
      </trkpt>
      <trkpt lat="43.44176" lon="6.40677">
        <ele>110.9</ele>
        <time>2020-10-13T12:01:39Z</time>
      </trkpt>
      <trkpt lat="43.4418" lon="6.40675">
        <ele>110.8</ele>
        <time>2020-10-13T12:01:43Z</time>
      </trkpt>
      <trkpt lat="43.44185" lon="6.40673">
        <ele>110.7</ele>
        <time>2020-10-13T12:01:47Z</time>
      </trkpt>
      <trkpt lat="43.4419" lon="6.40671">
        <ele>110.6</ele>
        <time>2020-10-13T12:01:51Z</time>
      </trkpt>
      <trkpt lat="43.44195" lon="6.40669">
        <ele>110.5</ele>
        <time>2020-10-13T12:01:55Z</time>
      </trkpt>
      <trkpt lat="43.442" lon="6.40666">
        <ele>110.3</ele>
        <time>2020-10-13T12:01:59Z</time>
      </trkpt>
      <trkpt lat="43.44206" lon="6.40664">
        <ele>110.2</ele>
        <time>2020-10-13T12:02:03Z</time>
      </trkpt>
      <trkpt lat="43.4421" lon="6.40663">
        <ele>109.9</ele>
        <time>2020-10-13T12:02:06Z</time>
      </trkpt>
      <trkpt lat="43.44215" lon="6.4066">
        <ele>109.7</ele>
        <time>2020-10-13T12:02:10Z</time>
      </trkpt>
      <trkpt lat="43.4422" lon="6.40658">
        <ele>109.4</ele>
        <time>2020-10-13T12:02:13Z</time>
      </trkpt>
      <trkpt lat="43.44225" lon="6.40656">
        <ele>109.2</ele>
        <time>2020-10-13T12:02:17Z</time>
      </trkpt>
      <trkpt lat="43.4423" lon="6.40654">
        <ele>109.2</ele>
        <time>2020-10-13T12:02:20Z</time>
      </trkpt>
      <trkpt lat="43.44235" lon="6.40652">
        <ele>109.1</ele>
        <time>2020-10-13T12:02:24Z</time>
      </trkpt>
      <trkpt lat="43.4424" lon="6.40649">
        <ele>109.3</ele>
        <time>2020-10-13T12:02:29Z</time>
      </trkpt>
      <trkpt lat="43.44245" lon="6.40647">
        <ele>109.4</ele>
        <time>2020-10-13T12:02:33Z</time>
      </trkpt>
      <trkpt lat="43.4425" lon="6.40645">
        <ele>109.5</ele>
        <time>2020-10-13T12:02:38Z</time>
      </trkpt>
      <trkpt lat="43.44254" lon="6.40644">
        <ele>109.7</ele>
        <time>2020-10-13T12:02:43Z</time>
      </trkpt>
      <trkpt lat="43.44259" lon="6.40642">
        <ele>110.1</ele>
        <time>2020-10-13T12:02:48Z</time>
      </trkpt>
      <trkpt lat="43.44264" lon="6.40639">
        <ele>110</ele>
        <time>2020-10-13T12:02:52Z</time>
      </trkpt>
      <trkpt lat="43.44268" lon="6.40637">
        <ele>110.2</ele>
        <time>2020-10-13T12:02:58Z</time>
      </trkpt>
      <trkpt lat="43.44273" lon="6.40637">
        <ele>110.1</ele>
        <time>2020-10-13T12:03:09Z</time>
      </trkpt>
      <trkpt lat="43.44278" lon="6.40634">
        <ele>110.3</ele>
        <time>2020-10-13T12:03:14Z</time>
      </trkpt>
      <trkpt lat="43.44283" lon="6.40632">
        <ele>110.5</ele>
        <time>2020-10-13T12:03:18Z</time>
      </trkpt>
      <trkpt lat="43.44287" lon="6.4063">
        <ele>110.5</ele>
        <time>2020-10-13T12:03:21Z</time>
      </trkpt>
      <trkpt lat="43.44292" lon="6.40628">
        <ele>110.7</ele>
        <time>2020-10-13T12:03:24Z</time>
      </trkpt>
      <trkpt lat="43.44297" lon="6.40626">
        <ele>111</ele>
        <time>2020-10-13T12:03:29Z</time>
      </trkpt>
      <trkpt lat="43.44301" lon="6.40625">
        <ele>111</ele>
        <time>2020-10-13T12:03:34Z</time>
      </trkpt>
      <trkpt lat="43.44306" lon="6.40623">
        <ele>111.1</ele>
        <time>2020-10-13T12:03:38Z</time>
      </trkpt>
      <trkpt lat="43.4431" lon="6.4062">
        <ele>111.2</ele>
        <time>2020-10-13T12:03:43Z</time>
      </trkpt>
      <trkpt lat="43.44315" lon="6.40618">
        <ele>111.3</ele>
        <time>2020-10-13T12:03:47Z</time>
      </trkpt>
      <trkpt lat="43.4432" lon="6.40616">
        <ele>111.4</ele>
        <time>2020-10-13T12:03:51Z</time>
      </trkpt>
      <trkpt lat="43.44324" lon="6.40613">
        <ele>111.4</ele>
        <time>2020-10-13T12:03:56Z</time>
      </trkpt>
      <trkpt lat="43.44329" lon="6.40611">
        <ele>111.4</ele>
        <time>2020-10-13T12:04:00Z</time>
      </trkpt>
      <trkpt lat="43.44334" lon="6.40609">
        <ele>111.4</ele>
        <time>2020-10-13T12:04:03Z</time>
      </trkpt>
      <trkpt lat="43.44339" lon="6.40606">
        <ele>111.4</ele>
        <time>2020-10-13T12:04:07Z</time>
      </trkpt>
      <trkpt lat="43.44345" lon="6.40604">
        <ele>111</ele>
        <time>2020-10-13T12:04:11Z</time>
      </trkpt>
      <trkpt lat="43.4435" lon="6.40603">
        <ele>110.8</ele>
        <time>2020-10-13T12:04:15Z</time>
      </trkpt>
      <trkpt lat="43.44354" lon="6.40602">
        <ele>110.7</ele>
        <time>2020-10-13T12:04:19Z</time>
      </trkpt>
      <trkpt lat="43.44359" lon="6.40601">
        <ele>110.8</ele>
        <time>2020-10-13T12:04:26Z</time>
      </trkpt>
      <trkpt lat="43.44364" lon="6.40599">
        <ele>110.8</ele>
        <time>2020-10-13T12:04:32Z</time>
      </trkpt>
      <trkpt lat="43.44368" lon="6.40599">
        <ele>110.8</ele>
        <time>2020-10-13T12:04:36Z</time>
      </trkpt>
      <trkpt lat="43.44373" lon="6.40598">
        <ele>111.2</ele>
        <time>2020-10-13T12:04:40Z</time>
      </trkpt>
      <trkpt lat="43.44378" lon="6.40597">
        <ele>111.5</ele>
        <time>2020-10-13T12:04:44Z</time>
      </trkpt>
      <trkpt lat="43.44382" lon="6.40596">
        <ele>111.7</ele>
        <time>2020-10-13T12:04:48Z</time>
      </trkpt>
      <trkpt lat="43.44388" lon="6.40596">
        <ele>111.8</ele>
        <time>2020-10-13T12:04:53Z</time>
      </trkpt>
      <trkpt lat="43.44393" lon="6.40596">
        <ele>112</ele>
        <time>2020-10-13T12:04:58Z</time>
      </trkpt>
      <trkpt lat="43.44399" lon="6.40596">
        <ele>112.1</ele>
        <time>2020-10-13T12:05:02Z</time>
      </trkpt>
      <trkpt lat="43.44403" lon="6.40596">
        <ele>112.2</ele>
        <time>2020-10-13T12:05:05Z</time>
      </trkpt>
      <trkpt lat="43.44408" lon="6.40596">
        <ele>112.3</ele>
        <time>2020-10-13T12:05:10Z</time>
      </trkpt>
      <trkpt lat="43.44413" lon="6.40596">
        <ele>112.6</ele>
        <time>2020-10-13T12:05:14Z</time>
      </trkpt>
      <trkpt lat="43.44418" lon="6.40597">
        <ele>112.8</ele>
        <time>2020-10-13T12:05:17Z</time>
      </trkpt>
      <trkpt lat="43.44422" lon="6.40597">
        <ele>112.8</ele>
        <time>2020-10-13T12:05:21Z</time>
      </trkpt>
      <trkpt lat="43.44427" lon="6.40597">
        <ele>112.8</ele>
        <time>2020-10-13T12:05:25Z</time>
      </trkpt>
      <trkpt lat="43.44432" lon="6.40598">
        <ele>112.9</ele>
        <time>2020-10-13T12:05:30Z</time>
      </trkpt>
      <trkpt lat="43.44437" lon="6.40599">
        <ele>113</ele>
        <time>2020-10-13T12:05:35Z</time>
      </trkpt>
      <trkpt lat="43.44442" lon="6.406">
        <ele>112.9</ele>
        <time>2020-10-13T12:05:40Z</time>
      </trkpt>
      <trkpt lat="43.44448" lon="6.406">
        <ele>112.8</ele>
        <time>2020-10-13T12:05:44Z</time>
      </trkpt>
      <trkpt lat="43.44454" lon="6.406">
        <ele>112.6</ele>
        <time>2020-10-13T12:05:48Z</time>
      </trkpt>
      <trkpt lat="43.4446" lon="6.406">
        <ele>111.9</ele>
        <time>2020-10-13T12:05:52Z</time>
      </trkpt>
      <trkpt lat="43.44465" lon="6.406">
        <ele>111.3</ele>
        <time>2020-10-13T12:05:55Z</time>
      </trkpt>
      <trkpt lat="43.4447" lon="6.406">
        <ele>110.7</ele>
        <time>2020-10-13T12:05:58Z</time>
      </trkpt>
      <trkpt lat="43.44474" lon="6.406">
        <ele>110.3</ele>
        <time>2020-10-13T12:06:01Z</time>
      </trkpt>
      <trkpt lat="43.44479" lon="6.40602">
        <ele>109.8</ele>
        <time>2020-10-13T12:06:05Z</time>
      </trkpt>
      <trkpt lat="43.44485" lon="6.40602">
        <ele>109.6</ele>
        <time>2020-10-13T12:06:10Z</time>
      </trkpt>
      <trkpt lat="43.4449" lon="6.40603">
        <ele>109.6</ele>
        <time>2020-10-13T12:06:14Z</time>
      </trkpt>
      <trkpt lat="43.44496" lon="6.40604">
        <ele>109.6</ele>
        <time>2020-10-13T12:06:19Z</time>
      </trkpt>
      <trkpt lat="43.445" lon="6.40603">
        <ele>109.7</ele>
        <time>2020-10-13T12:06:22Z</time>
      </trkpt>
      <trkpt lat="43.44506" lon="6.40603">
        <ele>110</ele>
        <time>2020-10-13T12:06:27Z</time>
      </trkpt>
      <trkpt lat="43.4451" lon="6.40602">
        <ele>110.1</ele>
        <time>2020-10-13T12:06:31Z</time>
      </trkpt>
      <trkpt lat="43.44515" lon="6.40601">
        <ele>110.1</ele>
        <time>2020-10-13T12:06:35Z</time>
      </trkpt>
      <trkpt lat="43.4452" lon="6.406">
        <ele>110.1</ele>
        <time>2020-10-13T12:06:39Z</time>
      </trkpt>
      <trkpt lat="43.44525" lon="6.406">
        <ele>110.2</ele>
        <time>2020-10-13T12:06:43Z</time>
      </trkpt>
      <trkpt lat="43.4453" lon="6.40599">
        <ele>110.2</ele>
        <time>2020-10-13T12:06:48Z</time>
      </trkpt>
      <trkpt lat="43.44535" lon="6.40598">
        <ele>110.4</ele>
        <time>2020-10-13T12:06:53Z</time>
      </trkpt>
      <trkpt lat="43.44539" lon="6.40597">
        <ele>110.7</ele>
        <time>2020-10-13T12:06:57Z</time>
      </trkpt>
      <trkpt lat="43.44544" lon="6.40596">
        <ele>110.9</ele>
        <time>2020-10-13T12:07:01Z</time>
      </trkpt>
      <trkpt lat="43.44548" lon="6.40596">
        <ele>111.2</ele>
        <time>2020-10-13T12:07:05Z</time>
      </trkpt>
      <trkpt lat="43.44553" lon="6.40594">
        <ele>111.3</ele>
        <time>2020-10-13T12:07:08Z</time>
      </trkpt>
      <trkpt lat="43.44558" lon="6.40593">
        <ele>111.5</ele>
        <time>2020-10-13T12:07:12Z</time>
      </trkpt>
      <trkpt lat="43.44563" lon="6.40592">
        <ele>111.8</ele>
        <time>2020-10-13T12:07:16Z</time>
      </trkpt>
      <trkpt lat="43.44568" lon="6.40591">
        <ele>112.1</ele>
        <time>2020-10-13T12:07:20Z</time>
      </trkpt>
      <trkpt lat="43.44572" lon="6.4059">
        <ele>112.4</ele>
        <time>2020-10-13T12:07:24Z</time>
      </trkpt>
      <trkpt lat="43.44577" lon="6.40588">
        <ele>112.5</ele>
        <time>2020-10-13T12:07:27Z</time>
      </trkpt>
      <trkpt lat="43.44581" lon="6.40586">
        <ele>112.6</ele>
        <time>2020-10-13T12:07:40Z</time>
      </trkpt>
      <trkpt lat="43.44585" lon="6.40582">
        <ele>114.1</ele>
        <time>2020-10-13T12:10:01Z</time>
      </trkpt>
      <trkpt lat="43.44589" lon="6.40582">
        <ele>114.2</ele>
        <time>2020-10-13T12:10:42Z</time>
      </trkpt>
      <trkpt lat="43.44594" lon="6.40582">
        <ele>114.3</ele>
        <time>2020-10-13T12:10:47Z</time>
      </trkpt>
      <trkpt lat="43.446" lon="6.40581">
        <ele>114.3</ele>
        <time>2020-10-13T12:10:51Z</time>
      </trkpt>
      <trkpt lat="43.44605" lon="6.40581">
        <ele>114.2</ele>
        <time>2020-10-13T12:10:55Z</time>
      </trkpt>
      <trkpt lat="43.4461" lon="6.4058">
        <ele>114.1</ele>
        <time>2020-10-13T12:10:59Z</time>
      </trkpt>
      <trkpt lat="43.44616" lon="6.4058">
        <ele>114</ele>
        <time>2020-10-13T12:11:03Z</time>
      </trkpt>
      <trkpt lat="43.4462" lon="6.40578">
        <ele>114.1</ele>
        <time>2020-10-13T12:11:07Z</time>
      </trkpt>
      <trkpt lat="43.44626" lon="6.40577">
        <ele>114</ele>
        <time>2020-10-13T12:11:11Z</time>
      </trkpt>
      <trkpt lat="43.4463" lon="6.40577">
        <ele>113.9</ele>
        <time>2020-10-13T12:11:14Z</time>
      </trkpt>
      <trkpt lat="43.44635" lon="6.40577">
        <ele>113.8</ele>
        <time>2020-10-13T12:11:18Z</time>
      </trkpt>
      <trkpt lat="43.4464" lon="6.40576">
        <ele>113.8</ele>
        <time>2020-10-13T12:11:22Z</time>
      </trkpt>
      <trkpt lat="43.44645" lon="6.40575">
        <ele>113.9</ele>
        <time>2020-10-13T12:11:25Z</time>
      </trkpt>
      <trkpt lat="43.44651" lon="6.40574">
        <ele>113.9</ele>
        <time>2020-10-13T12:11:29Z</time>
      </trkpt>
      <trkpt lat="43.44656" lon="6.40573">
        <ele>114</ele>
        <time>2020-10-13T12:11:32Z</time>
      </trkpt>
      <trkpt lat="43.44661" lon="6.40572">
        <ele>114</ele>
        <time>2020-10-13T12:11:35Z</time>
      </trkpt>
      <trkpt lat="43.44665" lon="6.40572">
        <ele>113.9</ele>
        <time>2020-10-13T12:11:38Z</time>
      </trkpt>
      <trkpt lat="43.44671" lon="6.40571">
        <ele>113.9</ele>
        <time>2020-10-13T12:11:42Z</time>
      </trkpt>
      <trkpt lat="43.44676" lon="6.40571">
        <ele>113.9</ele>
        <time>2020-10-13T12:11:46Z</time>
      </trkpt>
      <trkpt lat="43.4468" lon="6.4057">
        <ele>113.8</ele>
        <time>2020-10-13T12:11:49Z</time>
      </trkpt>
      <trkpt lat="43.44686" lon="6.40569">
        <ele>113.7</ele>
        <time>2020-10-13T12:11:53Z</time>
      </trkpt>
      <trkpt lat="43.4469" lon="6.40568">
        <ele>113.4</ele>
        <time>2020-10-13T12:11:56Z</time>
      </trkpt>
      <trkpt lat="43.44696" lon="6.40567">
        <ele>113.2</ele>
        <time>2020-10-13T12:12:00Z</time>
      </trkpt>
      <trkpt lat="43.447" lon="6.40567">
        <ele>113.1</ele>
        <time>2020-10-13T12:12:03Z</time>
      </trkpt>
      <trkpt lat="43.44705" lon="6.40568">
        <ele>113</ele>
        <time>2020-10-13T12:12:06Z</time>
      </trkpt>
      <trkpt lat="43.44709" lon="6.4057">
        <ele>112.7</ele>
        <time>2020-10-13T12:12:09Z</time>
      </trkpt>
      <trkpt lat="43.44714" lon="6.40575">
        <ele>112.5</ele>
        <time>2020-10-13T12:12:13Z</time>
      </trkpt>
      <trkpt lat="43.44718" lon="6.40579">
        <ele>112.4</ele>
        <time>2020-10-13T12:12:17Z</time>
      </trkpt>
      <trkpt lat="43.44722" lon="6.40584">
        <ele>112.3</ele>
        <time>2020-10-13T12:12:21Z</time>
      </trkpt>
      <trkpt lat="43.44726" lon="6.40587">
        <ele>112</ele>
        <time>2020-10-13T12:12:25Z</time>
      </trkpt>
      <trkpt lat="43.4473" lon="6.40592">
        <ele>111.7</ele>
        <time>2020-10-13T12:12:29Z</time>
      </trkpt>
      <trkpt lat="43.44734" lon="6.40598">
        <ele>111.6</ele>
        <time>2020-10-13T12:12:33Z</time>
      </trkpt>
      <trkpt lat="43.44738" lon="6.40603">
        <ele>111.4</ele>
        <time>2020-10-13T12:12:37Z</time>
      </trkpt>
      <trkpt lat="43.44741" lon="6.40608">
        <ele>111.3</ele>
        <time>2020-10-13T12:12:40Z</time>
      </trkpt>
      <trkpt lat="43.44743" lon="6.40614">
        <ele>111.1</ele>
        <time>2020-10-13T12:12:44Z</time>
      </trkpt>
      <trkpt lat="43.44745" lon="6.4062">
        <ele>111</ele>
        <time>2020-10-13T12:12:48Z</time>
      </trkpt>
      <trkpt lat="43.44745" lon="6.40626">
        <ele>111</ele>
        <time>2020-10-13T12:12:53Z</time>
      </trkpt>
      <trkpt lat="43.44746" lon="6.40633">
        <ele>111.2</ele>
        <time>2020-10-13T12:12:58Z</time>
      </trkpt>
      <trkpt lat="43.44746" lon="6.40641">
        <ele>111.3</ele>
        <time>2020-10-13T12:13:02Z</time>
      </trkpt>
      <trkpt lat="43.44748" lon="6.40647">
        <ele>111.3</ele>
        <time>2020-10-13T12:13:06Z</time>
      </trkpt>
      <trkpt lat="43.44751" lon="6.40653">
        <ele>111.1</ele>
        <time>2020-10-13T12:13:09Z</time>
      </trkpt>
      <trkpt lat="43.44753" lon="6.40659">
        <ele>110.9</ele>
        <time>2020-10-13T12:13:12Z</time>
      </trkpt>
      <trkpt lat="43.44756" lon="6.40667">
        <ele>110.7</ele>
        <time>2020-10-13T12:13:16Z</time>
      </trkpt>
      <trkpt lat="43.44757" lon="6.40673">
        <ele>110.7</ele>
        <time>2020-10-13T12:13:20Z</time>
      </trkpt>
      <trkpt lat="43.44755" lon="6.4068">
        <ele>110.7</ele>
        <time>2020-10-13T12:13:25Z</time>
      </trkpt>
      <trkpt lat="43.44755" lon="6.40686">
        <ele>110.7</ele>
        <time>2020-10-13T12:13:29Z</time>
      </trkpt>
      <trkpt lat="43.44755" lon="6.40693">
        <ele>110.9</ele>
        <time>2020-10-13T12:13:37Z</time>
      </trkpt>
      <trkpt lat="43.44755" lon="6.40699">
        <ele>110.9</ele>
        <time>2020-10-13T12:13:50Z</time>
      </trkpt>
      <trkpt lat="43.44751" lon="6.40704">
        <ele>110.9</ele>
        <time>2020-10-13T12:13:57Z</time>
      </trkpt>
      <trkpt lat="43.44747" lon="6.40709">
        <ele>110.9</ele>
        <time>2020-10-13T12:14:02Z</time>
      </trkpt>
      <trkpt lat="43.44746" lon="6.40715">
        <ele>111.1</ele>
        <time>2020-10-13T12:14:06Z</time>
      </trkpt>
      <trkpt lat="43.44742" lon="6.40721">
        <ele>111.4</ele>
        <time>2020-10-13T12:14:11Z</time>
      </trkpt>
      <trkpt lat="43.44738" lon="6.40726">
        <ele>111.6</ele>
        <time>2020-10-13T12:14:15Z</time>
      </trkpt>
      <trkpt lat="43.44735" lon="6.40731">
        <ele>111.7</ele>
        <time>2020-10-13T12:14:19Z</time>
      </trkpt>
      <trkpt lat="43.44731" lon="6.40735">
        <ele>111.8</ele>
        <time>2020-10-13T12:14:22Z</time>
      </trkpt>
      <trkpt lat="43.44727" lon="6.4074">
        <ele>112.2</ele>
        <time>2020-10-13T12:14:26Z</time>
      </trkpt>
      <trkpt lat="43.44723" lon="6.40743">
        <ele>112.4</ele>
        <time>2020-10-13T12:14:30Z</time>
      </trkpt>
      <trkpt lat="43.44719" lon="6.40748">
        <ele>112.8</ele>
        <time>2020-10-13T12:14:34Z</time>
      </trkpt>
      <trkpt lat="43.44715" lon="6.40753">
        <ele>113.2</ele>
        <time>2020-10-13T12:14:38Z</time>
      </trkpt>
      <trkpt lat="43.4471" lon="6.40756">
        <ele>113.6</ele>
        <time>2020-10-13T12:14:42Z</time>
      </trkpt>
      <trkpt lat="43.44707" lon="6.40762">
        <ele>113.9</ele>
        <time>2020-10-13T12:14:46Z</time>
      </trkpt>
      <trkpt lat="43.44703" lon="6.40767">
        <ele>114.2</ele>
        <time>2020-10-13T12:14:50Z</time>
      </trkpt>
      <trkpt lat="43.44699" lon="6.40772">
        <ele>114.5</ele>
        <time>2020-10-13T12:14:54Z</time>
      </trkpt>
      <trkpt lat="43.44695" lon="6.40777">
        <ele>114.9</ele>
        <time>2020-10-13T12:14:58Z</time>
      </trkpt>
      <trkpt lat="43.44691" lon="6.4078">
        <ele>115.3</ele>
        <time>2020-10-13T12:15:02Z</time>
      </trkpt>
      <trkpt lat="43.44688" lon="6.40784">
        <ele>115.6</ele>
        <time>2020-10-13T12:15:06Z</time>
      </trkpt>
      <trkpt lat="43.44683" lon="6.40789">
        <ele>116</ele>
        <time>2020-10-13T12:15:10Z</time>
      </trkpt>
      <trkpt lat="43.44679" lon="6.40793">
        <ele>116.8</ele>
        <time>2020-10-13T12:15:15Z</time>
      </trkpt>
      <trkpt lat="43.44675" lon="6.40798">
        <ele>117.3</ele>
        <time>2020-10-13T12:15:19Z</time>
      </trkpt>
      <trkpt lat="43.44671" lon="6.40802">
        <ele>117.8</ele>
        <time>2020-10-13T12:15:23Z</time>
      </trkpt>
      <trkpt lat="43.44667" lon="6.40806">
        <ele>118.3</ele>
        <time>2020-10-13T12:15:27Z</time>
      </trkpt>
      <trkpt lat="43.44662" lon="6.4081">
        <ele>118.6</ele>
        <time>2020-10-13T12:15:31Z</time>
      </trkpt>
      <trkpt lat="43.44658" lon="6.40814">
        <ele>118.9</ele>
        <time>2020-10-13T12:15:35Z</time>
      </trkpt>
      <trkpt lat="43.44654" lon="6.40817">
        <ele>119.3</ele>
        <time>2020-10-13T12:15:39Z</time>
      </trkpt>
      <trkpt lat="43.44649" lon="6.40819">
        <ele>119.6</ele>
        <time>2020-10-13T12:15:42Z</time>
      </trkpt>
      <trkpt lat="43.44645" lon="6.40824">
        <ele>120.3</ele>
        <time>2020-10-13T12:15:47Z</time>
      </trkpt>
      <trkpt lat="43.44641" lon="6.40829">
        <ele>120.7</ele>
        <time>2020-10-13T12:15:51Z</time>
      </trkpt>
      <trkpt lat="43.44637" lon="6.40833">
        <ele>121.4</ele>
        <time>2020-10-13T12:15:56Z</time>
      </trkpt>
      <trkpt lat="43.44633" lon="6.40837">
        <ele>121.8</ele>
        <time>2020-10-13T12:15:59Z</time>
      </trkpt>
      <trkpt lat="43.44629" lon="6.40841">
        <ele>122.2</ele>
        <time>2020-10-13T12:16:02Z</time>
      </trkpt>
      <trkpt lat="43.44625" lon="6.40845">
        <ele>122.5</ele>
        <time>2020-10-13T12:16:06Z</time>
      </trkpt>
      <trkpt lat="43.4462" lon="6.40848">
        <ele>123.1</ele>
        <time>2020-10-13T12:16:11Z</time>
      </trkpt>
      <trkpt lat="43.44615" lon="6.40851">
        <ele>123.6</ele>
        <time>2020-10-13T12:16:16Z</time>
      </trkpt>
      <trkpt lat="43.44611" lon="6.40854">
        <ele>124.1</ele>
        <time>2020-10-13T12:16:20Z</time>
      </trkpt>
      <trkpt lat="43.44607" lon="6.40858">
        <ele>124.5</ele>
        <time>2020-10-13T12:16:24Z</time>
      </trkpt>
      <trkpt lat="43.44603" lon="6.40862">
        <ele>124.9</ele>
        <time>2020-10-13T12:16:28Z</time>
      </trkpt>
      <trkpt lat="43.44598" lon="6.40865">
        <ele>125.3</ele>
        <time>2020-10-13T12:16:32Z</time>
      </trkpt>
      <trkpt lat="43.44594" lon="6.40868">
        <ele>125.7</ele>
        <time>2020-10-13T12:16:35Z</time>
      </trkpt>
      <trkpt lat="43.4459" lon="6.40872">
        <ele>126.2</ele>
        <time>2020-10-13T12:16:38Z</time>
      </trkpt>
      <trkpt lat="43.44586" lon="6.40876">
        <ele>126.8</ele>
        <time>2020-10-13T12:16:43Z</time>
      </trkpt>
      <trkpt lat="43.44582" lon="6.4088">
        <ele>127.4</ele>
        <time>2020-10-13T12:16:48Z</time>
      </trkpt>
      <trkpt lat="43.44578" lon="6.40885">
        <ele>128</ele>
        <time>2020-10-13T12:16:53Z</time>
      </trkpt>
      <trkpt lat="43.44574" lon="6.40888">
        <ele>128.3</ele>
        <time>2020-10-13T12:16:57Z</time>
      </trkpt>
      <trkpt lat="43.44569" lon="6.40893">
        <ele>128.8</ele>
        <time>2020-10-13T12:17:01Z</time>
      </trkpt>
      <trkpt lat="43.44566" lon="6.40897">
        <ele>129.3</ele>
        <time>2020-10-13T12:17:05Z</time>
      </trkpt>
      <trkpt lat="43.44562" lon="6.40902">
        <ele>129.7</ele>
        <time>2020-10-13T12:17:09Z</time>
      </trkpt>
      <trkpt lat="43.44558" lon="6.40906">
        <ele>130.1</ele>
        <time>2020-10-13T12:17:13Z</time>
      </trkpt>
      <trkpt lat="43.44554" lon="6.4091">
        <ele>130.6</ele>
        <time>2020-10-13T12:17:18Z</time>
      </trkpt>
      <trkpt lat="43.44549" lon="6.40914">
        <ele>131.4</ele>
        <time>2020-10-13T12:17:23Z</time>
      </trkpt>
      <trkpt lat="43.44546" lon="6.40919">
        <ele>131.9</ele>
        <time>2020-10-13T12:17:28Z</time>
      </trkpt>
      <trkpt lat="43.44542" lon="6.40924">
        <ele>132.3</ele>
        <time>2020-10-13T12:17:32Z</time>
      </trkpt>
      <trkpt lat="43.44539" lon="6.40929">
        <ele>132.7</ele>
        <time>2020-10-13T12:17:36Z</time>
      </trkpt>
      <trkpt lat="43.44536" lon="6.40934">
        <ele>133.2</ele>
        <time>2020-10-13T12:17:40Z</time>
      </trkpt>
      <trkpt lat="43.44533" lon="6.40939">
        <ele>133.5</ele>
        <time>2020-10-13T12:17:43Z</time>
      </trkpt>
      <trkpt lat="43.4453" lon="6.40945">
        <ele>134.1</ele>
        <time>2020-10-13T12:17:48Z</time>
      </trkpt>
      <trkpt lat="43.44525" lon="6.40948">
        <ele>134.5</ele>
        <time>2020-10-13T12:17:51Z</time>
      </trkpt>
      <trkpt lat="43.44521" lon="6.40953">
        <ele>134.8</ele>
        <time>2020-10-13T12:17:54Z</time>
      </trkpt>
      <trkpt lat="43.44518" lon="6.40957">
        <ele>135.1</ele>
        <time>2020-10-13T12:17:57Z</time>
      </trkpt>
      <trkpt lat="43.44515" lon="6.40964">
        <ele>135.7</ele>
        <time>2020-10-13T12:18:02Z</time>
      </trkpt>
      <trkpt lat="43.44511" lon="6.40969">
        <ele>136.3</ele>
        <time>2020-10-13T12:18:06Z</time>
      </trkpt>
      <trkpt lat="43.44507" lon="6.40975">
        <ele>136.9</ele>
        <time>2020-10-13T12:18:10Z</time>
      </trkpt>
      <trkpt lat="43.44503" lon="6.4098">
        <ele>137.3</ele>
        <time>2020-10-13T12:18:14Z</time>
      </trkpt>
      <trkpt lat="43.44499" lon="6.40986">
        <ele>137.7</ele>
        <time>2020-10-13T12:18:18Z</time>
      </trkpt>
      <trkpt lat="43.44496" lon="6.40992">
        <ele>138.1</ele>
        <time>2020-10-13T12:18:22Z</time>
      </trkpt>
      <trkpt lat="43.44493" lon="6.40996">
        <ele>138.5</ele>
        <time>2020-10-13T12:18:26Z</time>
      </trkpt>
      <trkpt lat="43.4449" lon="6.41002">
        <ele>138.9</ele>
        <time>2020-10-13T12:18:31Z</time>
      </trkpt>
      <trkpt lat="43.44484" lon="6.41007">
        <ele>139.4</ele>
        <time>2020-10-13T12:18:36Z</time>
      </trkpt>
      <trkpt lat="43.4448" lon="6.41012">
        <ele>140</ele>
        <time>2020-10-13T12:18:42Z</time>
      </trkpt>
      <trkpt lat="43.44476" lon="6.41015">
        <ele>140.4</ele>
        <time>2020-10-13T12:18:46Z</time>
      </trkpt>
      <trkpt lat="43.44472" lon="6.41018">
        <ele>140.6</ele>
        <time>2020-10-13T12:18:49Z</time>
      </trkpt>
      <trkpt lat="43.44468" lon="6.41024">
        <ele>141</ele>
        <time>2020-10-13T12:18:54Z</time>
      </trkpt>
      <trkpt lat="43.44463" lon="6.41029">
        <ele>141.5</ele>
        <time>2020-10-13T12:18:58Z</time>
      </trkpt>
      <trkpt lat="43.44458" lon="6.41033">
        <ele>142.1</ele>
        <time>2020-10-13T12:19:04Z</time>
      </trkpt>
      <trkpt lat="43.44457" lon="6.41039">
        <ele>142.7</ele>
        <time>2020-10-13T12:19:10Z</time>
      </trkpt>
      <trkpt lat="43.44457" lon="6.41045">
        <ele>143.2</ele>
        <time>2020-10-13T12:19:17Z</time>
      </trkpt>
      <trkpt lat="43.44453" lon="6.41049">
        <ele>143.8</ele>
        <time>2020-10-13T12:19:36Z</time>
      </trkpt>
      <trkpt lat="43.44451" lon="6.41055">
        <ele>143.9</ele>
        <time>2020-10-13T12:19:41Z</time>
      </trkpt>
      <trkpt lat="43.4445" lon="6.41061">
        <ele>144</ele>
        <time>2020-10-13T12:19:45Z</time>
      </trkpt>
      <trkpt lat="43.44449" lon="6.41068">
        <ele>144.1</ele>
        <time>2020-10-13T12:19:49Z</time>
      </trkpt>
      <trkpt lat="43.44447" lon="6.41075">
        <ele>144.3</ele>
        <time>2020-10-13T12:19:53Z</time>
      </trkpt>
      <trkpt lat="43.44445" lon="6.41081">
        <ele>144.6</ele>
        <time>2020-10-13T12:19:57Z</time>
      </trkpt>
      <trkpt lat="43.44444" lon="6.41088">
        <ele>144.8</ele>
        <time>2020-10-13T12:20:01Z</time>
      </trkpt>
      <trkpt lat="43.44441" lon="6.41094">
        <ele>145.1</ele>
        <time>2020-10-13T12:20:05Z</time>
      </trkpt>
      <trkpt lat="43.44439" lon="6.41101">
        <ele>145.5</ele>
        <time>2020-10-13T12:20:09Z</time>
      </trkpt>
      <trkpt lat="43.44436" lon="6.41108">
        <ele>146</ele>
        <time>2020-10-13T12:20:13Z</time>
      </trkpt>
      <trkpt lat="43.44436" lon="6.41116">
        <ele>146.4</ele>
        <time>2020-10-13T12:20:17Z</time>
      </trkpt>
      <trkpt lat="43.44434" lon="6.41124">
        <ele>146.7</ele>
        <time>2020-10-13T12:20:21Z</time>
      </trkpt>
      <trkpt lat="43.44433" lon="6.41132">
        <ele>147.1</ele>
        <time>2020-10-13T12:20:25Z</time>
      </trkpt>
      <trkpt lat="43.44431" lon="6.41139">
        <ele>147.2</ele>
        <time>2020-10-13T12:20:29Z</time>
      </trkpt>
      <trkpt lat="43.4443" lon="6.41146">
        <ele>147.2</ele>
        <time>2020-10-13T12:20:32Z</time>
      </trkpt>
      <trkpt lat="43.44429" lon="6.41153">
        <ele>147.2</ele>
        <time>2020-10-13T12:20:36Z</time>
      </trkpt>
      <trkpt lat="43.44427" lon="6.41161">
        <ele>147.3</ele>
        <time>2020-10-13T12:20:40Z</time>
      </trkpt>
      <trkpt lat="43.44426" lon="6.41168">
        <ele>147.5</ele>
        <time>2020-10-13T12:20:44Z</time>
      </trkpt>
      <trkpt lat="43.44425" lon="6.41174">
        <ele>147.6</ele>
        <time>2020-10-13T12:20:48Z</time>
      </trkpt>
      <trkpt lat="43.44424" lon="6.4118">
        <ele>147.6</ele>
        <time>2020-10-13T12:20:52Z</time>
      </trkpt>
      <trkpt lat="43.44424" lon="6.41188">
        <ele>147.9</ele>
        <time>2020-10-13T12:20:57Z</time>
      </trkpt>
      <trkpt lat="43.44424" lon="6.41195">
        <ele>148</ele>
        <time>2020-10-13T12:21:00Z</time>
      </trkpt>
      <trkpt lat="43.44424" lon="6.41201">
        <ele>148.1</ele>
        <time>2020-10-13T12:21:03Z</time>
      </trkpt>
      <trkpt lat="43.44425" lon="6.41209">
        <ele>148.2</ele>
        <time>2020-10-13T12:21:07Z</time>
      </trkpt>
      <trkpt lat="43.44425" lon="6.41217">
        <ele>148.3</ele>
        <time>2020-10-13T12:21:11Z</time>
      </trkpt>
      <trkpt lat="43.44425" lon="6.41223">
        <ele>148.4</ele>
        <time>2020-10-13T12:21:14Z</time>
      </trkpt>
      <trkpt lat="43.44425" lon="6.4123">
        <ele>148.5</ele>
        <time>2020-10-13T12:21:17Z</time>
      </trkpt>
      <trkpt lat="43.44424" lon="6.41236">
        <ele>148.6</ele>
        <time>2020-10-13T12:21:20Z</time>
      </trkpt>
      <trkpt lat="43.44421" lon="6.41243">
        <ele>148.7</ele>
        <time>2020-10-13T12:21:24Z</time>
      </trkpt>
      <trkpt lat="43.44419" lon="6.4125">
        <ele>148.9</ele>
        <time>2020-10-13T12:21:28Z</time>
      </trkpt>
      <trkpt lat="43.44416" lon="6.41256">
        <ele>149.3</ele>
        <time>2020-10-13T12:21:32Z</time>
      </trkpt>
      <trkpt lat="43.44413" lon="6.41261">
        <ele>149.6</ele>
        <time>2020-10-13T12:21:36Z</time>
      </trkpt>
      <trkpt lat="43.4441" lon="6.41267">
        <ele>149.8</ele>
        <time>2020-10-13T12:21:40Z</time>
      </trkpt>
      <trkpt lat="43.44406" lon="6.41273">
        <ele>150</ele>
        <time>2020-10-13T12:21:44Z</time>
      </trkpt>
      <trkpt lat="43.44403" lon="6.41278">
        <ele>150.4</ele>
        <time>2020-10-13T12:21:48Z</time>
      </trkpt>
      <trkpt lat="43.44399" lon="6.41284">
        <ele>150.7</ele>
        <time>2020-10-13T12:21:52Z</time>
      </trkpt>
      <trkpt lat="43.44395" lon="6.41288">
        <ele>151</ele>
        <time>2020-10-13T12:21:56Z</time>
      </trkpt>
      <trkpt lat="43.44392" lon="6.41294">
        <ele>151.3</ele>
        <time>2020-10-13T12:22:00Z</time>
      </trkpt>
      <trkpt lat="43.44389" lon="6.413">
        <ele>151.7</ele>
        <time>2020-10-13T12:22:04Z</time>
      </trkpt>
      <trkpt lat="43.44387" lon="6.41305">
        <ele>152.1</ele>
        <time>2020-10-13T12:22:08Z</time>
      </trkpt>
      <trkpt lat="43.44384" lon="6.41312">
        <ele>152.5</ele>
        <time>2020-10-13T12:22:12Z</time>
      </trkpt>
      <trkpt lat="43.44381" lon="6.41317">
        <ele>152.8</ele>
        <time>2020-10-13T12:22:15Z</time>
      </trkpt>
      <trkpt lat="43.44379" lon="6.41322">
        <ele>152.9</ele>
        <time>2020-10-13T12:22:18Z</time>
      </trkpt>
      <trkpt lat="43.44377" lon="6.41328">
        <ele>153</ele>
        <time>2020-10-13T12:22:21Z</time>
      </trkpt>
      <trkpt lat="43.44375" lon="6.41334">
        <ele>153.1</ele>
        <time>2020-10-13T12:22:24Z</time>
      </trkpt>
      <trkpt lat="43.44373" lon="6.41341">
        <ele>153.2</ele>
        <time>2020-10-13T12:22:28Z</time>
      </trkpt>
      <trkpt lat="43.44372" lon="6.41349">
        <ele>153.4</ele>
        <time>2020-10-13T12:22:32Z</time>
      </trkpt>
      <trkpt lat="43.44371" lon="6.41355">
        <ele>153.5</ele>
        <time>2020-10-13T12:22:35Z</time>
      </trkpt>
      <trkpt lat="43.44369" lon="6.41361">
        <ele>153.6</ele>
        <time>2020-10-13T12:22:38Z</time>
      </trkpt>
      <trkpt lat="43.44367" lon="6.41369">
        <ele>153.8</ele>
        <time>2020-10-13T12:22:42Z</time>
      </trkpt>
      <trkpt lat="43.44366" lon="6.41375">
        <ele>153.9</ele>
        <time>2020-10-13T12:22:45Z</time>
      </trkpt>
      <trkpt lat="43.44364" lon="6.41383">
        <ele>154</ele>
        <time>2020-10-13T12:22:49Z</time>
      </trkpt>
      <trkpt lat="43.44363" lon="6.4139">
        <ele>154</ele>
        <time>2020-10-13T12:22:53Z</time>
      </trkpt>
      <trkpt lat="43.44362" lon="6.41398">
        <ele>154.1</ele>
        <time>2020-10-13T12:22:57Z</time>
      </trkpt>
      <trkpt lat="43.44361" lon="6.41406">
        <ele>154</ele>
        <time>2020-10-13T12:23:01Z</time>
      </trkpt>
      <trkpt lat="43.4436" lon="6.41412">
        <ele>154</ele>
        <time>2020-10-13T12:23:04Z</time>
      </trkpt>
      <trkpt lat="43.44358" lon="6.41418">
        <ele>154.1</ele>
        <time>2020-10-13T12:23:07Z</time>
      </trkpt>
      <trkpt lat="43.44357" lon="6.41426">
        <ele>154.2</ele>
        <time>2020-10-13T12:23:11Z</time>
      </trkpt>
      <trkpt lat="43.44356" lon="6.41433">
        <ele>154.3</ele>
        <time>2020-10-13T12:23:15Z</time>
      </trkpt>
      <trkpt lat="43.44354" lon="6.41441">
        <ele>154.4</ele>
        <time>2020-10-13T12:23:19Z</time>
      </trkpt>
      <trkpt lat="43.44353" lon="6.41448">
        <ele>154.5</ele>
        <time>2020-10-13T12:23:22Z</time>
      </trkpt>
      <trkpt lat="43.44351" lon="6.41455">
        <ele>154.4</ele>
        <time>2020-10-13T12:23:26Z</time>
      </trkpt>
      <trkpt lat="43.4435" lon="6.41462">
        <ele>154.3</ele>
        <time>2020-10-13T12:23:30Z</time>
      </trkpt>
      <trkpt lat="43.44348" lon="6.41469">
        <ele>154.5</ele>
        <time>2020-10-13T12:23:34Z</time>
      </trkpt>
      <trkpt lat="43.44347" lon="6.41476">
        <ele>154.7</ele>
        <time>2020-10-13T12:23:38Z</time>
      </trkpt>
      <trkpt lat="43.44345" lon="6.41483">
        <ele>154.7</ele>
        <time>2020-10-13T12:23:42Z</time>
      </trkpt>
      <trkpt lat="43.44342" lon="6.41489">
        <ele>154.7</ele>
        <time>2020-10-13T12:23:46Z</time>
      </trkpt>
      <trkpt lat="43.44338" lon="6.41492">
        <ele>154.7</ele>
        <time>2020-10-13T12:23:50Z</time>
      </trkpt>
      <trkpt lat="43.44333" lon="6.41494">
        <ele>154.5</ele>
        <time>2020-10-13T12:23:56Z</time>
      </trkpt>
      <trkpt lat="43.44329" lon="6.41496">
        <ele>154.4</ele>
        <time>2020-10-13T12:24:00Z</time>
      </trkpt>
      <trkpt lat="43.44323" lon="6.41498">
        <ele>154.2</ele>
        <time>2020-10-13T12:24:04Z</time>
      </trkpt>
      <trkpt lat="43.44318" lon="6.41499">
        <ele>154.1</ele>
        <time>2020-10-13T12:24:07Z</time>
      </trkpt>
      <trkpt lat="43.44312" lon="6.415">
        <ele>154</ele>
        <time>2020-10-13T12:24:10Z</time>
      </trkpt>
      <trkpt lat="43.44307" lon="6.41501">
        <ele>153.8</ele>
        <time>2020-10-13T12:24:14Z</time>
      </trkpt>
      <trkpt lat="43.44302" lon="6.415">
        <ele>153.6</ele>
        <time>2020-10-13T12:24:17Z</time>
      </trkpt>
      <trkpt lat="43.44298" lon="6.415">
        <ele>153.2</ele>
        <time>2020-10-13T12:24:20Z</time>
      </trkpt>
      <trkpt lat="43.44292" lon="6.41498">
        <ele>152.7</ele>
        <time>2020-10-13T12:24:24Z</time>
      </trkpt>
      <trkpt lat="43.44287" lon="6.41498">
        <ele>152.5</ele>
        <time>2020-10-13T12:24:27Z</time>
      </trkpt>
      <trkpt lat="43.44282" lon="6.41495">
        <ele>152.3</ele>
        <time>2020-10-13T12:24:31Z</time>
      </trkpt>
      <trkpt lat="43.44278" lon="6.41493">
        <ele>152.1</ele>
        <time>2020-10-13T12:24:35Z</time>
      </trkpt>
      <trkpt lat="43.44274" lon="6.41491">
        <ele>151.9</ele>
        <time>2020-10-13T12:24:39Z</time>
      </trkpt>
      <trkpt lat="43.44268" lon="6.41488">
        <ele>151.7</ele>
        <time>2020-10-13T12:24:43Z</time>
      </trkpt>
      <trkpt lat="43.44264" lon="6.41484">
        <ele>151.4</ele>
        <time>2020-10-13T12:24:47Z</time>
      </trkpt>
      <trkpt lat="43.4426" lon="6.41482">
        <ele>151.2</ele>
        <time>2020-10-13T12:24:50Z</time>
      </trkpt>
      <trkpt lat="43.44255" lon="6.4148">
        <ele>151</ele>
        <time>2020-10-13T12:24:53Z</time>
      </trkpt>
      <trkpt lat="43.4425" lon="6.41477">
        <ele>150.8</ele>
        <time>2020-10-13T12:24:56Z</time>
      </trkpt>
      <trkpt lat="43.44245" lon="6.41475">
        <ele>150.6</ele>
        <time>2020-10-13T12:25:00Z</time>
      </trkpt>
      <trkpt lat="43.4424" lon="6.41471">
        <ele>150.4</ele>
        <time>2020-10-13T12:25:04Z</time>
      </trkpt>
      <trkpt lat="43.44236" lon="6.41468">
        <ele>150.3</ele>
        <time>2020-10-13T12:25:07Z</time>
      </trkpt>
      <trkpt lat="43.44232" lon="6.41466">
        <ele>150.2</ele>
        <time>2020-10-13T12:25:10Z</time>
      </trkpt>
      <trkpt lat="43.44226" lon="6.41463">
        <ele>150.1</ele>
        <time>2020-10-13T12:25:14Z</time>
      </trkpt>
      <trkpt lat="43.44222" lon="6.4146">
        <ele>150</ele>
        <time>2020-10-13T12:25:18Z</time>
      </trkpt>
      <trkpt lat="43.44217" lon="6.41458">
        <ele>149.9</ele>
        <time>2020-10-13T12:25:22Z</time>
      </trkpt>
      <trkpt lat="43.44213" lon="6.41455">
        <ele>149.8</ele>
        <time>2020-10-13T12:25:26Z</time>
      </trkpt>
      <trkpt lat="43.44208" lon="6.41452">
        <ele>149.6</ele>
        <time>2020-10-13T12:25:30Z</time>
      </trkpt>
      <trkpt lat="43.44204" lon="6.41449">
        <ele>149.4</ele>
        <time>2020-10-13T12:25:34Z</time>
      </trkpt>
      <trkpt lat="43.44199" lon="6.41447">
        <ele>149.3</ele>
        <time>2020-10-13T12:25:38Z</time>
      </trkpt>
      <trkpt lat="43.44194" lon="6.41443">
        <ele>149.1</ele>
        <time>2020-10-13T12:25:43Z</time>
      </trkpt>
      <trkpt lat="43.4419" lon="6.41439">
        <ele>149</ele>
        <time>2020-10-13T12:25:48Z</time>
      </trkpt>
      <trkpt lat="43.44186" lon="6.41433">
        <ele>148.8</ele>
        <time>2020-10-13T12:25:53Z</time>
      </trkpt>
      <trkpt lat="43.44181" lon="6.41429">
        <ele>148.6</ele>
        <time>2020-10-13T12:25:57Z</time>
      </trkpt>
      <trkpt lat="43.44176" lon="6.41424">
        <ele>148.5</ele>
        <time>2020-10-13T12:26:01Z</time>
      </trkpt>
      <trkpt lat="43.44171" lon="6.41421">
        <ele>148.4</ele>
        <time>2020-10-13T12:26:04Z</time>
      </trkpt>
      <trkpt lat="43.44167" lon="6.41417">
        <ele>148.3</ele>
        <time>2020-10-13T12:26:07Z</time>
      </trkpt>
      <trkpt lat="43.44163" lon="6.41414">
        <ele>148.1</ele>
        <time>2020-10-13T12:26:10Z</time>
      </trkpt>
      <trkpt lat="43.44158" lon="6.41412">
        <ele>148</ele>
        <time>2020-10-13T12:26:13Z</time>
      </trkpt>
      <trkpt lat="43.44154" lon="6.4141">
        <ele>147.7</ele>
        <time>2020-10-13T12:26:16Z</time>
      </trkpt>
      <trkpt lat="43.44149" lon="6.41408">
        <ele>147.5</ele>
        <time>2020-10-13T12:26:19Z</time>
      </trkpt>
      <trkpt lat="43.44144" lon="6.41408">
        <ele>147.3</ele>
        <time>2020-10-13T12:26:22Z</time>
      </trkpt>
      <trkpt lat="43.44139" lon="6.41406">
        <ele>147</ele>
        <time>2020-10-13T12:26:25Z</time>
      </trkpt>
      <trkpt lat="43.44135" lon="6.41405">
        <ele>146.7</ele>
        <time>2020-10-13T12:26:28Z</time>
      </trkpt>
      <trkpt lat="43.4413" lon="6.41404">
        <ele>146.3</ele>
        <time>2020-10-13T12:26:31Z</time>
      </trkpt>
      <trkpt lat="43.44124" lon="6.41404">
        <ele>146</ele>
        <time>2020-10-13T12:26:35Z</time>
      </trkpt>
      <trkpt lat="43.44118" lon="6.41404">
        <ele>145.8</ele>
        <time>2020-10-13T12:26:39Z</time>
      </trkpt>
      <trkpt lat="43.44114" lon="6.41404">
        <ele>145.7</ele>
        <time>2020-10-13T12:26:42Z</time>
      </trkpt>
      <trkpt lat="43.44108" lon="6.41405">
        <ele>145.5</ele>
        <time>2020-10-13T12:26:46Z</time>
      </trkpt>
      <trkpt lat="43.44104" lon="6.41406">
        <ele>145.4</ele>
        <time>2020-10-13T12:26:49Z</time>
      </trkpt>
      <trkpt lat="43.44099" lon="6.41409">
        <ele>145.1</ele>
        <time>2020-10-13T12:26:53Z</time>
      </trkpt>
      <trkpt lat="43.44094" lon="6.41412">
        <ele>144.9</ele>
        <time>2020-10-13T12:26:57Z</time>
      </trkpt>
      <trkpt lat="43.44091" lon="6.41417">
        <ele>144.7</ele>
        <time>2020-10-13T12:27:01Z</time>
      </trkpt>
      <trkpt lat="43.44087" lon="6.41422">
        <ele>144.6</ele>
        <time>2020-10-13T12:27:05Z</time>
      </trkpt>
      <trkpt lat="43.44085" lon="6.41429">
        <ele>144.4</ele>
        <time>2020-10-13T12:27:09Z</time>
      </trkpt>
      <trkpt lat="43.44082" lon="6.41435">
        <ele>144.3</ele>
        <time>2020-10-13T12:27:12Z</time>
      </trkpt>
      <trkpt lat="43.44081" lon="6.41441">
        <ele>144.2</ele>
        <time>2020-10-13T12:27:15Z</time>
      </trkpt>
      <trkpt lat="43.44079" lon="6.41447">
        <ele>144.2</ele>
        <time>2020-10-13T12:27:19Z</time>
      </trkpt>
      <trkpt lat="43.44076" lon="6.41454">
        <ele>144.1</ele>
        <time>2020-10-13T12:27:23Z</time>
      </trkpt>
      <trkpt lat="43.44075" lon="6.41461">
        <ele>144.1</ele>
        <time>2020-10-13T12:27:27Z</time>
      </trkpt>
      <trkpt lat="43.44074" lon="6.41467">
        <ele>144</ele>
        <time>2020-10-13T12:27:31Z</time>
      </trkpt>
      <trkpt lat="43.44072" lon="6.41473">
        <ele>144</ele>
        <time>2020-10-13T12:27:35Z</time>
      </trkpt>
      <trkpt lat="43.44071" lon="6.41479">
        <ele>143.9</ele>
        <time>2020-10-13T12:27:38Z</time>
      </trkpt>
      <trkpt lat="43.44069" lon="6.41485">
        <ele>143.8</ele>
        <time>2020-10-13T12:27:41Z</time>
      </trkpt>
      <trkpt lat="43.44066" lon="6.41491">
        <ele>143.6</ele>
        <time>2020-10-13T12:27:45Z</time>
      </trkpt>
      <trkpt lat="43.44063" lon="6.41497">
        <ele>143.4</ele>
        <time>2020-10-13T12:27:49Z</time>
      </trkpt>
      <trkpt lat="43.4406" lon="6.41503">
        <ele>142.9</ele>
        <time>2020-10-13T12:27:54Z</time>
      </trkpt>
      <trkpt lat="43.44057" lon="6.41509">
        <ele>142.5</ele>
        <time>2020-10-13T12:27:58Z</time>
      </trkpt>
      <trkpt lat="43.44054" lon="6.41515">
        <ele>142.2</ele>
        <time>2020-10-13T12:28:02Z</time>
      </trkpt>
      <trkpt lat="43.44051" lon="6.41521">
        <ele>141.8</ele>
        <time>2020-10-13T12:28:06Z</time>
      </trkpt>
      <trkpt lat="43.44047" lon="6.41526">
        <ele>141.5</ele>
        <time>2020-10-13T12:28:09Z</time>
      </trkpt>
      <trkpt lat="43.44043" lon="6.4153">
        <ele>141.1</ele>
        <time>2020-10-13T12:28:13Z</time>
      </trkpt>
      <trkpt lat="43.44038" lon="6.41532">
        <ele>140.8</ele>
        <time>2020-10-13T12:28:17Z</time>
      </trkpt>
      <trkpt lat="43.44034" lon="6.41532">
        <ele>140.4</ele>
        <time>2020-10-13T12:28:22Z</time>
      </trkpt>
      <trkpt lat="43.44029" lon="6.41529">
        <ele>139.8</ele>
        <time>2020-10-13T12:28:30Z</time>
      </trkpt>
      <trkpt lat="43.44025" lon="6.41525">
        <ele>139.4</ele>
        <time>2020-10-13T12:28:35Z</time>
      </trkpt>
      <trkpt lat="43.44021" lon="6.41521">
        <ele>139.2</ele>
        <time>2020-10-13T12:28:39Z</time>
      </trkpt>
      <trkpt lat="43.44016" lon="6.41518">
        <ele>139</ele>
        <time>2020-10-13T12:28:43Z</time>
      </trkpt>
      <trkpt lat="43.44012" lon="6.41515">
        <ele>138.9</ele>
        <time>2020-10-13T12:28:47Z</time>
      </trkpt>
      <trkpt lat="43.44007" lon="6.41512">
        <ele>138.8</ele>
        <time>2020-10-13T12:28:51Z</time>
      </trkpt>
      <trkpt lat="43.44003" lon="6.41509">
        <ele>138.6</ele>
        <time>2020-10-13T12:28:54Z</time>
      </trkpt>
      <trkpt lat="43.44" lon="6.41505">
        <ele>138.4</ele>
        <time>2020-10-13T12:28:57Z</time>
      </trkpt>
      <trkpt lat="43.43995" lon="6.41501">
        <ele>138.3</ele>
        <time>2020-10-13T12:29:01Z</time>
      </trkpt>
      <trkpt lat="43.4399" lon="6.41498">
        <ele>138</ele>
        <time>2020-10-13T12:29:05Z</time>
      </trkpt>
      <trkpt lat="43.43985" lon="6.41496">
        <ele>137.7</ele>
        <time>2020-10-13T12:29:08Z</time>
      </trkpt>
      <trkpt lat="43.4398" lon="6.41493">
        <ele>137.6</ele>
        <time>2020-10-13T12:29:11Z</time>
      </trkpt>
      <trkpt lat="43.43976" lon="6.41489">
        <ele>137.4</ele>
        <time>2020-10-13T12:29:15Z</time>
      </trkpt>
      <trkpt lat="43.43971" lon="6.41486">
        <ele>137.3</ele>
        <time>2020-10-13T12:29:19Z</time>
      </trkpt>
      <trkpt lat="43.43966" lon="6.41482">
        <ele>137.1</ele>
        <time>2020-10-13T12:29:23Z</time>
      </trkpt>
      <trkpt lat="43.43961" lon="6.41479">
        <ele>137.1</ele>
        <time>2020-10-13T12:29:27Z</time>
      </trkpt>
      <trkpt lat="43.43957" lon="6.41476">
        <ele>137</ele>
        <time>2020-10-13T12:29:31Z</time>
      </trkpt>
      <trkpt lat="43.43952" lon="6.41473">
        <ele>136.8</ele>
        <time>2020-10-13T12:29:34Z</time>
      </trkpt>
      <trkpt lat="43.43948" lon="6.4147">
        <ele>136.6</ele>
        <time>2020-10-13T12:29:38Z</time>
      </trkpt>
      <trkpt lat="43.43944" lon="6.41467">
        <ele>136.2</ele>
        <time>2020-10-13T12:29:43Z</time>
      </trkpt>
      <trkpt lat="43.43939" lon="6.41463">
        <ele>135.5</ele>
        <time>2020-10-13T12:29:53Z</time>
      </trkpt>
      <trkpt lat="43.43935" lon="6.41459">
        <ele>134.7</ele>
        <time>2020-10-13T12:30:08Z</time>
      </trkpt>
      <trkpt lat="43.43931" lon="6.4146">
        <ele>134.1</ele>
        <time>2020-10-13T12:30:52Z</time>
      </trkpt>
      <trkpt lat="43.43926" lon="6.41457">
        <ele>134.1</ele>
        <time>2020-10-13T12:30:59Z</time>
      </trkpt>
      <trkpt lat="43.43921" lon="6.41456">
        <ele>133.9</ele>
        <time>2020-10-13T12:31:03Z</time>
      </trkpt>
      <trkpt lat="43.43916" lon="6.41456">
        <ele>133.7</ele>
        <time>2020-10-13T12:31:07Z</time>
      </trkpt>
      <trkpt lat="43.4391" lon="6.41458">
        <ele>133.4</ele>
        <time>2020-10-13T12:31:11Z</time>
      </trkpt>
      <trkpt lat="43.43906" lon="6.41461">
        <ele>133.3</ele>
        <time>2020-10-13T12:31:15Z</time>
      </trkpt>
      <trkpt lat="43.43901" lon="6.41462">
        <ele>133</ele>
        <time>2020-10-13T12:31:19Z</time>
      </trkpt>
      <trkpt lat="43.43896" lon="6.41465">
        <ele>132.7</ele>
        <time>2020-10-13T12:31:24Z</time>
      </trkpt>
      <trkpt lat="43.43892" lon="6.41469">
        <ele>132.4</ele>
        <time>2020-10-13T12:31:28Z</time>
      </trkpt>
      <trkpt lat="43.43888" lon="6.41472">
        <ele>132.1</ele>
        <time>2020-10-13T12:31:33Z</time>
      </trkpt>
      <trkpt lat="43.43883" lon="6.41474">
        <ele>131.9</ele>
        <time>2020-10-13T12:31:37Z</time>
      </trkpt>
      <trkpt lat="43.4388" lon="6.4148">
        <ele>131.7</ele>
        <time>2020-10-13T12:31:41Z</time>
      </trkpt>
      <trkpt lat="43.43876" lon="6.41486">
        <ele>131.5</ele>
        <time>2020-10-13T12:31:45Z</time>
      </trkpt>
      <trkpt lat="43.43872" lon="6.4149">
        <ele>131.3</ele>
        <time>2020-10-13T12:31:49Z</time>
      </trkpt>
      <trkpt lat="43.43868" lon="6.41497">
        <ele>131</ele>
        <time>2020-10-13T12:31:53Z</time>
      </trkpt>
      <trkpt lat="43.43865" lon="6.415">
        <ele>130.9</ele>
        <time>2020-10-13T12:31:56Z</time>
      </trkpt>
      <trkpt lat="43.43861" lon="6.41505">
        <ele>130.6</ele>
        <time>2020-10-13T12:32:00Z</time>
      </trkpt>
      <trkpt lat="43.43856" lon="6.4151">
        <ele>130.1</ele>
        <time>2020-10-13T12:32:04Z</time>
      </trkpt>
      <trkpt lat="43.43853" lon="6.41515">
        <ele>129.9</ele>
        <time>2020-10-13T12:32:07Z</time>
      </trkpt>
      <trkpt lat="43.43848" lon="6.41518">
        <ele>129.6</ele>
        <time>2020-10-13T12:32:11Z</time>
      </trkpt>
      <trkpt lat="43.43844" lon="6.41521">
        <ele>129.3</ele>
        <time>2020-10-13T12:32:15Z</time>
      </trkpt>
      <trkpt lat="43.4384" lon="6.41525">
        <ele>129.1</ele>
        <time>2020-10-13T12:32:19Z</time>
      </trkpt>
      <trkpt lat="43.43835" lon="6.41529">
        <ele>128.7</ele>
        <time>2020-10-13T12:32:23Z</time>
      </trkpt>
      <trkpt lat="43.43831" lon="6.41532">
        <ele>128.5</ele>
        <time>2020-10-13T12:32:26Z</time>
      </trkpt>
      <trkpt lat="43.43827" lon="6.41534">
        <ele>128.4</ele>
        <time>2020-10-13T12:32:29Z</time>
      </trkpt>
      <trkpt lat="43.43822" lon="6.41536">
        <ele>128.3</ele>
        <time>2020-10-13T12:32:32Z</time>
      </trkpt>
      <trkpt lat="43.43818" lon="6.41539">
        <ele>128.2</ele>
        <time>2020-10-13T12:32:35Z</time>
      </trkpt>
      <trkpt lat="43.43815" lon="6.41543">
        <ele>128.2</ele>
        <time>2020-10-13T12:32:38Z</time>
      </trkpt>
      <trkpt lat="43.43811" lon="6.41548">
        <ele>128.1</ele>
        <time>2020-10-13T12:32:41Z</time>
      </trkpt>
      <trkpt lat="43.43809" lon="6.41553">
        <ele>128</ele>
        <time>2020-10-13T12:32:44Z</time>
      </trkpt>
      <trkpt lat="43.43806" lon="6.41559">
        <ele>127.8</ele>
        <time>2020-10-13T12:32:47Z</time>
      </trkpt>
      <trkpt lat="43.43803" lon="6.41565">
        <ele>127.5</ele>
        <time>2020-10-13T12:32:51Z</time>
      </trkpt>
      <trkpt lat="43.438" lon="6.41571">
        <ele>127.3</ele>
        <time>2020-10-13T12:32:54Z</time>
      </trkpt>
      <trkpt lat="43.43798" lon="6.41577">
        <ele>127.1</ele>
        <time>2020-10-13T12:32:57Z</time>
      </trkpt>
      <trkpt lat="43.43796" lon="6.41583">
        <ele>126.9</ele>
        <time>2020-10-13T12:33:01Z</time>
      </trkpt>
      <trkpt lat="43.43794" lon="6.41589">
        <ele>126.8</ele>
        <time>2020-10-13T12:33:05Z</time>
      </trkpt>
      <trkpt lat="43.43792" lon="6.41595">
        <ele>126.6</ele>
        <time>2020-10-13T12:33:08Z</time>
      </trkpt>
      <trkpt lat="43.43791" lon="6.41602">
        <ele>126.5</ele>
        <time>2020-10-13T12:33:11Z</time>
      </trkpt>
      <trkpt lat="43.43789" lon="6.41608">
        <ele>126.4</ele>
        <time>2020-10-13T12:33:14Z</time>
      </trkpt>
      <trkpt lat="43.43788" lon="6.41615">
        <ele>126.2</ele>
        <time>2020-10-13T12:33:18Z</time>
      </trkpt>
      <trkpt lat="43.43787" lon="6.41623">
        <ele>125.9</ele>
        <time>2020-10-13T12:33:22Z</time>
      </trkpt>
      <trkpt lat="43.43786" lon="6.41629">
        <ele>125.7</ele>
        <time>2020-10-13T12:33:26Z</time>
      </trkpt>
      <trkpt lat="43.43784" lon="6.41636">
        <ele>125.3</ele>
        <time>2020-10-13T12:33:29Z</time>
      </trkpt>
      <trkpt lat="43.43782" lon="6.41641">
        <ele>125</ele>
        <time>2020-10-13T12:33:32Z</time>
      </trkpt>
      <trkpt lat="43.4378" lon="6.41648">
        <ele>124.6</ele>
        <time>2020-10-13T12:33:35Z</time>
      </trkpt>
      <trkpt lat="43.43778" lon="6.41654">
        <ele>124.2</ele>
        <time>2020-10-13T12:33:38Z</time>
      </trkpt>
      <trkpt lat="43.43775" lon="6.41658">
        <ele>124.1</ele>
        <time>2020-10-13T12:33:41Z</time>
      </trkpt>
      <trkpt lat="43.43772" lon="6.41665">
        <ele>123.9</ele>
        <time>2020-10-13T12:33:45Z</time>
      </trkpt>
      <trkpt lat="43.43768" lon="6.4167">
        <ele>123.8</ele>
        <time>2020-10-13T12:33:49Z</time>
      </trkpt>
      <trkpt lat="43.43763" lon="6.41675">
        <ele>123.6</ele>
        <time>2020-10-13T12:33:53Z</time>
      </trkpt>
      <trkpt lat="43.43758" lon="6.41678">
        <ele>123.4</ele>
        <time>2020-10-13T12:33:57Z</time>
      </trkpt>
      <trkpt lat="43.43753" lon="6.41678">
        <ele>123.2</ele>
        <time>2020-10-13T12:34:01Z</time>
      </trkpt>
      <trkpt lat="43.43748" lon="6.41679">
        <ele>123</ele>
        <time>2020-10-13T12:34:04Z</time>
      </trkpt>
      <trkpt lat="43.43742" lon="6.41682">
        <ele>122.5</ele>
        <time>2020-10-13T12:34:08Z</time>
      </trkpt>
      <trkpt lat="43.43738" lon="6.41686">
        <ele>122.1</ele>
        <time>2020-10-13T12:34:12Z</time>
      </trkpt>
      <trkpt lat="43.43733" lon="6.41689">
        <ele>122.1</ele>
        <time>2020-10-13T12:34:15Z</time>
      </trkpt>
      <trkpt lat="43.43729" lon="6.41694">
        <ele>121.8</ele>
        <time>2020-10-13T12:34:19Z</time>
      </trkpt>
      <trkpt lat="43.43725" lon="6.417">
        <ele>121.6</ele>
        <time>2020-10-13T12:34:23Z</time>
      </trkpt>
      <trkpt lat="43.43721" lon="6.41703">
        <ele>121.3</ele>
        <time>2020-10-13T12:34:27Z</time>
      </trkpt>
      <trkpt lat="43.43717" lon="6.41709">
        <ele>121.1</ele>
        <time>2020-10-13T12:34:32Z</time>
      </trkpt>
      <trkpt lat="43.43714" lon="6.41714">
        <ele>120.8</ele>
        <time>2020-10-13T12:34:36Z</time>
      </trkpt>
      <trkpt lat="43.43709" lon="6.4172">
        <ele>120.7</ele>
        <time>2020-10-13T12:34:40Z</time>
      </trkpt>
      <trkpt lat="43.43705" lon="6.41726">
        <ele>120.6</ele>
        <time>2020-10-13T12:34:44Z</time>
      </trkpt>
      <trkpt lat="43.43701" lon="6.41731">
        <ele>120.4</ele>
        <time>2020-10-13T12:34:48Z</time>
      </trkpt>
      <trkpt lat="43.43698" lon="6.41735">
        <ele>120.2</ele>
        <time>2020-10-13T12:34:52Z</time>
      </trkpt>
      <trkpt lat="43.43694" lon="6.41741">
        <ele>120.1</ele>
        <time>2020-10-13T12:34:57Z</time>
      </trkpt>
      <trkpt lat="43.4369" lon="6.41746">
        <ele>119.8</ele>
        <time>2020-10-13T12:35:00Z</time>
      </trkpt>
      <trkpt lat="43.43687" lon="6.41751">
        <ele>119.6</ele>
        <time>2020-10-13T12:35:04Z</time>
      </trkpt>
      <trkpt lat="43.43684" lon="6.41756">
        <ele>119.3</ele>
        <time>2020-10-13T12:35:07Z</time>
      </trkpt>
      <trkpt lat="43.4368" lon="6.41761">
        <ele>119.1</ele>
        <time>2020-10-13T12:35:10Z</time>
      </trkpt>
      <trkpt lat="43.43676" lon="6.41766">
        <ele>119</ele>
        <time>2020-10-13T12:35:13Z</time>
      </trkpt>
      <trkpt lat="43.43673" lon="6.41772">
        <ele>118.8</ele>
        <time>2020-10-13T12:35:17Z</time>
      </trkpt>
      <trkpt lat="43.43671" lon="6.41778">
        <ele>118.4</ele>
        <time>2020-10-13T12:35:20Z</time>
      </trkpt>
      <trkpt lat="43.43668" lon="6.41785">
        <ele>117.9</ele>
        <time>2020-10-13T12:35:24Z</time>
      </trkpt>
      <trkpt lat="43.43664" lon="6.41791">
        <ele>117.7</ele>
        <time>2020-10-13T12:35:27Z</time>
      </trkpt>
      <trkpt lat="43.43662" lon="6.41796">
        <ele>117.2</ele>
        <time>2020-10-13T12:35:30Z</time>
      </trkpt>
      <trkpt lat="43.43659" lon="6.41802">
        <ele>116.7</ele>
        <time>2020-10-13T12:35:33Z</time>
      </trkpt>
      <trkpt lat="43.43656" lon="6.41807">
        <ele>116.2</ele>
        <time>2020-10-13T12:35:36Z</time>
      </trkpt>
      <trkpt lat="43.43652" lon="6.41813">
        <ele>115.8</ele>
        <time>2020-10-13T12:35:40Z</time>
      </trkpt>
      <trkpt lat="43.43647" lon="6.41818">
        <ele>115.5</ele>
        <time>2020-10-13T12:35:43Z</time>
      </trkpt>
      <trkpt lat="43.43645" lon="6.41823">
        <ele>114.8</ele>
        <time>2020-10-13T12:35:48Z</time>
      </trkpt>
      <trkpt lat="43.43643" lon="6.4183">
        <ele>114.3</ele>
        <time>2020-10-13T12:35:51Z</time>
      </trkpt>
      <trkpt lat="43.43641" lon="6.41836">
        <ele>113.8</ele>
        <time>2020-10-13T12:35:54Z</time>
      </trkpt>
      <trkpt lat="43.43639" lon="6.41842">
        <ele>113.4</ele>
        <time>2020-10-13T12:35:57Z</time>
      </trkpt>
      <trkpt lat="43.43637" lon="6.41848">
        <ele>113.2</ele>
        <time>2020-10-13T12:36:00Z</time>
      </trkpt>
      <trkpt lat="43.43635" lon="6.41854">
        <ele>112.9</ele>
        <time>2020-10-13T12:36:03Z</time>
      </trkpt>
      <trkpt lat="43.43634" lon="6.4186">
        <ele>112.5</ele>
        <time>2020-10-13T12:36:06Z</time>
      </trkpt>
      <trkpt lat="43.43632" lon="6.41866">
        <ele>112</ele>
        <time>2020-10-13T12:36:12Z</time>
      </trkpt>
      <trkpt lat="43.43631" lon="6.41873">
        <ele>110</ele>
        <time>2020-10-13T12:36:44Z</time>
      </trkpt>
      <trkpt lat="43.43627" lon="6.41876">
        <ele>110</ele>
        <time>2020-10-13T12:36:59Z</time>
      </trkpt>
      <trkpt lat="43.43631" lon="6.41873">
        <ele>110</ele>
        <time>2020-10-13T12:37:15Z</time>
      </trkpt>
      <trkpt lat="43.43632" lon="6.41867">
        <ele>110.6</ele>
        <time>2020-10-13T12:37:48Z</time>
      </trkpt>
      <trkpt lat="43.43636" lon="6.41862">
        <ele>110.6</ele>
        <time>2020-10-13T12:38:01Z</time>
      </trkpt>
      <trkpt lat="43.4364" lon="6.41865">
        <ele>110.8</ele>
        <time>2020-10-13T12:38:17Z</time>
      </trkpt>
      <trkpt lat="43.43637" lon="6.4187">
        <ele>111.2</ele>
        <time>2020-10-13T12:38:47Z</time>
      </trkpt>
      <trkpt lat="43.43633" lon="6.41873">
        <ele>111.3</ele>
        <time>2020-10-13T12:39:01Z</time>
      </trkpt>
      <trkpt lat="43.43629" lon="6.41876">
        <ele>110.8</ele>
        <time>2020-10-13T12:39:08Z</time>
      </trkpt>
      <trkpt lat="43.43623" lon="6.41879">
        <ele>110.4</ele>
        <time>2020-10-13T12:39:13Z</time>
      </trkpt>
      <trkpt lat="43.43619" lon="6.41878">
        <ele>110.1</ele>
        <time>2020-10-13T12:39:17Z</time>
      </trkpt>
      <trkpt lat="43.43614" lon="6.4188">
        <ele>109.8</ele>
        <time>2020-10-13T12:39:21Z</time>
      </trkpt>
      <trkpt lat="43.43609" lon="6.41881">
        <ele>109.3</ele>
        <time>2020-10-13T12:39:26Z</time>
      </trkpt>
      <trkpt lat="43.43604" lon="6.41881">
        <ele>109</ele>
        <time>2020-10-13T12:39:29Z</time>
      </trkpt>
      <trkpt lat="43.436" lon="6.41883">
        <ele>108.6</ele>
        <time>2020-10-13T12:39:33Z</time>
      </trkpt>
      <trkpt lat="43.43595" lon="6.41882">
        <ele>108.1</ele>
        <time>2020-10-13T12:39:38Z</time>
      </trkpt>
      <trkpt lat="43.43589" lon="6.41883">
        <ele>107.7</ele>
        <time>2020-10-13T12:39:42Z</time>
      </trkpt>
      <trkpt lat="43.43585" lon="6.41886">
        <ele>107.3</ele>
        <time>2020-10-13T12:39:45Z</time>
      </trkpt>
      <trkpt lat="43.4358" lon="6.41889">
        <ele>106.7</ele>
        <time>2020-10-13T12:39:50Z</time>
      </trkpt>
      <trkpt lat="43.43575" lon="6.4189">
        <ele>106</ele>
        <time>2020-10-13T12:39:55Z</time>
      </trkpt>
      <trkpt lat="43.43571" lon="6.41892">
        <ele>105.3</ele>
        <time>2020-10-13T12:40:00Z</time>
      </trkpt>
      <trkpt lat="43.43566" lon="6.41893">
        <ele>104.8</ele>
        <time>2020-10-13T12:40:04Z</time>
      </trkpt>
      <trkpt lat="43.43562" lon="6.41897">
        <ele>104.5</ele>
        <time>2020-10-13T12:40:07Z</time>
      </trkpt>
      <trkpt lat="43.43559" lon="6.41902">
        <ele>104.2</ele>
        <time>2020-10-13T12:40:10Z</time>
      </trkpt>
      <trkpt lat="43.43555" lon="6.41906">
        <ele>104</ele>
        <time>2020-10-13T12:40:14Z</time>
      </trkpt>
      <trkpt lat="43.43551" lon="6.41911">
        <ele>103.7</ele>
        <time>2020-10-13T12:40:19Z</time>
      </trkpt>
      <trkpt lat="43.43547" lon="6.41917">
        <ele>103.6</ele>
        <time>2020-10-13T12:40:23Z</time>
      </trkpt>
      <trkpt lat="43.43543" lon="6.41923">
        <ele>103.5</ele>
        <time>2020-10-13T12:40:27Z</time>
      </trkpt>
      <trkpt lat="43.4354" lon="6.41927">
        <ele>103.6</ele>
        <time>2020-10-13T12:40:30Z</time>
      </trkpt>
      <trkpt lat="43.43535" lon="6.41931">
        <ele>103.7</ele>
        <time>2020-10-13T12:40:34Z</time>
      </trkpt>
      <trkpt lat="43.43532" lon="6.41936">
        <ele>103.8</ele>
        <time>2020-10-13T12:40:38Z</time>
      </trkpt>
      <trkpt lat="43.43528" lon="6.41941">
        <ele>103.9</ele>
        <time>2020-10-13T12:40:43Z</time>
      </trkpt>
      <trkpt lat="43.43524" lon="6.41946">
        <ele>104</ele>
        <time>2020-10-13T12:40:47Z</time>
      </trkpt>
      <trkpt lat="43.43519" lon="6.4195">
        <ele>104.1</ele>
        <time>2020-10-13T12:40:51Z</time>
      </trkpt>
      <trkpt lat="43.43515" lon="6.41954">
        <ele>104.3</ele>
        <time>2020-10-13T12:40:55Z</time>
      </trkpt>
      <trkpt lat="43.4351" lon="6.41959">
        <ele>104.5</ele>
        <time>2020-10-13T12:40:59Z</time>
      </trkpt>
      <trkpt lat="43.43506" lon="6.41962">
        <ele>104.7</ele>
        <time>2020-10-13T12:41:02Z</time>
      </trkpt>
      <trkpt lat="43.43502" lon="6.41965">
        <ele>104.9</ele>
        <time>2020-10-13T12:41:05Z</time>
      </trkpt>
      <trkpt lat="43.43497" lon="6.41967">
        <ele>105.2</ele>
        <time>2020-10-13T12:41:09Z</time>
      </trkpt>
      <trkpt lat="43.43493" lon="6.41971">
        <ele>105.5</ele>
        <time>2020-10-13T12:41:13Z</time>
      </trkpt>
      <trkpt lat="43.43489" lon="6.41975">
        <ele>105.9</ele>
        <time>2020-10-13T12:41:17Z</time>
      </trkpt>
      <trkpt lat="43.43485" lon="6.41981">
        <ele>106</ele>
        <time>2020-10-13T12:41:22Z</time>
      </trkpt>
      <trkpt lat="43.43483" lon="6.41986">
        <ele>106.1</ele>
        <time>2020-10-13T12:41:26Z</time>
      </trkpt>
      <trkpt lat="43.43481" lon="6.41992">
        <ele>106.3</ele>
        <time>2020-10-13T12:41:29Z</time>
      </trkpt>
      <trkpt lat="43.43478" lon="6.41998">
        <ele>106.4</ele>
        <time>2020-10-13T12:41:32Z</time>
      </trkpt>
      <trkpt lat="43.43474" lon="6.42004">
        <ele>106.5</ele>
        <time>2020-10-13T12:41:36Z</time>
      </trkpt>
      <trkpt lat="43.43471" lon="6.4201">
        <ele>106.6</ele>
        <time>2020-10-13T12:41:39Z</time>
      </trkpt>
      <trkpt lat="43.43468" lon="6.42016">
        <ele>106.7</ele>
        <time>2020-10-13T12:41:42Z</time>
      </trkpt>
      <trkpt lat="43.43467" lon="6.42022">
        <ele>106.9</ele>
        <time>2020-10-13T12:41:45Z</time>
      </trkpt>
      <trkpt lat="43.43464" lon="6.42029">
        <ele>107.3</ele>
        <time>2020-10-13T12:41:49Z</time>
      </trkpt>
      <trkpt lat="43.43461" lon="6.42035">
        <ele>107.7</ele>
        <time>2020-10-13T12:41:52Z</time>
      </trkpt>
      <trkpt lat="43.43459" lon="6.42042">
        <ele>108</ele>
        <time>2020-10-13T12:41:56Z</time>
      </trkpt>
      <trkpt lat="43.43457" lon="6.42048">
        <ele>108.3</ele>
        <time>2020-10-13T12:42:00Z</time>
      </trkpt>
      <trkpt lat="43.43455" lon="6.42055">
        <ele>108.4</ele>
        <time>2020-10-13T12:42:03Z</time>
      </trkpt>
      <trkpt lat="43.43454" lon="6.42062">
        <ele>108.6</ele>
        <time>2020-10-13T12:42:06Z</time>
      </trkpt>
      <trkpt lat="43.43454" lon="6.42068">
        <ele>108.8</ele>
        <time>2020-10-13T12:42:09Z</time>
      </trkpt>
      <trkpt lat="43.43453" lon="6.42075">
        <ele>109</ele>
        <time>2020-10-13T12:42:13Z</time>
      </trkpt>
      <trkpt lat="43.43453" lon="6.42083">
        <ele>109.4</ele>
        <time>2020-10-13T12:42:18Z</time>
      </trkpt>
      <trkpt lat="43.43452" lon="6.42089">
        <ele>109.5</ele>
        <time>2020-10-13T12:42:21Z</time>
      </trkpt>
      <trkpt lat="43.43451" lon="6.42096">
        <ele>109.7</ele>
        <time>2020-10-13T12:42:25Z</time>
      </trkpt>
      <trkpt lat="43.43451" lon="6.42104">
        <ele>109.8</ele>
        <time>2020-10-13T12:42:29Z</time>
      </trkpt>
      <trkpt lat="43.4345" lon="6.42111">
        <ele>109.9</ele>
        <time>2020-10-13T12:42:33Z</time>
      </trkpt>
      <trkpt lat="43.4345" lon="6.42118">
        <ele>109.9</ele>
        <time>2020-10-13T12:42:36Z</time>
      </trkpt>
      <trkpt lat="43.43449" lon="6.42124">
        <ele>109.9</ele>
        <time>2020-10-13T12:42:39Z</time>
      </trkpt>
      <trkpt lat="43.43449" lon="6.42131">
        <ele>110</ele>
        <time>2020-10-13T12:42:43Z</time>
      </trkpt>
      <trkpt lat="43.4345" lon="6.42138">
        <ele>110.3</ele>
        <time>2020-10-13T12:42:47Z</time>
      </trkpt>
      <trkpt lat="43.4345" lon="6.42145">
        <ele>110.4</ele>
        <time>2020-10-13T12:42:50Z</time>
      </trkpt>
      <trkpt lat="43.43451" lon="6.42151">
        <ele>110.6</ele>
        <time>2020-10-13T12:42:53Z</time>
      </trkpt>
      <trkpt lat="43.43451" lon="6.42157">
        <ele>110.7</ele>
        <time>2020-10-13T12:42:56Z</time>
      </trkpt>
      <trkpt lat="43.43453" lon="6.42163">
        <ele>110.8</ele>
        <time>2020-10-13T12:42:59Z</time>
      </trkpt>
      <trkpt lat="43.43455" lon="6.42169">
        <ele>110.8</ele>
        <time>2020-10-13T12:43:02Z</time>
      </trkpt>
      <trkpt lat="43.43457" lon="6.42177">
        <ele>111</ele>
        <time>2020-10-13T12:43:06Z</time>
      </trkpt>
      <trkpt lat="43.4346" lon="6.42182">
        <ele>111.1</ele>
        <time>2020-10-13T12:43:09Z</time>
      </trkpt>
      <trkpt lat="43.43463" lon="6.42188">
        <ele>111.2</ele>
        <time>2020-10-13T12:43:12Z</time>
      </trkpt>
      <trkpt lat="43.43466" lon="6.42194">
        <ele>111.3</ele>
        <time>2020-10-13T12:43:16Z</time>
      </trkpt>
      <trkpt lat="43.4347" lon="6.422">
        <ele>111.3</ele>
        <time>2020-10-13T12:43:20Z</time>
      </trkpt>
      <trkpt lat="43.43473" lon="6.42207">
        <ele>111.3</ele>
        <time>2020-10-13T12:43:24Z</time>
      </trkpt>
      <trkpt lat="43.43476" lon="6.42213">
        <ele>111.3</ele>
        <time>2020-10-13T12:43:28Z</time>
      </trkpt>
      <trkpt lat="43.4348" lon="6.42219">
        <ele>111.3</ele>
        <time>2020-10-13T12:43:32Z</time>
      </trkpt>
      <trkpt lat="43.43483" lon="6.42224">
        <ele>111.2</ele>
        <time>2020-10-13T12:43:35Z</time>
      </trkpt>
      <trkpt lat="43.43487" lon="6.42229">
        <ele>111</ele>
        <time>2020-10-13T12:43:39Z</time>
      </trkpt>
      <trkpt lat="43.43492" lon="6.42233">
        <ele>110.9</ele>
        <time>2020-10-13T12:43:43Z</time>
      </trkpt>
      <trkpt lat="43.43496" lon="6.42237">
        <ele>110.8</ele>
        <time>2020-10-13T12:43:46Z</time>
      </trkpt>
      <trkpt lat="43.435" lon="6.4224">
        <ele>110.8</ele>
        <time>2020-10-13T12:43:49Z</time>
      </trkpt>
      <trkpt lat="43.43506" lon="6.42242">
        <ele>110.8</ele>
        <time>2020-10-13T12:43:53Z</time>
      </trkpt>
      <trkpt lat="43.43511" lon="6.42243">
        <ele>110.9</ele>
        <time>2020-10-13T12:43:57Z</time>
      </trkpt>
      <trkpt lat="43.43515" lon="6.42244">
        <ele>110.8</ele>
        <time>2020-10-13T12:44:01Z</time>
      </trkpt>
      <trkpt lat="43.43521" lon="6.42244">
        <ele>110.9</ele>
        <time>2020-10-13T12:44:04Z</time>
      </trkpt>
      <trkpt lat="43.43526" lon="6.42246">
        <ele>110.8</ele>
        <time>2020-10-13T12:44:08Z</time>
      </trkpt>
      <trkpt lat="43.4353" lon="6.42245">
        <ele>110.8</ele>
        <time>2020-10-13T12:44:13Z</time>
      </trkpt>
      <trkpt lat="43.43535" lon="6.42245">
        <ele>110.4</ele>
        <time>2020-10-13T12:44:18Z</time>
      </trkpt>
      <trkpt lat="43.4354" lon="6.42241">
        <ele>110.3</ele>
        <time>2020-10-13T12:44:24Z</time>
      </trkpt>
      <trkpt lat="43.43545" lon="6.42239">
        <ele>110.4</ele>
        <time>2020-10-13T12:44:29Z</time>
      </trkpt>
      <trkpt lat="43.4355" lon="6.42236">
        <ele>110.6</ele>
        <time>2020-10-13T12:44:34Z</time>
      </trkpt>
      <trkpt lat="43.43555" lon="6.42234">
        <ele>110.7</ele>
        <time>2020-10-13T12:44:38Z</time>
      </trkpt>
      <trkpt lat="43.4356" lon="6.4223">
        <ele>110.8</ele>
        <time>2020-10-13T12:44:43Z</time>
      </trkpt>
      <trkpt lat="43.43564" lon="6.42226">
        <ele>110.9</ele>
        <time>2020-10-13T12:44:47Z</time>
      </trkpt>
      <trkpt lat="43.43569" lon="6.42222">
        <ele>110.9</ele>
        <time>2020-10-13T12:44:52Z</time>
      </trkpt>
      <trkpt lat="43.43573" lon="6.42217">
        <ele>110.7</ele>
        <time>2020-10-13T12:44:57Z</time>
      </trkpt>
      <trkpt lat="43.43578" lon="6.42215">
        <ele>110.6</ele>
        <time>2020-10-13T12:45:00Z</time>
      </trkpt>
      <trkpt lat="43.43582" lon="6.42213">
        <ele>110.5</ele>
        <time>2020-10-13T12:45:03Z</time>
      </trkpt>
      <trkpt lat="43.43586" lon="6.4221">
        <ele>110.5</ele>
        <time>2020-10-13T12:45:06Z</time>
      </trkpt>
      <trkpt lat="43.4359" lon="6.42206">
        <ele>110.5</ele>
        <time>2020-10-13T12:45:08Z</time>
      </trkpt>
      <trkpt lat="43.43596" lon="6.42203">
        <ele>110.6</ele>
        <time>2020-10-13T12:45:12Z</time>
      </trkpt>
      <trkpt lat="43.43601" lon="6.422">
        <ele>110.6</ele>
        <time>2020-10-13T12:45:15Z</time>
      </trkpt>
      <trkpt lat="43.43604" lon="6.42196">
        <ele>110.7</ele>
        <time>2020-10-13T12:45:18Z</time>
      </trkpt>
      <trkpt lat="43.43608" lon="6.42191">
        <ele>110.8</ele>
        <time>2020-10-13T12:45:22Z</time>
      </trkpt>
      <trkpt lat="43.43613" lon="6.42188">
        <ele>110.9</ele>
        <time>2020-10-13T12:45:25Z</time>
      </trkpt>
      <trkpt lat="43.43617" lon="6.42184">
        <ele>110.9</ele>
        <time>2020-10-13T12:45:28Z</time>
      </trkpt>
      <trkpt lat="43.43621" lon="6.42178">
        <ele>111</ele>
        <time>2020-10-13T12:45:32Z</time>
      </trkpt>
      <trkpt lat="43.43624" lon="6.42173">
        <ele>111</ele>
        <time>2020-10-13T12:45:35Z</time>
      </trkpt>
      <trkpt lat="43.43627" lon="6.42168">
        <ele>111</ele>
        <time>2020-10-13T12:45:38Z</time>
      </trkpt>
      <trkpt lat="43.43629" lon="6.4216">
        <ele>111.1</ele>
        <time>2020-10-13T12:45:42Z</time>
      </trkpt>
      <trkpt lat="43.43628" lon="6.42154">
        <ele>111.1</ele>
        <time>2020-10-13T12:45:45Z</time>
      </trkpt>
      <trkpt lat="43.43631" lon="6.42147">
        <ele>111.1</ele>
        <time>2020-10-13T12:45:49Z</time>
      </trkpt>
      <trkpt lat="43.43633" lon="6.4214">
        <ele>111.1</ele>
        <time>2020-10-13T12:45:52Z</time>
      </trkpt>
      <trkpt lat="43.43634" lon="6.42134">
        <ele>111.1</ele>
        <time>2020-10-13T12:45:55Z</time>
      </trkpt>
      <trkpt lat="43.43636" lon="6.42129">
        <ele>111.3</ele>
        <time>2020-10-13T12:45:58Z</time>
      </trkpt>
      <trkpt lat="43.43639" lon="6.42123">
        <ele>111.4</ele>
        <time>2020-10-13T12:46:01Z</time>
      </trkpt>
      <trkpt lat="43.4364" lon="6.42115">
        <ele>111.5</ele>
        <time>2020-10-13T12:46:04Z</time>
      </trkpt>
      <trkpt lat="43.4364" lon="6.42108">
        <ele>111.7</ele>
        <time>2020-10-13T12:46:08Z</time>
      </trkpt>
      <trkpt lat="43.43641" lon="6.42101">
        <ele>111.9</ele>
        <time>2020-10-13T12:46:12Z</time>
      </trkpt>
      <trkpt lat="43.43642" lon="6.42095">
        <ele>112.1</ele>
        <time>2020-10-13T12:46:15Z</time>
      </trkpt>
      <trkpt lat="43.43643" lon="6.42088">
        <ele>112.2</ele>
        <time>2020-10-13T12:46:19Z</time>
      </trkpt>
      <trkpt lat="43.43644" lon="6.42081">
        <ele>112.3</ele>
        <time>2020-10-13T12:46:23Z</time>
      </trkpt>
      <trkpt lat="43.43644" lon="6.42075">
        <ele>112.3</ele>
        <time>2020-10-13T12:46:27Z</time>
      </trkpt>
      <trkpt lat="43.43643" lon="6.42068">
        <ele>112.4</ele>
        <time>2020-10-13T12:46:30Z</time>
      </trkpt>
      <trkpt lat="43.43643" lon="6.42062">
        <ele>112.5</ele>
        <time>2020-10-13T12:46:33Z</time>
      </trkpt>
      <trkpt lat="43.43643" lon="6.42054">
        <ele>112.6</ele>
        <time>2020-10-13T12:46:37Z</time>
      </trkpt>
      <trkpt lat="43.43644" lon="6.42046">
        <ele>112.6</ele>
        <time>2020-10-13T12:46:40Z</time>
      </trkpt>
      <trkpt lat="43.43644" lon="6.42039">
        <ele>112.7</ele>
        <time>2020-10-13T12:46:43Z</time>
      </trkpt>
      <trkpt lat="43.43644" lon="6.42032">
        <ele>112.7</ele>
        <time>2020-10-13T12:46:46Z</time>
      </trkpt>
      <trkpt lat="43.43642" lon="6.42025">
        <ele>112.6</ele>
        <time>2020-10-13T12:46:49Z</time>
      </trkpt>
      <trkpt lat="43.43641" lon="6.42018">
        <ele>112.7</ele>
        <time>2020-10-13T12:46:53Z</time>
      </trkpt>
      <trkpt lat="43.43641" lon="6.4201">
        <ele>112.7</ele>
        <time>2020-10-13T12:46:57Z</time>
      </trkpt>
      <trkpt lat="43.4364" lon="6.42004">
        <ele>112.8</ele>
        <time>2020-10-13T12:47:00Z</time>
      </trkpt>
      <trkpt lat="43.4364" lon="6.41997">
        <ele>112.8</ele>
        <time>2020-10-13T12:47:04Z</time>
      </trkpt>
      <trkpt lat="43.4364" lon="6.4199">
        <ele>112.8</ele>
        <time>2020-10-13T12:47:08Z</time>
      </trkpt>
      <trkpt lat="43.43639" lon="6.41982">
        <ele>112.6</ele>
        <time>2020-10-13T12:47:12Z</time>
      </trkpt>
      <trkpt lat="43.4364" lon="6.41975">
        <ele>112.6</ele>
        <time>2020-10-13T12:47:15Z</time>
      </trkpt>
      <trkpt lat="43.43642" lon="6.41969">
        <ele>112.5</ele>
        <time>2020-10-13T12:47:19Z</time>
      </trkpt>
      <trkpt lat="43.43643" lon="6.41962">
        <ele>112.4</ele>
        <time>2020-10-13T12:47:23Z</time>
      </trkpt>
      <trkpt lat="43.43644" lon="6.41954">
        <ele>112.4</ele>
        <time>2020-10-13T12:47:27Z</time>
      </trkpt>
      <trkpt lat="43.43647" lon="6.41947">
        <ele>112.4</ele>
        <time>2020-10-13T12:47:31Z</time>
      </trkpt>
      <trkpt lat="43.43648" lon="6.41941">
        <ele>112.3</ele>
        <time>2020-10-13T12:47:34Z</time>
      </trkpt>
      <trkpt lat="43.43649" lon="6.41935">
        <ele>112.3</ele>
        <time>2020-10-13T12:47:37Z</time>
      </trkpt>
      <trkpt lat="43.43651" lon="6.41929">
        <ele>112.3</ele>
        <time>2020-10-13T12:47:41Z</time>
      </trkpt>
      <trkpt lat="43.43652" lon="6.41922">
        <ele>112.3</ele>
        <time>2020-10-13T12:47:45Z</time>
      </trkpt>
      <trkpt lat="43.43651" lon="6.41916">
        <ele>112.4</ele>
        <time>2020-10-13T12:47:48Z</time>
      </trkpt>
      <trkpt lat="43.43652" lon="6.41909">
        <ele>112.4</ele>
        <time>2020-10-13T12:47:52Z</time>
      </trkpt>
      <trkpt lat="43.43653" lon="6.41902">
        <ele>112.5</ele>
        <time>2020-10-13T12:47:55Z</time>
      </trkpt>
      <trkpt lat="43.43652" lon="6.41895">
        <ele>112.6</ele>
        <time>2020-10-13T12:47:59Z</time>
      </trkpt>
      <trkpt lat="43.43647" lon="6.4189">
        <ele>112.7</ele>
        <time>2020-10-13T12:48:02Z</time>
      </trkpt>
      <trkpt lat="43.43642" lon="6.41887">
        <ele>112.8</ele>
        <time>2020-10-13T12:48:05Z</time>
      </trkpt>
      <trkpt lat="43.43637" lon="6.41885">
        <ele>112.9</ele>
        <time>2020-10-13T12:48:08Z</time>
      </trkpt>
      <trkpt lat="43.43632" lon="6.41881">
        <ele>112.8</ele>
        <time>2020-10-13T12:48:13Z</time>
      </trkpt>
      <trkpt lat="43.43627" lon="6.4188">
        <ele>112.5</ele>
        <time>2020-10-13T12:48:17Z</time>
      </trkpt>
      <trkpt lat="43.43623" lon="6.4188">
        <ele>112.3</ele>
        <time>2020-10-13T12:48:20Z</time>
      </trkpt>
      <trkpt lat="43.43617" lon="6.41882">
        <ele>111.9</ele>
        <time>2020-10-13T12:48:23Z</time>
      </trkpt>
      <trkpt lat="43.43612" lon="6.41881">
        <ele>111.3</ele>
        <time>2020-10-13T12:48:27Z</time>
      </trkpt>
      <trkpt lat="43.43607" lon="6.4188">
        <ele>110.9</ele>
        <time>2020-10-13T12:48:31Z</time>
      </trkpt>
      <trkpt lat="43.43602" lon="6.41881">
        <ele>110.5</ele>
        <time>2020-10-13T12:48:35Z</time>
      </trkpt>
      <trkpt lat="43.43597" lon="6.41882">
        <ele>110.1</ele>
        <time>2020-10-13T12:48:38Z</time>
      </trkpt>
      <trkpt lat="43.43592" lon="6.41883">
        <ele>109.5</ele>
        <time>2020-10-13T12:48:43Z</time>
      </trkpt>
      <trkpt lat="43.43588" lon="6.41886">
        <ele>109</ele>
        <time>2020-10-13T12:48:47Z</time>
      </trkpt>
      <trkpt lat="43.43583" lon="6.41888">
        <ele>108.3</ele>
        <time>2020-10-13T12:48:51Z</time>
      </trkpt>
      <trkpt lat="43.43578" lon="6.4189">
        <ele>107.6</ele>
        <time>2020-10-13T12:48:56Z</time>
      </trkpt>
      <trkpt lat="43.43573" lon="6.41891">
        <ele>107.1</ele>
        <time>2020-10-13T12:49:01Z</time>
      </trkpt>
      <trkpt lat="43.43569" lon="6.4189">
        <ele>106.2</ele>
        <time>2020-10-13T12:49:08Z</time>
      </trkpt>
      <trkpt lat="43.43568" lon="6.41883">
        <ele>105.6</ele>
        <time>2020-10-13T12:49:13Z</time>
      </trkpt>
      <trkpt lat="43.43568" lon="6.41876">
        <ele>104.9</ele>
        <time>2020-10-13T12:49:18Z</time>
      </trkpt>
      <trkpt lat="43.4357" lon="6.4187">
        <ele>104.1</ele>
        <time>2020-10-13T12:49:23Z</time>
      </trkpt>
      <trkpt lat="43.43572" lon="6.41864">
        <ele>103.6</ele>
        <time>2020-10-13T12:49:27Z</time>
      </trkpt>
      <trkpt lat="43.43571" lon="6.41858">
        <ele>103</ele>
        <time>2020-10-13T12:49:31Z</time>
      </trkpt>
      <trkpt lat="43.43572" lon="6.41851">
        <ele>102.4</ele>
        <time>2020-10-13T12:49:35Z</time>
      </trkpt>
      <trkpt lat="43.43572" lon="6.41844">
        <ele>101.8</ele>
        <time>2020-10-13T12:49:38Z</time>
      </trkpt>
      <trkpt lat="43.43572" lon="6.41836">
        <ele>101.2</ele>
        <time>2020-10-13T12:49:42Z</time>
      </trkpt>
      <trkpt lat="43.43574" lon="6.4183">
        <ele>100.8</ele>
        <time>2020-10-13T12:49:46Z</time>
      </trkpt>
      <trkpt lat="43.43575" lon="6.41823">
        <ele>100.2</ele>
        <time>2020-10-13T12:49:50Z</time>
      </trkpt>
      <trkpt lat="43.43575" lon="6.41815">
        <ele>99.6</ele>
        <time>2020-10-13T12:49:54Z</time>
      </trkpt>
      <trkpt lat="43.43574" lon="6.41809">
        <ele>99.3</ele>
        <time>2020-10-13T12:49:57Z</time>
      </trkpt>
      <trkpt lat="43.43574" lon="6.41802">
        <ele>99</ele>
        <time>2020-10-13T12:50:01Z</time>
      </trkpt>
      <trkpt lat="43.43574" lon="6.41795">
        <ele>98.8</ele>
        <time>2020-10-13T12:50:04Z</time>
      </trkpt>
      <trkpt lat="43.43575" lon="6.41788">
        <ele>98.4</ele>
        <time>2020-10-13T12:50:08Z</time>
      </trkpt>
      <trkpt lat="43.43574" lon="6.4178">
        <ele>97.9</ele>
        <time>2020-10-13T12:50:13Z</time>
      </trkpt>
      <trkpt lat="43.43575" lon="6.41772">
        <ele>97.3</ele>
        <time>2020-10-13T12:50:17Z</time>
      </trkpt>
      <trkpt lat="43.43576" lon="6.41766">
        <ele>97.1</ele>
        <time>2020-10-13T12:50:20Z</time>
      </trkpt>
      <trkpt lat="43.43576" lon="6.41759">
        <ele>96.9</ele>
        <time>2020-10-13T12:50:24Z</time>
      </trkpt>
      <trkpt lat="43.43578" lon="6.41751">
        <ele>96.6</ele>
        <time>2020-10-13T12:50:28Z</time>
      </trkpt>
      <trkpt lat="43.43579" lon="6.41745">
        <ele>96.5</ele>
        <time>2020-10-13T12:50:31Z</time>
      </trkpt>
      <trkpt lat="43.43579" lon="6.41738">
        <ele>96.3</ele>
        <time>2020-10-13T12:50:34Z</time>
      </trkpt>
      <trkpt lat="43.43579" lon="6.41731">
        <ele>95.9</ele>
        <time>2020-10-13T12:50:38Z</time>
      </trkpt>
      <trkpt lat="43.43579" lon="6.41724">
        <ele>95.5</ele>
        <time>2020-10-13T12:50:41Z</time>
      </trkpt>
      <trkpt lat="43.43579" lon="6.41716">
        <ele>95.1</ele>
        <time>2020-10-13T12:50:45Z</time>
      </trkpt>
      <trkpt lat="43.43579" lon="6.41708">
        <ele>94.6</ele>
        <time>2020-10-13T12:50:49Z</time>
      </trkpt>
      <trkpt lat="43.43578" lon="6.41701">
        <ele>94.3</ele>
        <time>2020-10-13T12:50:53Z</time>
      </trkpt>
      <trkpt lat="43.43578" lon="6.41695">
        <ele>94.1</ele>
        <time>2020-10-13T12:50:56Z</time>
      </trkpt>
      <trkpt lat="43.43577" lon="6.41689">
        <ele>93.9</ele>
        <time>2020-10-13T12:50:59Z</time>
      </trkpt>
      <trkpt lat="43.43575" lon="6.41681">
        <ele>93.3</ele>
        <time>2020-10-13T12:51:04Z</time>
      </trkpt>
      <trkpt lat="43.43577" lon="6.41674">
        <ele>92.8</ele>
        <time>2020-10-13T12:51:09Z</time>
      </trkpt>
      <trkpt lat="43.43575" lon="6.41667">
        <ele>92.5</ele>
        <time>2020-10-13T12:51:12Z</time>
      </trkpt>
      <trkpt lat="43.43572" lon="6.4166">
        <ele>92.1</ele>
        <time>2020-10-13T12:51:15Z</time>
      </trkpt>
      <trkpt lat="43.43571" lon="6.41653">
        <ele>91.7</ele>
        <time>2020-10-13T12:51:18Z</time>
      </trkpt>
      <trkpt lat="43.4357" lon="6.41645">
        <ele>91.3</ele>
        <time>2020-10-13T12:51:21Z</time>
      </trkpt>
      <trkpt lat="43.43569" lon="6.41638">
        <ele>91</ele>
        <time>2020-10-13T12:51:25Z</time>
      </trkpt>
      <trkpt lat="43.43568" lon="6.41629">
        <ele>90.7</ele>
        <time>2020-10-13T12:51:29Z</time>
      </trkpt>
      <trkpt lat="43.43566" lon="6.41623">
        <ele>90.5</ele>
        <time>2020-10-13T12:51:32Z</time>
      </trkpt>
      <trkpt lat="43.43564" lon="6.41616">
        <ele>90.1</ele>
        <time>2020-10-13T12:51:36Z</time>
      </trkpt>
      <trkpt lat="43.43563" lon="6.41609">
        <ele>89.8</ele>
        <time>2020-10-13T12:51:40Z</time>
      </trkpt>
      <trkpt lat="43.43561" lon="6.41603">
        <ele>89.6</ele>
        <time>2020-10-13T12:51:43Z</time>
      </trkpt>
      <trkpt lat="43.4356" lon="6.41597">
        <ele>89.3</ele>
        <time>2020-10-13T12:51:46Z</time>
      </trkpt>
      <trkpt lat="43.43558" lon="6.41591">
        <ele>88.9</ele>
        <time>2020-10-13T12:51:50Z</time>
      </trkpt>
      <trkpt lat="43.43556" lon="6.41585">
        <ele>88.7</ele>
        <time>2020-10-13T12:51:54Z</time>
      </trkpt>
      <trkpt lat="43.43554" lon="6.41579">
        <ele>88.5</ele>
        <time>2020-10-13T12:51:57Z</time>
      </trkpt>
      <trkpt lat="43.4355" lon="6.41574">
        <ele>88.3</ele>
        <time>2020-10-13T12:52:00Z</time>
      </trkpt>
      <trkpt lat="43.43548" lon="6.41568">
        <ele>87.8</ele>
        <time>2020-10-13T12:52:04Z</time>
      </trkpt>
      <trkpt lat="43.43546" lon="6.41563">
        <ele>87.5</ele>
        <time>2020-10-13T12:52:07Z</time>
      </trkpt>
      <trkpt lat="43.43543" lon="6.41555">
        <ele>87.2</ele>
        <time>2020-10-13T12:52:11Z</time>
      </trkpt>
      <trkpt lat="43.43539" lon="6.4155">
        <ele>86.9</ele>
        <time>2020-10-13T12:52:14Z</time>
      </trkpt>
      <trkpt lat="43.43537" lon="6.41544">
        <ele>86.7</ele>
        <time>2020-10-13T12:52:17Z</time>
      </trkpt>
      <trkpt lat="43.43536" lon="6.41536">
        <ele>86.5</ele>
        <time>2020-10-13T12:52:20Z</time>
      </trkpt>
      <trkpt lat="43.43534" lon="6.41529">
        <ele>86.4</ele>
        <time>2020-10-13T12:52:23Z</time>
      </trkpt>
      <trkpt lat="43.43532" lon="6.41522">
        <ele>86.3</ele>
        <time>2020-10-13T12:52:26Z</time>
      </trkpt>
      <trkpt lat="43.43533" lon="6.41515">
        <ele>86.1</ele>
        <time>2020-10-13T12:52:32Z</time>
      </trkpt>
      <trkpt lat="43.43535" lon="6.41509">
        <ele>85.9</ele>
        <time>2020-10-13T12:52:37Z</time>
      </trkpt>
      <trkpt lat="43.43538" lon="6.41503">
        <ele>85.8</ele>
        <time>2020-10-13T12:52:42Z</time>
      </trkpt>
      <trkpt lat="43.43542" lon="6.41498">
        <ele>85.7</ele>
        <time>2020-10-13T12:52:46Z</time>
      </trkpt>
      <trkpt lat="43.43546" lon="6.41493">
        <ele>85.6</ele>
        <time>2020-10-13T12:52:50Z</time>
      </trkpt>
      <trkpt lat="43.43549" lon="6.41488">
        <ele>85.7</ele>
        <time>2020-10-13T12:52:54Z</time>
      </trkpt>
      <trkpt lat="43.43553" lon="6.41484">
        <ele>85.9</ele>
        <time>2020-10-13T12:52:59Z</time>
      </trkpt>
      <trkpt lat="43.43557" lon="6.41481">
        <ele>86.1</ele>
        <time>2020-10-13T12:53:03Z</time>
      </trkpt>
      <trkpt lat="43.43561" lon="6.41475">
        <ele>86.2</ele>
        <time>2020-10-13T12:53:07Z</time>
      </trkpt>
      <trkpt lat="43.43564" lon="6.41469">
        <ele>86.3</ele>
        <time>2020-10-13T12:53:11Z</time>
      </trkpt>
      <trkpt lat="43.43567" lon="6.41463">
        <ele>86.4</ele>
        <time>2020-10-13T12:53:17Z</time>
      </trkpt>
      <trkpt lat="43.43571" lon="6.41458">
        <ele>86.6</ele>
        <time>2020-10-13T12:53:21Z</time>
      </trkpt>
      <trkpt lat="43.43574" lon="6.41454">
        <ele>86.7</ele>
        <time>2020-10-13T12:53:24Z</time>
      </trkpt>
      <trkpt lat="43.43578" lon="6.41449">
        <ele>87</ele>
        <time>2020-10-13T12:53:29Z</time>
      </trkpt>
      <trkpt lat="43.43583" lon="6.41443">
        <ele>87.3</ele>
        <time>2020-10-13T12:53:33Z</time>
      </trkpt>
      <trkpt lat="43.43587" lon="6.41441">
        <ele>87.5</ele>
        <time>2020-10-13T12:53:36Z</time>
      </trkpt>
      <trkpt lat="43.43592" lon="6.41437">
        <ele>88</ele>
        <time>2020-10-13T12:53:40Z</time>
      </trkpt>
      <trkpt lat="43.43596" lon="6.41433">
        <ele>88.4</ele>
        <time>2020-10-13T12:53:43Z</time>
      </trkpt>
      <trkpt lat="43.436" lon="6.4143">
        <ele>88.8</ele>
        <time>2020-10-13T12:53:47Z</time>
      </trkpt>
      <trkpt lat="43.43604" lon="6.41426">
        <ele>89.2</ele>
        <time>2020-10-13T12:53:51Z</time>
      </trkpt>
      <trkpt lat="43.43608" lon="6.41423">
        <ele>89.5</ele>
        <time>2020-10-13T12:53:54Z</time>
      </trkpt>
      <trkpt lat="43.43613" lon="6.4142">
        <ele>89.9</ele>
        <time>2020-10-13T12:53:59Z</time>
      </trkpt>
      <trkpt lat="43.43619" lon="6.41416">
        <ele>90.2</ele>
        <time>2020-10-13T12:54:04Z</time>
      </trkpt>
      <trkpt lat="43.43624" lon="6.41413">
        <ele>90.3</ele>
        <time>2020-10-13T12:54:08Z</time>
      </trkpt>
      <trkpt lat="43.43628" lon="6.41409">
        <ele>90.5</ele>
        <time>2020-10-13T12:54:12Z</time>
      </trkpt>
      <trkpt lat="43.43633" lon="6.41405">
        <ele>90.5</ele>
        <time>2020-10-13T12:54:15Z</time>
      </trkpt>
      <trkpt lat="43.43637" lon="6.41401">
        <ele>90.6</ele>
        <time>2020-10-13T12:54:21Z</time>
      </trkpt>
      <trkpt lat="43.43642" lon="6.41398">
        <ele>90.7</ele>
        <time>2020-10-13T12:54:25Z</time>
      </trkpt>
      <trkpt lat="43.43648" lon="6.41397">
        <ele>90.7</ele>
        <time>2020-10-13T12:54:29Z</time>
      </trkpt>
      <trkpt lat="43.43653" lon="6.41396">
        <ele>90.7</ele>
        <time>2020-10-13T12:54:33Z</time>
      </trkpt>
      <trkpt lat="43.43657" lon="6.41394">
        <ele>90.7</ele>
        <time>2020-10-13T12:54:41Z</time>
      </trkpt>
      <trkpt lat="43.43662" lon="6.41391">
        <ele>90.8</ele>
        <time>2020-10-13T12:54:47Z</time>
      </trkpt>
      <trkpt lat="43.43666" lon="6.41387">
        <ele>90.9</ele>
        <time>2020-10-13T12:54:52Z</time>
      </trkpt>
      <trkpt lat="43.43671" lon="6.41384">
        <ele>90.9</ele>
        <time>2020-10-13T12:54:57Z</time>
      </trkpt>
      <trkpt lat="43.43675" lon="6.41381">
        <ele>90.9</ele>
        <time>2020-10-13T12:55:00Z</time>
      </trkpt>
      <trkpt lat="43.4368" lon="6.41377">
        <ele>90.8</ele>
        <time>2020-10-13T12:55:03Z</time>
      </trkpt>
      <trkpt lat="43.43685" lon="6.41375">
        <ele>90.8</ele>
        <time>2020-10-13T12:55:06Z</time>
      </trkpt>
      <trkpt lat="43.4369" lon="6.41372">
        <ele>90.8</ele>
        <time>2020-10-13T12:55:10Z</time>
      </trkpt>
      <trkpt lat="43.43695" lon="6.41369">
        <ele>90.9</ele>
        <time>2020-10-13T12:55:14Z</time>
      </trkpt>
      <trkpt lat="43.437" lon="6.41366">
        <ele>91.3</ele>
        <time>2020-10-13T12:55:18Z</time>
      </trkpt>
      <trkpt lat="43.43704" lon="6.41362">
        <ele>91.6</ele>
        <time>2020-10-13T12:55:23Z</time>
      </trkpt>
      <trkpt lat="43.43709" lon="6.41358">
        <ele>91.9</ele>
        <time>2020-10-13T12:55:28Z</time>
      </trkpt>
      <trkpt lat="43.43714" lon="6.41355">
        <ele>92.1</ele>
        <time>2020-10-13T12:55:32Z</time>
      </trkpt>
      <trkpt lat="43.43718" lon="6.41352">
        <ele>92.2</ele>
        <time>2020-10-13T12:55:36Z</time>
      </trkpt>
      <trkpt lat="43.43722" lon="6.41348">
        <ele>92.4</ele>
        <time>2020-10-13T12:55:39Z</time>
      </trkpt>
      <trkpt lat="43.43727" lon="6.41345">
        <ele>92.5</ele>
        <time>2020-10-13T12:55:42Z</time>
      </trkpt>
      <trkpt lat="43.43732" lon="6.4134">
        <ele>92.6</ele>
        <time>2020-10-13T12:55:46Z</time>
      </trkpt>
      <trkpt lat="43.43736" lon="6.41337">
        <ele>92.8</ele>
        <time>2020-10-13T12:55:50Z</time>
      </trkpt>
      <trkpt lat="43.43741" lon="6.41333">
        <ele>92.9</ele>
        <time>2020-10-13T12:55:54Z</time>
      </trkpt>
      <trkpt lat="43.43747" lon="6.4133">
        <ele>93.1</ele>
        <time>2020-10-13T12:55:57Z</time>
      </trkpt>
      <trkpt lat="43.43751" lon="6.41327">
        <ele>93.2</ele>
        <time>2020-10-13T12:56:00Z</time>
      </trkpt>
      <trkpt lat="43.43756" lon="6.41323">
        <ele>93.5</ele>
        <time>2020-10-13T12:56:05Z</time>
      </trkpt>
      <trkpt lat="43.4376" lon="6.4132">
        <ele>93.7</ele>
        <time>2020-10-13T12:56:09Z</time>
      </trkpt>
      <trkpt lat="43.43764" lon="6.41316">
        <ele>94.5</ele>
        <time>2020-10-13T12:56:15Z</time>
      </trkpt>
      <trkpt lat="43.43768" lon="6.41311">
        <ele>94.9</ele>
        <time>2020-10-13T12:56:20Z</time>
      </trkpt>
      <trkpt lat="43.43771" lon="6.41307">
        <ele>95.9</ele>
        <time>2020-10-13T12:56:29Z</time>
      </trkpt>
      <trkpt lat="43.43774" lon="6.41303">
        <ele>96.5</ele>
        <time>2020-10-13T12:56:34Z</time>
      </trkpt>
      <trkpt lat="43.43778" lon="6.41298">
        <ele>97.1</ele>
        <time>2020-10-13T12:56:39Z</time>
      </trkpt>
      <trkpt lat="43.43784" lon="6.41294">
        <ele>98.1</ele>
        <time>2020-10-13T12:56:45Z</time>
      </trkpt>
      <trkpt lat="43.43788" lon="6.4129">
        <ele>99.1</ele>
        <time>2020-10-13T12:56:51Z</time>
      </trkpt>
      <trkpt lat="43.43793" lon="6.41288">
        <ele>99.9</ele>
        <time>2020-10-13T12:56:55Z</time>
      </trkpt>
      <trkpt lat="43.43798" lon="6.41286">
        <ele>100.5</ele>
        <time>2020-10-13T12:56:59Z</time>
      </trkpt>
      <trkpt lat="43.43803" lon="6.41284">
        <ele>101.2</ele>
        <time>2020-10-13T12:57:05Z</time>
      </trkpt>
      <trkpt lat="43.43808" lon="6.41283">
        <ele>101.6</ele>
        <time>2020-10-13T12:57:09Z</time>
      </trkpt>
      <trkpt lat="43.43813" lon="6.41281">
        <ele>101.8</ele>
        <time>2020-10-13T12:57:12Z</time>
      </trkpt>
      <trkpt lat="43.43817" lon="6.4128">
        <ele>102</ele>
        <time>2020-10-13T12:57:15Z</time>
      </trkpt>
      <trkpt lat="43.43823" lon="6.41277">
        <ele>102.3</ele>
        <time>2020-10-13T12:57:19Z</time>
      </trkpt>
      <trkpt lat="43.43828" lon="6.41275">
        <ele>102.7</ele>
        <time>2020-10-13T12:57:23Z</time>
      </trkpt>
      <trkpt lat="43.43833" lon="6.41274">
        <ele>103</ele>
        <time>2020-10-13T12:57:26Z</time>
      </trkpt>
      <trkpt lat="43.43838" lon="6.41272">
        <ele>103.5</ele>
        <time>2020-10-13T12:57:30Z</time>
      </trkpt>
      <trkpt lat="43.43842" lon="6.41271">
        <ele>103.9</ele>
        <time>2020-10-13T12:57:34Z</time>
      </trkpt>
      <trkpt lat="43.43848" lon="6.41271">
        <ele>104.1</ele>
        <time>2020-10-13T12:57:38Z</time>
      </trkpt>
      <trkpt lat="43.43854" lon="6.41271">
        <ele>104.3</ele>
        <time>2020-10-13T12:57:41Z</time>
      </trkpt>
      <trkpt lat="43.43859" lon="6.4127">
        <ele>104.3</ele>
        <time>2020-10-13T12:57:44Z</time>
      </trkpt>
      <trkpt lat="43.43863" lon="6.41268">
        <ele>104.4</ele>
        <time>2020-10-13T12:57:47Z</time>
      </trkpt>
      <trkpt lat="43.43869" lon="6.41265">
        <ele>104.4</ele>
        <time>2020-10-13T12:57:51Z</time>
      </trkpt>
      <trkpt lat="43.43873" lon="6.41262">
        <ele>104.4</ele>
        <time>2020-10-13T12:57:55Z</time>
      </trkpt>
      <trkpt lat="43.43878" lon="6.41259">
        <ele>104.5</ele>
        <time>2020-10-13T12:57:58Z</time>
      </trkpt>
      <trkpt lat="43.43882" lon="6.41258">
        <ele>104.6</ele>
        <time>2020-10-13T12:58:01Z</time>
      </trkpt>
      <trkpt lat="43.43889" lon="6.41255">
        <ele>104.8</ele>
        <time>2020-10-13T12:58:04Z</time>
      </trkpt>
      <trkpt lat="43.43894" lon="6.41253">
        <ele>105</ele>
        <time>2020-10-13T12:58:07Z</time>
      </trkpt>
      <trkpt lat="43.43899" lon="6.41251">
        <ele>105.4</ele>
        <time>2020-10-13T12:58:10Z</time>
      </trkpt>
      <trkpt lat="43.43904" lon="6.41249">
        <ele>105.8</ele>
        <time>2020-10-13T12:58:14Z</time>
      </trkpt>
      <trkpt lat="43.43909" lon="6.41246">
        <ele>106.3</ele>
        <time>2020-10-13T12:58:18Z</time>
      </trkpt>
      <trkpt lat="43.43914" lon="6.41245">
        <ele>106.5</ele>
        <time>2020-10-13T12:58:21Z</time>
      </trkpt>
      <trkpt lat="43.43918" lon="6.41243">
        <ele>106.8</ele>
        <time>2020-10-13T12:58:24Z</time>
      </trkpt>
      <trkpt lat="43.43923" lon="6.41241">
        <ele>107.1</ele>
        <time>2020-10-13T12:58:28Z</time>
      </trkpt>
      <trkpt lat="43.43928" lon="6.41239">
        <ele>107.5</ele>
        <time>2020-10-13T12:58:32Z</time>
      </trkpt>
      <trkpt lat="43.43933" lon="6.41236">
        <ele>107.7</ele>
        <time>2020-10-13T12:58:36Z</time>
      </trkpt>
      <trkpt lat="43.43937" lon="6.41231">
        <ele>108.3</ele>
        <time>2020-10-13T12:58:42Z</time>
      </trkpt>
      <trkpt lat="43.43942" lon="6.41229">
        <ele>108.7</ele>
        <time>2020-10-13T12:58:46Z</time>
      </trkpt>
      <trkpt lat="43.43947" lon="6.41227">
        <ele>108.9</ele>
        <time>2020-10-13T12:58:49Z</time>
      </trkpt>
      <trkpt lat="43.43953" lon="6.41227">
        <ele>109.2</ele>
        <time>2020-10-13T12:58:53Z</time>
      </trkpt>
      <trkpt lat="43.43957" lon="6.41226">
        <ele>109.5</ele>
        <time>2020-10-13T12:58:56Z</time>
      </trkpt>
      <trkpt lat="43.43962" lon="6.41225">
        <ele>109.8</ele>
        <time>2020-10-13T12:59:00Z</time>
      </trkpt>
      <trkpt lat="43.43967" lon="6.41224">
        <ele>110</ele>
        <time>2020-10-13T12:59:04Z</time>
      </trkpt>
      <trkpt lat="43.43973" lon="6.41223">
        <ele>110.2</ele>
        <time>2020-10-13T12:59:08Z</time>
      </trkpt>
      <trkpt lat="43.43978" lon="6.41221">
        <ele>110.5</ele>
        <time>2020-10-13T12:59:12Z</time>
      </trkpt>
      <trkpt lat="43.43983" lon="6.4122">
        <ele>110.7</ele>
        <time>2020-10-13T12:59:15Z</time>
      </trkpt>
      <trkpt lat="43.43987" lon="6.41218">
        <ele>110.8</ele>
        <time>2020-10-13T12:59:18Z</time>
      </trkpt>
      <trkpt lat="43.43992" lon="6.41216">
        <ele>111</ele>
        <time>2020-10-13T12:59:22Z</time>
      </trkpt>
      <trkpt lat="43.43997" lon="6.41214">
        <ele>111.3</ele>
        <time>2020-10-13T12:59:26Z</time>
      </trkpt>
      <trkpt lat="43.44002" lon="6.41214">
        <ele>111.5</ele>
        <time>2020-10-13T12:59:30Z</time>
      </trkpt>
      <trkpt lat="43.44007" lon="6.41211">
        <ele>111.8</ele>
        <time>2020-10-13T12:59:35Z</time>
      </trkpt>
      <trkpt lat="43.44012" lon="6.41209">
        <ele>111.8</ele>
        <time>2020-10-13T12:59:38Z</time>
      </trkpt>
      <trkpt lat="43.44017" lon="6.41207">
        <ele>111.9</ele>
        <time>2020-10-13T12:59:41Z</time>
      </trkpt>
      <trkpt lat="43.44022" lon="6.41205">
        <ele>111.9</ele>
        <time>2020-10-13T12:59:46Z</time>
      </trkpt>
      <trkpt lat="43.44027" lon="6.41204">
        <ele>112.1</ele>
        <time>2020-10-13T12:59:50Z</time>
      </trkpt>
      <trkpt lat="43.44032" lon="6.41203">
        <ele>112.3</ele>
        <time>2020-10-13T12:59:54Z</time>
      </trkpt>
      <trkpt lat="43.44037" lon="6.41202">
        <ele>112.5</ele>
        <time>2020-10-13T12:59:59Z</time>
      </trkpt>
      <trkpt lat="43.44043" lon="6.41202">
        <ele>112.6</ele>
        <time>2020-10-13T13:00:03Z</time>
      </trkpt>
      <trkpt lat="43.44048" lon="6.41201">
        <ele>113</ele>
        <time>2020-10-13T13:00:07Z</time>
      </trkpt>
      <trkpt lat="43.44053" lon="6.412">
        <ele>113.3</ele>
        <time>2020-10-13T13:00:12Z</time>
      </trkpt>
      <trkpt lat="43.44057" lon="6.41199">
        <ele>113.3</ele>
        <time>2020-10-13T13:00:16Z</time>
      </trkpt>
      <trkpt lat="43.44063" lon="6.41198">
        <ele>113.2</ele>
        <time>2020-10-13T13:00:20Z</time>
      </trkpt>
      <trkpt lat="43.44068" lon="6.41196">
        <ele>113.4</ele>
        <time>2020-10-13T13:00:25Z</time>
      </trkpt>
      <trkpt lat="43.44073" lon="6.41195">
        <ele>113.6</ele>
        <time>2020-10-13T13:00:29Z</time>
      </trkpt>
      <trkpt lat="43.44077" lon="6.41193">
        <ele>113.8</ele>
        <time>2020-10-13T13:00:32Z</time>
      </trkpt>
      <trkpt lat="43.44082" lon="6.4119">
        <ele>114</ele>
        <time>2020-10-13T13:00:36Z</time>
      </trkpt>
      <trkpt lat="43.44086" lon="6.41187">
        <ele>114.2</ele>
        <time>2020-10-13T13:00:39Z</time>
      </trkpt>
      <trkpt lat="43.44091" lon="6.41184">
        <ele>114.5</ele>
        <time>2020-10-13T13:00:43Z</time>
      </trkpt>
      <trkpt lat="43.44095" lon="6.41181">
        <ele>114.9</ele>
        <time>2020-10-13T13:00:47Z</time>
      </trkpt>
      <trkpt lat="43.441" lon="6.41179">
        <ele>115.4</ele>
        <time>2020-10-13T13:00:50Z</time>
      </trkpt>
      <trkpt lat="43.44104" lon="6.41175">
        <ele>115.8</ele>
        <time>2020-10-13T13:00:54Z</time>
      </trkpt>
      <trkpt lat="43.44109" lon="6.41172">
        <ele>116.1</ele>
        <time>2020-10-13T13:00:57Z</time>
      </trkpt>
      <trkpt lat="43.44113" lon="6.41171">
        <ele>116.6</ele>
        <time>2020-10-13T13:01:00Z</time>
      </trkpt>
      <trkpt lat="43.44118" lon="6.41168">
        <ele>117</ele>
        <time>2020-10-13T13:01:03Z</time>
      </trkpt>
      <trkpt lat="43.44122" lon="6.41165">
        <ele>117.6</ele>
        <time>2020-10-13T13:01:07Z</time>
      </trkpt>
      <trkpt lat="43.44127" lon="6.41163">
        <ele>118.1</ele>
        <time>2020-10-13T13:01:11Z</time>
      </trkpt>
      <trkpt lat="43.44132" lon="6.41161">
        <ele>118.5</ele>
        <time>2020-10-13T13:01:15Z</time>
      </trkpt>
      <trkpt lat="43.44137" lon="6.41159">
        <ele>119</ele>
        <time>2020-10-13T13:01:19Z</time>
      </trkpt>
      <trkpt lat="43.44142" lon="6.41156">
        <ele>119.4</ele>
        <time>2020-10-13T13:01:23Z</time>
      </trkpt>
      <trkpt lat="43.44147" lon="6.41153">
        <ele>119.8</ele>
        <time>2020-10-13T13:01:28Z</time>
      </trkpt>
      <trkpt lat="43.44151" lon="6.4115">
        <ele>119.7</ele>
        <time>2020-10-13T13:01:31Z</time>
      </trkpt>
      <trkpt lat="43.44156" lon="6.41146">
        <ele>119.9</ele>
        <time>2020-10-13T13:01:35Z</time>
      </trkpt>
      <trkpt lat="43.44161" lon="6.41145">
        <ele>120.2</ele>
        <time>2020-10-13T13:01:40Z</time>
      </trkpt>
      <trkpt lat="43.44167" lon="6.41144">
        <ele>120.4</ele>
        <time>2020-10-13T13:01:44Z</time>
      </trkpt>
      <trkpt lat="43.44172" lon="6.4114">
        <ele>120.7</ele>
        <time>2020-10-13T13:01:47Z</time>
      </trkpt>
      <trkpt lat="43.44177" lon="6.41134">
        <ele>121.1</ele>
        <time>2020-10-13T13:01:51Z</time>
      </trkpt>
      <trkpt lat="43.44181" lon="6.4113">
        <ele>121.5</ele>
        <time>2020-10-13T13:01:55Z</time>
      </trkpt>
      <trkpt lat="43.44186" lon="6.41127">
        <ele>122.1</ele>
        <time>2020-10-13T13:01:59Z</time>
      </trkpt>
      <trkpt lat="43.44191" lon="6.41125">
        <ele>122.5</ele>
        <time>2020-10-13T13:02:02Z</time>
      </trkpt>
      <trkpt lat="43.44196" lon="6.41123">
        <ele>122.9</ele>
        <time>2020-10-13T13:02:06Z</time>
      </trkpt>
      <trkpt lat="43.44201" lon="6.4112">
        <ele>123.2</ele>
        <time>2020-10-13T13:02:10Z</time>
      </trkpt>
      <trkpt lat="43.44206" lon="6.41117">
        <ele>123.4</ele>
        <time>2020-10-13T13:02:14Z</time>
      </trkpt>
      <trkpt lat="43.44209" lon="6.41112">
        <ele>123.6</ele>
        <time>2020-10-13T13:02:19Z</time>
      </trkpt>
      <trkpt lat="43.44213" lon="6.41109">
        <ele>123.8</ele>
        <time>2020-10-13T13:02:23Z</time>
      </trkpt>
      <trkpt lat="43.44218" lon="6.41107">
        <ele>124.2</ele>
        <time>2020-10-13T13:02:29Z</time>
      </trkpt>
      <trkpt lat="43.44223" lon="6.41105">
        <ele>124.7</ele>
        <time>2020-10-13T13:02:34Z</time>
      </trkpt>
      <trkpt lat="43.44228" lon="6.41102">
        <ele>125</ele>
        <time>2020-10-13T13:02:38Z</time>
      </trkpt>
      <trkpt lat="43.44233" lon="6.41102">
        <ele>125.3</ele>
        <time>2020-10-13T13:02:42Z</time>
      </trkpt>
      <trkpt lat="43.44239" lon="6.41099">
        <ele>125.7</ele>
        <time>2020-10-13T13:02:46Z</time>
      </trkpt>
      <trkpt lat="43.44244" lon="6.41095">
        <ele>126</ele>
        <time>2020-10-13T13:02:49Z</time>
      </trkpt>
      <trkpt lat="43.4425" lon="6.41093">
        <ele>126.3</ele>
        <time>2020-10-13T13:02:53Z</time>
      </trkpt>
      <trkpt lat="43.44255" lon="6.4109">
        <ele>126.7</ele>
        <time>2020-10-13T13:02:57Z</time>
      </trkpt>
      <trkpt lat="43.4426" lon="6.41087">
        <ele>127</ele>
        <time>2020-10-13T13:03:01Z</time>
      </trkpt>
      <trkpt lat="43.44265" lon="6.41085">
        <ele>127.2</ele>
        <time>2020-10-13T13:03:06Z</time>
      </trkpt>
      <trkpt lat="43.4427" lon="6.41085">
        <ele>127.3</ele>
        <time>2020-10-13T13:03:11Z</time>
      </trkpt>
      <trkpt lat="43.44274" lon="6.41082">
        <ele>127.6</ele>
        <time>2020-10-13T13:03:15Z</time>
      </trkpt>
      <trkpt lat="43.44279" lon="6.4108">
        <ele>127.8</ele>
        <time>2020-10-13T13:03:19Z</time>
      </trkpt>
      <trkpt lat="43.44284" lon="6.41078">
        <ele>128.6</ele>
        <time>2020-10-13T13:03:23Z</time>
      </trkpt>
      <trkpt lat="43.44289" lon="6.41076">
        <ele>129</ele>
        <time>2020-10-13T13:03:27Z</time>
      </trkpt>
      <trkpt lat="43.44294" lon="6.41076">
        <ele>129.3</ele>
        <time>2020-10-13T13:03:30Z</time>
      </trkpt>
      <trkpt lat="43.44299" lon="6.41077">
        <ele>129.6</ele>
        <time>2020-10-13T13:03:34Z</time>
      </trkpt>
      <trkpt lat="43.44304" lon="6.41077">
        <ele>130.1</ele>
        <time>2020-10-13T13:03:39Z</time>
      </trkpt>
      <trkpt lat="43.4431" lon="6.41074">
        <ele>130.3</ele>
        <time>2020-10-13T13:03:43Z</time>
      </trkpt>
      <trkpt lat="43.44315" lon="6.41072">
        <ele>130.4</ele>
        <time>2020-10-13T13:03:46Z</time>
      </trkpt>
      <trkpt lat="43.44319" lon="6.4107">
        <ele>131</ele>
        <time>2020-10-13T13:03:50Z</time>
      </trkpt>
      <trkpt lat="43.44325" lon="6.41069">
        <ele>131.8</ele>
        <time>2020-10-13T13:03:57Z</time>
      </trkpt>
      <trkpt lat="43.4433" lon="6.41067">
        <ele>132.4</ele>
        <time>2020-10-13T13:04:02Z</time>
      </trkpt>
      <trkpt lat="43.44335" lon="6.41064">
        <ele>132.8</ele>
        <time>2020-10-13T13:04:07Z</time>
      </trkpt>
      <trkpt lat="43.44339" lon="6.41063">
        <ele>133.1</ele>
        <time>2020-10-13T13:04:11Z</time>
      </trkpt>
      <trkpt lat="43.44344" lon="6.41064">
        <ele>133.5</ele>
        <time>2020-10-13T13:04:15Z</time>
      </trkpt>
      <trkpt lat="43.44349" lon="6.41063">
        <ele>133.8</ele>
        <time>2020-10-13T13:04:19Z</time>
      </trkpt>
      <trkpt lat="43.44355" lon="6.41061">
        <ele>134.2</ele>
        <time>2020-10-13T13:04:24Z</time>
      </trkpt>
      <trkpt lat="43.44359" lon="6.41062">
        <ele>134.5</ele>
        <time>2020-10-13T13:04:27Z</time>
      </trkpt>
      <trkpt lat="43.44365" lon="6.41061">
        <ele>134.9</ele>
        <time>2020-10-13T13:04:31Z</time>
      </trkpt>
      <trkpt lat="43.4437" lon="6.41059">
        <ele>135.4</ele>
        <time>2020-10-13T13:04:36Z</time>
      </trkpt>
      <trkpt lat="43.44375" lon="6.4106">
        <ele>135.9</ele>
        <time>2020-10-13T13:04:40Z</time>
      </trkpt>
      <trkpt lat="43.4438" lon="6.4106">
        <ele>136.3</ele>
        <time>2020-10-13T13:04:45Z</time>
      </trkpt>
      <trkpt lat="43.44385" lon="6.41059">
        <ele>136.9</ele>
        <time>2020-10-13T13:04:51Z</time>
      </trkpt>
      <trkpt lat="43.4439" lon="6.41056">
        <ele>137.4</ele>
        <time>2020-10-13T13:04:57Z</time>
      </trkpt>
      <trkpt lat="43.44395" lon="6.41053">
        <ele>137.9</ele>
        <time>2020-10-13T13:05:01Z</time>
      </trkpt>
      <trkpt lat="43.444" lon="6.41051">
        <ele>138.3</ele>
        <time>2020-10-13T13:05:05Z</time>
      </trkpt>
      <trkpt lat="43.44405" lon="6.41048">
        <ele>139.1</ele>
        <time>2020-10-13T13:05:09Z</time>
      </trkpt>
      <trkpt lat="43.44409" lon="6.41046">
        <ele>139.6</ele>
        <time>2020-10-13T13:05:12Z</time>
      </trkpt>
      <trkpt lat="43.44414" lon="6.41042">
        <ele>140</ele>
        <time>2020-10-13T13:05:15Z</time>
      </trkpt>
      <trkpt lat="43.44419" lon="6.41038">
        <ele>140.3</ele>
        <time>2020-10-13T13:05:18Z</time>
      </trkpt>
      <trkpt lat="43.44423" lon="6.41034">
        <ele>140.7</ele>
        <time>2020-10-13T13:05:22Z</time>
      </trkpt>
      <trkpt lat="43.44428" lon="6.4103">
        <ele>141.1</ele>
        <time>2020-10-13T13:05:26Z</time>
      </trkpt>
      <trkpt lat="43.44432" lon="6.41027">
        <ele>141.7</ele>
        <time>2020-10-13T13:05:31Z</time>
      </trkpt>
      <trkpt lat="43.44436" lon="6.41032">
        <ele>142.3</ele>
        <time>2020-10-13T13:05:37Z</time>
      </trkpt>
      <trkpt lat="43.44441" lon="6.41036">
        <ele>142.7</ele>
        <time>2020-10-13T13:05:42Z</time>
      </trkpt>
      <trkpt lat="43.44445" lon="6.41041">
        <ele>143.1</ele>
        <time>2020-10-13T13:05:47Z</time>
      </trkpt>
      <trkpt lat="43.44449" lon="6.41043">
        <ele>143.8</ele>
        <time>2020-10-13T13:05:53Z</time>
      </trkpt>
      <trkpt lat="43.44448" lon="6.4105">
        <ele>144.5</ele>
        <time>2020-10-13T13:06:00Z</time>
      </trkpt>
      <trkpt lat="43.44448" lon="6.41057">
        <ele>144.9</ele>
        <time>2020-10-13T13:06:05Z</time>
      </trkpt>
      <trkpt lat="43.44447" lon="6.41065">
        <ele>145.3</ele>
        <time>2020-10-13T13:06:09Z</time>
      </trkpt>
      <trkpt lat="43.44446" lon="6.41072">
        <ele>145.6</ele>
        <time>2020-10-13T13:06:14Z</time>
      </trkpt>
      <trkpt lat="43.44445" lon="6.41079">
        <ele>145.8</ele>
        <time>2020-10-13T13:06:18Z</time>
      </trkpt>
      <trkpt lat="43.44444" lon="6.41085">
        <ele>146.2</ele>
        <time>2020-10-13T13:06:22Z</time>
      </trkpt>
      <trkpt lat="43.44442" lon="6.41092">
        <ele>146.8</ele>
        <time>2020-10-13T13:06:27Z</time>
      </trkpt>
      <trkpt lat="43.44441" lon="6.41098">
        <ele>147.1</ele>
        <time>2020-10-13T13:06:31Z</time>
      </trkpt>
      <trkpt lat="43.44439" lon="6.41104">
        <ele>147.3</ele>
        <time>2020-10-13T13:06:35Z</time>
      </trkpt>
      <trkpt lat="43.44437" lon="6.41111">
        <ele>147.4</ele>
        <time>2020-10-13T13:06:39Z</time>
      </trkpt>
      <trkpt lat="43.44435" lon="6.41117">
        <ele>147.5</ele>
        <time>2020-10-13T13:06:43Z</time>
      </trkpt>
      <trkpt lat="43.44434" lon="6.41124">
        <ele>147.6</ele>
        <time>2020-10-13T13:06:47Z</time>
      </trkpt>
      <trkpt lat="43.44432" lon="6.41131">
        <ele>147.8</ele>
        <time>2020-10-13T13:06:51Z</time>
      </trkpt>
      <trkpt lat="43.44431" lon="6.41138">
        <ele>148.2</ele>
        <time>2020-10-13T13:06:55Z</time>
      </trkpt>
      <trkpt lat="43.44431" lon="6.41145">
        <ele>148.6</ele>
        <time>2020-10-13T13:06:59Z</time>
      </trkpt>
      <trkpt lat="43.44429" lon="6.41151">
        <ele>148.8</ele>
        <time>2020-10-13T13:07:03Z</time>
      </trkpt>
      <trkpt lat="43.44427" lon="6.41158">
        <ele>148.7</ele>
        <time>2020-10-13T13:07:07Z</time>
      </trkpt>
      <trkpt lat="43.44425" lon="6.41166">
        <ele>148.7</ele>
        <time>2020-10-13T13:07:11Z</time>
      </trkpt>
      <trkpt lat="43.44424" lon="6.41174">
        <ele>148.9</ele>
        <time>2020-10-13T13:07:15Z</time>
      </trkpt>
      <trkpt lat="43.44424" lon="6.41181">
        <ele>149</ele>
        <time>2020-10-13T13:07:19Z</time>
      </trkpt>
      <trkpt lat="43.44424" lon="6.41188">
        <ele>149</ele>
        <time>2020-10-13T13:07:23Z</time>
      </trkpt>
      <trkpt lat="43.44423" lon="6.41196">
        <ele>149</ele>
        <time>2020-10-13T13:07:27Z</time>
      </trkpt>
      <trkpt lat="43.44423" lon="6.41203">
        <ele>149.2</ele>
        <time>2020-10-13T13:07:31Z</time>
      </trkpt>
      <trkpt lat="43.44424" lon="6.41211">
        <ele>149.3</ele>
        <time>2020-10-13T13:07:35Z</time>
      </trkpt>
      <trkpt lat="43.44424" lon="6.41218">
        <ele>149.4</ele>
        <time>2020-10-13T13:07:39Z</time>
      </trkpt>
      <trkpt lat="43.44424" lon="6.41225">
        <ele>149.6</ele>
        <time>2020-10-13T13:07:43Z</time>
      </trkpt>
      <trkpt lat="43.44422" lon="6.41232">
        <ele>149.7</ele>
        <time>2020-10-13T13:07:47Z</time>
      </trkpt>
      <trkpt lat="43.44421" lon="6.41239">
        <ele>149.9</ele>
        <time>2020-10-13T13:07:51Z</time>
      </trkpt>
      <trkpt lat="43.44419" lon="6.41245">
        <ele>150.1</ele>
        <time>2020-10-13T13:07:55Z</time>
      </trkpt>
      <trkpt lat="43.44417" lon="6.41252">
        <ele>150.3</ele>
        <time>2020-10-13T13:08:00Z</time>
      </trkpt>
      <trkpt lat="43.44414" lon="6.41258">
        <ele>150.5</ele>
        <time>2020-10-13T13:08:05Z</time>
      </trkpt>
      <trkpt lat="43.44411" lon="6.41264">
        <ele>150.6</ele>
        <time>2020-10-13T13:08:09Z</time>
      </trkpt>
      <trkpt lat="43.44407" lon="6.4127">
        <ele>150.8</ele>
        <time>2020-10-13T13:08:14Z</time>
      </trkpt>
      <trkpt lat="43.44405" lon="6.41275">
        <ele>151.2</ele>
        <time>2020-10-13T13:08:18Z</time>
      </trkpt>
      <trkpt lat="43.44402" lon="6.41281">
        <ele>151.7</ele>
        <time>2020-10-13T13:08:22Z</time>
      </trkpt>
      <trkpt lat="43.44398" lon="6.41286">
        <ele>152.1</ele>
        <time>2020-10-13T13:08:26Z</time>
      </trkpt>
      <trkpt lat="43.44394" lon="6.41291">
        <ele>152.4</ele>
        <time>2020-10-13T13:08:30Z</time>
      </trkpt>
      <trkpt lat="43.44391" lon="6.41296">
        <ele>152.5</ele>
        <time>2020-10-13T13:08:33Z</time>
      </trkpt>
      <trkpt lat="43.44388" lon="6.41301">
        <ele>152.8</ele>
        <time>2020-10-13T13:08:36Z</time>
      </trkpt>
      <trkpt lat="43.44386" lon="6.41307">
        <ele>153.1</ele>
        <time>2020-10-13T13:08:40Z</time>
      </trkpt>
      <trkpt lat="43.44383" lon="6.41313">
        <ele>153.3</ele>
        <time>2020-10-13T13:08:44Z</time>
      </trkpt>
      <trkpt lat="43.4438" lon="6.4132">
        <ele>153.5</ele>
        <time>2020-10-13T13:08:48Z</time>
      </trkpt>
      <trkpt lat="43.44377" lon="6.41326">
        <ele>153.7</ele>
        <time>2020-10-13T13:08:52Z</time>
      </trkpt>
      <trkpt lat="43.44375" lon="6.41333">
        <ele>154.1</ele>
        <time>2020-10-13T13:08:56Z</time>
      </trkpt>
      <trkpt lat="43.44373" lon="6.41339">
        <ele>154.4</ele>
        <time>2020-10-13T13:08:59Z</time>
      </trkpt>
      <trkpt lat="43.44371" lon="6.41345">
        <ele>154.7</ele>
        <time>2020-10-13T13:09:02Z</time>
      </trkpt>
      <trkpt lat="43.44369" lon="6.41352">
        <ele>154.9</ele>
        <time>2020-10-13T13:09:06Z</time>
      </trkpt>
      <trkpt lat="43.44369" lon="6.4136">
        <ele>155</ele>
        <time>2020-10-13T13:09:10Z</time>
      </trkpt>
      <trkpt lat="43.44368" lon="6.41366">
        <ele>155.1</ele>
        <time>2020-10-13T13:09:13Z</time>
      </trkpt>
      <trkpt lat="43.44366" lon="6.41374">
        <ele>155.4</ele>
        <time>2020-10-13T13:09:17Z</time>
      </trkpt>
      <trkpt lat="43.44364" lon="6.41381">
        <ele>155.5</ele>
        <time>2020-10-13T13:09:21Z</time>
      </trkpt>
      <trkpt lat="43.44362" lon="6.41388">
        <ele>155.6</ele>
        <time>2020-10-13T13:09:25Z</time>
      </trkpt>
      <trkpt lat="43.44361" lon="6.41394">
        <ele>155.6</ele>
        <time>2020-10-13T13:09:29Z</time>
      </trkpt>
      <trkpt lat="43.4436" lon="6.41401">
        <ele>155.6</ele>
        <time>2020-10-13T13:09:33Z</time>
      </trkpt>
      <trkpt lat="43.44359" lon="6.41408">
        <ele>155.6</ele>
        <time>2020-10-13T13:09:36Z</time>
      </trkpt>
      <trkpt lat="43.44357" lon="6.41415">
        <ele>155.7</ele>
        <time>2020-10-13T13:09:40Z</time>
      </trkpt>
      <trkpt lat="43.44356" lon="6.41422">
        <ele>156</ele>
        <time>2020-10-13T13:09:44Z</time>
      </trkpt>
      <trkpt lat="43.44354" lon="6.4143">
        <ele>156.1</ele>
        <time>2020-10-13T13:09:48Z</time>
      </trkpt>
      <trkpt lat="43.44352" lon="6.41435">
        <ele>156.1</ele>
        <time>2020-10-13T13:09:52Z</time>
      </trkpt>
      <trkpt lat="43.44351" lon="6.41443">
        <ele>156.1</ele>
        <time>2020-10-13T13:09:56Z</time>
      </trkpt>
      <trkpt lat="43.4435" lon="6.4145">
        <ele>156.1</ele>
        <time>2020-10-13T13:10:00Z</time>
      </trkpt>
      <trkpt lat="43.44348" lon="6.41457">
        <ele>156.2</ele>
        <time>2020-10-13T13:10:05Z</time>
      </trkpt>
      <trkpt lat="43.44346" lon="6.41464">
        <ele>156.2</ele>
        <time>2020-10-13T13:10:09Z</time>
      </trkpt>
      <trkpt lat="43.44345" lon="6.41471">
        <ele>156.4</ele>
        <time>2020-10-13T13:10:13Z</time>
      </trkpt>
      <trkpt lat="43.44343" lon="6.41478">
        <ele>156.5</ele>
        <time>2020-10-13T13:10:17Z</time>
      </trkpt>
      <trkpt lat="43.44341" lon="6.41484">
        <ele>156.5</ele>
        <time>2020-10-13T13:10:20Z</time>
      </trkpt>
      <trkpt lat="43.44338" lon="6.41489">
        <ele>156.6</ele>
        <time>2020-10-13T13:10:24Z</time>
      </trkpt>
      <trkpt lat="43.44333" lon="6.41492">
        <ele>156.5</ele>
        <time>2020-10-13T13:10:29Z</time>
      </trkpt>
      <trkpt lat="43.44328" lon="6.41494">
        <ele>156.4</ele>
        <time>2020-10-13T13:10:33Z</time>
      </trkpt>
      <trkpt lat="43.44323" lon="6.41495">
        <ele>156.1</ele>
        <time>2020-10-13T13:10:38Z</time>
      </trkpt>
      <trkpt lat="43.44318" lon="6.41496">
        <ele>155.9</ele>
        <time>2020-10-13T13:10:41Z</time>
      </trkpt>
      <trkpt lat="43.44313" lon="6.41497">
        <ele>155.8</ele>
        <time>2020-10-13T13:10:44Z</time>
      </trkpt>
      <trkpt lat="43.44307" lon="6.41497">
        <ele>155.7</ele>
        <time>2020-10-13T13:10:48Z</time>
      </trkpt>
      <trkpt lat="43.44302" lon="6.41494">
        <ele>155.5</ele>
        <time>2020-10-13T13:10:52Z</time>
      </trkpt>
      <trkpt lat="43.44297" lon="6.41496">
        <ele>155.5</ele>
        <time>2020-10-13T13:10:55Z</time>
      </trkpt>
      <trkpt lat="43.44292" lon="6.41497">
        <ele>155.1</ele>
        <time>2020-10-13T13:10:59Z</time>
      </trkpt>
      <trkpt lat="43.44287" lon="6.41496">
        <ele>154.7</ele>
        <time>2020-10-13T13:11:04Z</time>
      </trkpt>
      <trkpt lat="43.44282" lon="6.41494">
        <ele>154.3</ele>
        <time>2020-10-13T13:11:08Z</time>
      </trkpt>
      <trkpt lat="43.44277" lon="6.41492">
        <ele>154.1</ele>
        <time>2020-10-13T13:11:11Z</time>
      </trkpt>
      <trkpt lat="43.44272" lon="6.41491">
        <ele>153.8</ele>
        <time>2020-10-13T13:11:15Z</time>
      </trkpt>
      <trkpt lat="43.44267" lon="6.41488">
        <ele>153.6</ele>
        <time>2020-10-13T13:11:19Z</time>
      </trkpt>
      <trkpt lat="43.44262" lon="6.41485">
        <ele>153.3</ele>
        <time>2020-10-13T13:11:24Z</time>
      </trkpt>
      <trkpt lat="43.44258" lon="6.41482">
        <ele>152.8</ele>
        <time>2020-10-13T13:11:28Z</time>
      </trkpt>
      <trkpt lat="43.44253" lon="6.4148">
        <ele>152.5</ele>
        <time>2020-10-13T13:11:31Z</time>
      </trkpt>
      <trkpt lat="43.44248" lon="6.41478">
        <ele>152.1</ele>
        <time>2020-10-13T13:11:34Z</time>
      </trkpt>
      <trkpt lat="43.44243" lon="6.41476">
        <ele>151.9</ele>
        <time>2020-10-13T13:11:37Z</time>
      </trkpt>
      <trkpt lat="43.44238" lon="6.41473">
        <ele>151.8</ele>
        <time>2020-10-13T13:11:41Z</time>
      </trkpt>
      <trkpt lat="43.44233" lon="6.4147">
        <ele>151.7</ele>
        <time>2020-10-13T13:11:44Z</time>
      </trkpt>
      <trkpt lat="43.44228" lon="6.41468">
        <ele>151.6</ele>
        <time>2020-10-13T13:11:47Z</time>
      </trkpt>
      <trkpt lat="43.44224" lon="6.41464">
        <ele>151.5</ele>
        <time>2020-10-13T13:11:52Z</time>
      </trkpt>
      <trkpt lat="43.44219" lon="6.41462">
        <ele>151.4</ele>
        <time>2020-10-13T13:11:56Z</time>
      </trkpt>
      <trkpt lat="43.44214" lon="6.41459">
        <ele>151.2</ele>
        <time>2020-10-13T13:12:00Z</time>
      </trkpt>
      <trkpt lat="43.44209" lon="6.41456">
        <ele>151.2</ele>
        <time>2020-10-13T13:12:04Z</time>
      </trkpt>
      <trkpt lat="43.44204" lon="6.41452">
        <ele>151.1</ele>
        <time>2020-10-13T13:12:08Z</time>
      </trkpt>
      <trkpt lat="43.442" lon="6.41449">
        <ele>151</ele>
        <time>2020-10-13T13:12:12Z</time>
      </trkpt>
      <trkpt lat="43.44196" lon="6.41445">
        <ele>150.8</ele>
        <time>2020-10-13T13:12:17Z</time>
      </trkpt>
      <trkpt lat="43.44193" lon="6.41439">
        <ele>150.6</ele>
        <time>2020-10-13T13:12:21Z</time>
      </trkpt>
      <trkpt lat="43.44189" lon="6.41434">
        <ele>150.4</ele>
        <time>2020-10-13T13:12:25Z</time>
      </trkpt>
      <trkpt lat="43.44185" lon="6.41429">
        <ele>150.3</ele>
        <time>2020-10-13T13:12:28Z</time>
      </trkpt>
      <trkpt lat="43.4418" lon="6.41425">
        <ele>150.1</ele>
        <time>2020-10-13T13:12:31Z</time>
      </trkpt>
      <trkpt lat="43.44174" lon="6.41422">
        <ele>150</ele>
        <time>2020-10-13T13:12:35Z</time>
      </trkpt>
      <trkpt lat="43.4417" lon="6.41419">
        <ele>149.8</ele>
        <time>2020-10-13T13:12:38Z</time>
      </trkpt>
      <trkpt lat="43.44165" lon="6.41416">
        <ele>149.7</ele>
        <time>2020-10-13T13:12:41Z</time>
      </trkpt>
      <trkpt lat="43.4416" lon="6.41414">
        <ele>149.5</ele>
        <time>2020-10-13T13:12:44Z</time>
      </trkpt>
      <trkpt lat="43.44156" lon="6.41412">
        <ele>149.2</ele>
        <time>2020-10-13T13:12:48Z</time>
      </trkpt>
      <trkpt lat="43.44151" lon="6.4141">
        <ele>148.9</ele>
        <time>2020-10-13T13:12:51Z</time>
      </trkpt>
      <trkpt lat="43.44146" lon="6.41408">
        <ele>148.7</ele>
        <time>2020-10-13T13:12:54Z</time>
      </trkpt>
      <trkpt lat="43.44141" lon="6.41406">
        <ele>148.4</ele>
        <time>2020-10-13T13:12:57Z</time>
      </trkpt>
      <trkpt lat="43.44136" lon="6.41403">
        <ele>148.1</ele>
        <time>2020-10-13T13:13:00Z</time>
      </trkpt>
      <trkpt lat="43.44131" lon="6.41403">
        <ele>147.7</ele>
        <time>2020-10-13T13:13:04Z</time>
      </trkpt>
      <trkpt lat="43.44125" lon="6.41403">
        <ele>147.3</ele>
        <time>2020-10-13T13:13:08Z</time>
      </trkpt>
      <trkpt lat="43.4412" lon="6.41402">
        <ele>147.2</ele>
        <time>2020-10-13T13:13:11Z</time>
      </trkpt>
      <trkpt lat="43.44115" lon="6.41402">
        <ele>147.1</ele>
        <time>2020-10-13T13:13:14Z</time>
      </trkpt>
      <trkpt lat="43.44109" lon="6.41402">
        <ele>146.9</ele>
        <time>2020-10-13T13:13:18Z</time>
      </trkpt>
      <trkpt lat="43.44104" lon="6.41405">
        <ele>146.7</ele>
        <time>2020-10-13T13:13:21Z</time>
      </trkpt>
      <trkpt lat="43.44099" lon="6.41407">
        <ele>146.6</ele>
        <time>2020-10-13T13:13:24Z</time>
      </trkpt>
      <trkpt lat="43.44094" lon="6.4141">
        <ele>146.6</ele>
        <time>2020-10-13T13:13:27Z</time>
      </trkpt>
      <trkpt lat="43.44089" lon="6.41415">
        <ele>146.5</ele>
        <time>2020-10-13T13:13:31Z</time>
      </trkpt>
      <trkpt lat="43.44086" lon="6.4142">
        <ele>146.3</ele>
        <time>2020-10-13T13:13:35Z</time>
      </trkpt>
      <trkpt lat="43.44084" lon="6.41426">
        <ele>146.2</ele>
        <time>2020-10-13T13:13:39Z</time>
      </trkpt>
      <trkpt lat="43.44082" lon="6.41432">
        <ele>146</ele>
        <time>2020-10-13T13:13:42Z</time>
      </trkpt>
      <trkpt lat="43.4408" lon="6.41438">
        <ele>145.9</ele>
        <time>2020-10-13T13:13:45Z</time>
      </trkpt>
      <trkpt lat="43.44078" lon="6.41445">
        <ele>145.9</ele>
        <time>2020-10-13T13:13:48Z</time>
      </trkpt>
      <trkpt lat="43.44076" lon="6.41453">
        <ele>145.8</ele>
        <time>2020-10-13T13:13:52Z</time>
      </trkpt>
      <trkpt lat="43.44075" lon="6.4146">
        <ele>145.8</ele>
        <time>2020-10-13T13:13:56Z</time>
      </trkpt>
      <trkpt lat="43.44074" lon="6.41467">
        <ele>145.8</ele>
        <time>2020-10-13T13:14:00Z</time>
      </trkpt>
      <trkpt lat="43.4407" lon="6.41473">
        <ele>145.5</ele>
        <time>2020-10-13T13:14:04Z</time>
      </trkpt>
      <trkpt lat="43.44068" lon="6.41479">
        <ele>145.4</ele>
        <time>2020-10-13T13:14:07Z</time>
      </trkpt>
      <trkpt lat="43.44066" lon="6.41485">
        <ele>145.1</ele>
        <time>2020-10-13T13:14:12Z</time>
      </trkpt>
      <trkpt lat="43.44063" lon="6.41491">
        <ele>144.7</ele>
        <time>2020-10-13T13:14:16Z</time>
      </trkpt>
      <trkpt lat="43.44061" lon="6.41498">
        <ele>144.4</ele>
        <time>2020-10-13T13:14:20Z</time>
      </trkpt>
      <trkpt lat="43.44058" lon="6.41503">
        <ele>144.3</ele>
        <time>2020-10-13T13:14:23Z</time>
      </trkpt>
      <trkpt lat="43.44056" lon="6.41508">
        <ele>144.1</ele>
        <time>2020-10-13T13:14:26Z</time>
      </trkpt>
      <trkpt lat="43.44053" lon="6.41515">
        <ele>143.9</ele>
        <time>2020-10-13T13:14:30Z</time>
      </trkpt>
      <trkpt lat="43.44049" lon="6.41519">
        <ele>143.5</ele>
        <time>2020-10-13T13:14:35Z</time>
      </trkpt>
      <trkpt lat="43.44046" lon="6.41525">
        <ele>142.8</ele>
        <time>2020-10-13T13:14:39Z</time>
      </trkpt>
      <trkpt lat="43.44042" lon="6.41528">
        <ele>142.3</ele>
        <time>2020-10-13T13:14:44Z</time>
      </trkpt>
      <trkpt lat="43.44036" lon="6.41527">
        <ele>141.8</ele>
        <time>2020-10-13T13:14:49Z</time>
      </trkpt>
      <trkpt lat="43.44031" lon="6.41528">
        <ele>141.5</ele>
        <time>2020-10-13T13:14:53Z</time>
      </trkpt>
      <trkpt lat="43.44026" lon="6.41526">
        <ele>141</ele>
        <time>2020-10-13T13:15:00Z</time>
      </trkpt>
      <trkpt lat="43.44021" lon="6.41524">
        <ele>140.8</ele>
        <time>2020-10-13T13:15:03Z</time>
      </trkpt>
      <trkpt lat="43.44016" lon="6.41521">
        <ele>140.7</ele>
        <time>2020-10-13T13:15:06Z</time>
      </trkpt>
      <trkpt lat="43.44012" lon="6.41518">
        <ele>140.5</ele>
        <time>2020-10-13T13:15:09Z</time>
      </trkpt>
      <trkpt lat="43.44007" lon="6.41513">
        <ele>140.3</ele>
        <time>2020-10-13T13:15:13Z</time>
      </trkpt>
      <trkpt lat="43.44002" lon="6.4151">
        <ele>140.2</ele>
        <time>2020-10-13T13:15:16Z</time>
      </trkpt>
      <trkpt lat="43.43998" lon="6.41506">
        <ele>140</ele>
        <time>2020-10-13T13:15:20Z</time>
      </trkpt>
      <trkpt lat="43.43993" lon="6.41503">
        <ele>139.8</ele>
        <time>2020-10-13T13:15:24Z</time>
      </trkpt>
      <trkpt lat="43.43989" lon="6.41501">
        <ele>139.6</ele>
        <time>2020-10-13T13:15:27Z</time>
      </trkpt>
      <trkpt lat="43.43985" lon="6.41497">
        <ele>139.4</ele>
        <time>2020-10-13T13:15:31Z</time>
      </trkpt>
      <trkpt lat="43.4398" lon="6.41495">
        <ele>138.9</ele>
        <time>2020-10-13T13:15:35Z</time>
      </trkpt>
      <trkpt lat="43.43976" lon="6.41492">
        <ele>138.5</ele>
        <time>2020-10-13T13:15:38Z</time>
      </trkpt>
      <trkpt lat="43.43971" lon="6.41488">
        <ele>138.1</ele>
        <time>2020-10-13T13:15:41Z</time>
      </trkpt>
      <trkpt lat="43.43966" lon="6.41485">
        <ele>137.8</ele>
        <time>2020-10-13T13:15:44Z</time>
      </trkpt>
      <trkpt lat="43.43962" lon="6.41482">
        <ele>137.4</ele>
        <time>2020-10-13T13:15:47Z</time>
      </trkpt>
      <trkpt lat="43.43957" lon="6.41478">
        <ele>136.8</ele>
        <time>2020-10-13T13:15:51Z</time>
      </trkpt>
      <trkpt lat="43.43954" lon="6.41474">
        <ele>136.5</ele>
        <time>2020-10-13T13:15:54Z</time>
      </trkpt>
      <trkpt lat="43.43949" lon="6.41469">
        <ele>136.3</ele>
        <time>2020-10-13T13:15:57Z</time>
      </trkpt>
      <trkpt lat="43.43945" lon="6.41465">
        <ele>136</ele>
        <time>2020-10-13T13:16:01Z</time>
      </trkpt>
      <trkpt lat="43.4394" lon="6.41462">
        <ele>135.8</ele>
        <time>2020-10-13T13:16:04Z</time>
      </trkpt>
      <trkpt lat="43.43935" lon="6.41461">
        <ele>135.4</ele>
        <time>2020-10-13T13:16:08Z</time>
      </trkpt>
      <trkpt lat="43.43931" lon="6.41457">
        <ele>135.1</ele>
        <time>2020-10-13T13:16:13Z</time>
      </trkpt>
      <trkpt lat="43.43927" lon="6.41455">
        <ele>135</ele>
        <time>2020-10-13T13:16:16Z</time>
      </trkpt>
      <trkpt lat="43.43921" lon="6.41453">
        <ele>134.9</ele>
        <time>2020-10-13T13:16:19Z</time>
      </trkpt>
      <trkpt lat="43.43915" lon="6.41453">
        <ele>134.8</ele>
        <time>2020-10-13T13:16:22Z</time>
      </trkpt>
      <trkpt lat="43.4391" lon="6.41455">
        <ele>134.6</ele>
        <time>2020-10-13T13:16:25Z</time>
      </trkpt>
      <trkpt lat="43.43904" lon="6.41458">
        <ele>134.4</ele>
        <time>2020-10-13T13:16:29Z</time>
      </trkpt>
      <trkpt lat="43.439" lon="6.4146">
        <ele>133.8</ele>
        <time>2020-10-13T13:16:32Z</time>
      </trkpt>
      <trkpt lat="43.43896" lon="6.41463">
        <ele>133.4</ele>
        <time>2020-10-13T13:16:35Z</time>
      </trkpt>
      <trkpt lat="43.43892" lon="6.41468">
        <ele>133</ele>
        <time>2020-10-13T13:16:38Z</time>
      </trkpt>
      <trkpt lat="43.43888" lon="6.41472">
        <ele>132.7</ele>
        <time>2020-10-13T13:16:41Z</time>
      </trkpt>
      <trkpt lat="43.43884" lon="6.41477">
        <ele>132.4</ele>
        <time>2020-10-13T13:16:45Z</time>
      </trkpt>
      <trkpt lat="43.43879" lon="6.41482">
        <ele>132.1</ele>
        <time>2020-10-13T13:16:49Z</time>
      </trkpt>
      <trkpt lat="43.43875" lon="6.41488">
        <ele>132</ele>
        <time>2020-10-13T13:16:52Z</time>
      </trkpt>
      <trkpt lat="43.43872" lon="6.41492">
        <ele>131.8</ele>
        <time>2020-10-13T13:16:55Z</time>
      </trkpt>
      <trkpt lat="43.43868" lon="6.41497">
        <ele>131.6</ele>
        <time>2020-10-13T13:16:58Z</time>
      </trkpt>
      <trkpt lat="43.43865" lon="6.41502">
        <ele>131.5</ele>
        <time>2020-10-13T13:17:01Z</time>
      </trkpt>
      <trkpt lat="43.4386" lon="6.41507">
        <ele>131.3</ele>
        <time>2020-10-13T13:17:04Z</time>
      </trkpt>
      <trkpt lat="43.43856" lon="6.4151">
        <ele>131</ele>
        <time>2020-10-13T13:17:07Z</time>
      </trkpt>
      <trkpt lat="43.43853" lon="6.41513">
        <ele>130.8</ele>
        <time>2020-10-13T13:17:10Z</time>
      </trkpt>
      <trkpt lat="43.43849" lon="6.41518">
        <ele>130.7</ele>
        <time>2020-10-13T13:17:14Z</time>
      </trkpt>
      <trkpt lat="43.43844" lon="6.41521">
        <ele>130.6</ele>
        <time>2020-10-13T13:17:18Z</time>
      </trkpt>
      <trkpt lat="43.43839" lon="6.41525">
        <ele>130.4</ele>
        <time>2020-10-13T13:17:22Z</time>
      </trkpt>
      <trkpt lat="43.43834" lon="6.41527">
        <ele>130.2</ele>
        <time>2020-10-13T13:17:28Z</time>
      </trkpt>
      <trkpt lat="43.4383" lon="6.41532">
        <ele>130.2</ele>
        <time>2020-10-13T13:17:32Z</time>
      </trkpt>
      <trkpt lat="43.43826" lon="6.41538">
        <ele>130.3</ele>
        <time>2020-10-13T13:17:36Z</time>
      </trkpt>
      <trkpt lat="43.43821" lon="6.41542">
        <ele>130</ele>
        <time>2020-10-13T13:17:40Z</time>
      </trkpt>
      <trkpt lat="43.43818" lon="6.41547">
        <ele>129.8</ele>
        <time>2020-10-13T13:17:43Z</time>
      </trkpt>
      <trkpt lat="43.43814" lon="6.41553">
        <ele>129.6</ele>
        <time>2020-10-13T13:17:46Z</time>
      </trkpt>
      <trkpt lat="43.4381" lon="6.41557">
        <ele>129.6</ele>
        <time>2020-10-13T13:17:49Z</time>
      </trkpt>
      <trkpt lat="43.43806" lon="6.41562">
        <ele>129.6</ele>
        <time>2020-10-13T13:17:53Z</time>
      </trkpt>
      <trkpt lat="43.43802" lon="6.41567">
        <ele>129.6</ele>
        <time>2020-10-13T13:17:57Z</time>
      </trkpt>
      <trkpt lat="43.438" lon="6.41573">
        <ele>129.6</ele>
        <time>2020-10-13T13:18:01Z</time>
      </trkpt>
      <trkpt lat="43.43797" lon="6.41579">
        <ele>129.6</ele>
        <time>2020-10-13T13:18:04Z</time>
      </trkpt>
      <trkpt lat="43.43794" lon="6.41584">
        <ele>129.5</ele>
        <time>2020-10-13T13:18:07Z</time>
      </trkpt>
      <trkpt lat="43.43792" lon="6.41591">
        <ele>129.5</ele>
        <time>2020-10-13T13:18:11Z</time>
      </trkpt>
      <trkpt lat="43.43792" lon="6.41599">
        <ele>129.4</ele>
        <time>2020-10-13T13:18:15Z</time>
      </trkpt>
      <trkpt lat="43.4379" lon="6.41605">
        <ele>129.4</ele>
        <time>2020-10-13T13:18:19Z</time>
      </trkpt>
      <trkpt lat="43.43787" lon="6.41612">
        <ele>129.3</ele>
        <time>2020-10-13T13:18:22Z</time>
      </trkpt>
      <trkpt lat="43.43786" lon="6.41619">
        <ele>129.1</ele>
        <time>2020-10-13T13:18:25Z</time>
      </trkpt>
      <trkpt lat="43.43785" lon="6.41625">
        <ele>128.9</ele>
        <time>2020-10-13T13:18:28Z</time>
      </trkpt>
      <trkpt lat="43.43784" lon="6.41634">
        <ele>128.6</ele>
        <time>2020-10-13T13:18:32Z</time>
      </trkpt>
      <trkpt lat="43.43783" lon="6.4164">
        <ele>128.4</ele>
        <time>2020-10-13T13:18:35Z</time>
      </trkpt>
      <trkpt lat="43.4378" lon="6.41646">
        <ele>128.1</ele>
        <time>2020-10-13T13:18:39Z</time>
      </trkpt>
      <trkpt lat="43.43777" lon="6.41652">
        <ele>127.7</ele>
        <time>2020-10-13T13:18:43Z</time>
      </trkpt>
      <trkpt lat="43.43775" lon="6.41658">
        <ele>127.3</ele>
        <time>2020-10-13T13:18:46Z</time>
      </trkpt>
      <trkpt lat="43.43772" lon="6.41664">
        <ele>126.8</ele>
        <time>2020-10-13T13:18:50Z</time>
      </trkpt>
      <trkpt lat="43.43769" lon="6.4167">
        <ele>126.2</ele>
        <time>2020-10-13T13:18:58Z</time>
      </trkpt>
      <trkpt lat="43.43765" lon="6.41673">
        <ele>126.1</ele>
        <time>2020-10-13T13:19:01Z</time>
      </trkpt>
      <trkpt lat="43.4376" lon="6.41676">
        <ele>126</ele>
        <time>2020-10-13T13:19:05Z</time>
      </trkpt>
      <trkpt lat="43.43755" lon="6.41677">
        <ele>125.8</ele>
        <time>2020-10-13T13:19:11Z</time>
      </trkpt>
      <trkpt lat="43.43751" lon="6.4168">
        <ele>125.8</ele>
        <time>2020-10-13T13:19:14Z</time>
      </trkpt>
      <trkpt lat="43.43747" lon="6.41683">
        <ele>125.7</ele>
        <time>2020-10-13T13:19:17Z</time>
      </trkpt>
      <trkpt lat="43.43742" lon="6.41687">
        <ele>125.5</ele>
        <time>2020-10-13T13:19:20Z</time>
      </trkpt>
      <trkpt lat="43.43737" lon="6.4169">
        <ele>125</ele>
        <time>2020-10-13T13:19:24Z</time>
      </trkpt>
      <trkpt lat="43.43733" lon="6.41695">
        <ele>124.6</ele>
        <time>2020-10-13T13:19:28Z</time>
      </trkpt>
      <trkpt lat="43.43729" lon="6.41701">
        <ele>124.2</ele>
        <time>2020-10-13T13:19:31Z</time>
      </trkpt>
      <trkpt lat="43.43726" lon="6.41707">
        <ele>123.8</ele>
        <time>2020-10-13T13:19:35Z</time>
      </trkpt>
      <trkpt lat="43.43721" lon="6.4171">
        <ele>123.4</ele>
        <time>2020-10-13T13:19:39Z</time>
      </trkpt>
      <trkpt lat="43.43717" lon="6.41715">
        <ele>123</ele>
        <time>2020-10-13T13:19:43Z</time>
      </trkpt>
      <trkpt lat="43.43712" lon="6.41719">
        <ele>122.6</ele>
        <time>2020-10-13T13:19:47Z</time>
      </trkpt>
      <trkpt lat="43.43708" lon="6.41725">
        <ele>122.3</ele>
        <time>2020-10-13T13:19:51Z</time>
      </trkpt>
      <trkpt lat="43.43705" lon="6.4173">
        <ele>121.7</ele>
        <time>2020-10-13T13:19:54Z</time>
      </trkpt>
      <trkpt lat="43.43701" lon="6.41736">
        <ele>121.2</ele>
        <time>2020-10-13T13:19:58Z</time>
      </trkpt>
      <trkpt lat="43.43696" lon="6.41739">
        <ele>120.9</ele>
        <time>2020-10-13T13:20:01Z</time>
      </trkpt>
      <trkpt lat="43.43693" lon="6.41745">
        <ele>120.6</ele>
        <time>2020-10-13T13:20:04Z</time>
      </trkpt>
      <trkpt lat="43.43689" lon="6.41749">
        <ele>120.3</ele>
        <time>2020-10-13T13:20:07Z</time>
      </trkpt>
      <trkpt lat="43.43686" lon="6.41753">
        <ele>120.1</ele>
        <time>2020-10-13T13:20:10Z</time>
      </trkpt>
      <trkpt lat="43.43683" lon="6.41759">
        <ele>119.7</ele>
        <time>2020-10-13T13:20:13Z</time>
      </trkpt>
      <trkpt lat="43.4368" lon="6.41763">
        <ele>119.4</ele>
        <time>2020-10-13T13:20:16Z</time>
      </trkpt>
      <trkpt lat="43.43676" lon="6.41768">
        <ele>119.2</ele>
        <time>2020-10-13T13:20:19Z</time>
      </trkpt>
      <trkpt lat="43.43674" lon="6.41775">
        <ele>118.8</ele>
        <time>2020-10-13T13:20:23Z</time>
      </trkpt>
      <trkpt lat="43.43669" lon="6.41781">
        <ele>118.6</ele>
        <time>2020-10-13T13:20:27Z</time>
      </trkpt>
      <trkpt lat="43.43667" lon="6.41789">
        <ele>118.5</ele>
        <time>2020-10-13T13:20:30Z</time>
      </trkpt>
      <trkpt lat="43.43664" lon="6.41796">
        <ele>118.1</ele>
        <time>2020-10-13T13:20:33Z</time>
      </trkpt>
      <trkpt lat="43.4366" lon="6.41799">
        <ele>117.7</ele>
        <time>2020-10-13T13:20:36Z</time>
      </trkpt>
      <trkpt lat="43.43656" lon="6.41804">
        <ele>117.4</ele>
        <time>2020-10-13T13:20:39Z</time>
      </trkpt>
      <trkpt lat="43.43653" lon="6.4181">
        <ele>117</ele>
        <time>2020-10-13T13:20:42Z</time>
      </trkpt>
      <trkpt lat="43.4365" lon="6.41816">
        <ele>116.6</ele>
        <time>2020-10-13T13:20:45Z</time>
      </trkpt>
      <trkpt lat="43.43649" lon="6.41824">
        <ele>116.1</ele>
        <time>2020-10-13T13:20:49Z</time>
      </trkpt>
      <trkpt lat="43.43647" lon="6.4183">
        <ele>115.8</ele>
        <time>2020-10-13T13:20:52Z</time>
      </trkpt>
      <trkpt lat="43.43643" lon="6.41836">
        <ele>115.5</ele>
        <time>2020-10-13T13:20:56Z</time>
      </trkpt>
      <trkpt lat="43.43641" lon="6.41842">
        <ele>115.1</ele>
        <time>2020-10-13T13:20:59Z</time>
      </trkpt>
      <trkpt lat="43.43639" lon="6.41849">
        <ele>114.5</ele>
        <time>2020-10-13T13:21:03Z</time>
      </trkpt>
      <trkpt lat="43.43636" lon="6.41856">
        <ele>114.1</ele>
        <time>2020-10-13T13:21:07Z</time>
      </trkpt>
      <trkpt lat="43.43634" lon="6.41863">
        <ele>113.9</ele>
        <time>2020-10-13T13:21:11Z</time>
      </trkpt>
      <trkpt lat="43.43631" lon="6.41868">
        <ele>113.6</ele>
        <time>2020-10-13T13:21:17Z</time>
      </trkpt>
      <trkpt lat="43.43627" lon="6.41869">
        <ele>113.3</ele>
        <time>2020-10-13T13:21:24Z</time>
      </trkpt>
      <trkpt lat="43.43629" lon="6.41874">
        <ele>112.9</ele>
        <time>2020-10-13T13:21:33Z</time>
      </trkpt>
      <trkpt lat="43.43634" lon="6.41875">
        <ele>112.7</ele>
        <time>2020-10-13T13:22:13Z</time>
      </trkpt>
      <trkpt lat="43.43638" lon="6.41875">
        <ele>113</ele>
        <time>2020-10-13T13:22:44Z</time>
      </trkpt>
      <trkpt lat="43.43636" lon="6.41881">
        <ele>113.5</ele>
        <time>2020-10-13T13:24:07Z</time>
      </trkpt>
      <trkpt lat="43.43638" lon="6.41875">
        <ele>113.3</ele>
        <time>2020-10-13T13:24:57Z</time>
      </trkpt>
      <trkpt lat="43.43636" lon="6.41881">
        <ele>112.4</ele>
        <time>2020-10-13T13:25:43Z</time>
      </trkpt>
      <trkpt lat="43.4364" lon="6.41881">
        <ele>113.1</ele>
        <time>2020-10-13T13:26:36Z</time>
      </trkpt>
      <trkpt lat="43.43635" lon="6.41882">
        <ele>113.3</ele>
        <time>2020-10-13T13:27:11Z</time>
      </trkpt>
      <trkpt lat="43.43636" lon="6.41876">
        <ele>112.5</ele>
        <time>2020-10-13T13:28:14Z</time>
      </trkpt>
      <trkpt lat="43.43637" lon="6.41882">
        <ele>112.4</ele>
        <time>2020-10-13T13:28:43Z</time>
      </trkpt>
      <trkpt lat="43.43639" lon="6.41888">
        <ele>112.7</ele>
        <time>2020-10-13T13:28:54Z</time>
      </trkpt>
      <trkpt lat="43.43639" lon="6.41882">
        <ele>112.4</ele>
        <time>2020-10-13T13:29:01Z</time>
      </trkpt>
      <trkpt lat="43.43634" lon="6.4188">
        <ele>112.7</ele>
        <time>2020-10-13T13:29:37Z</time>
      </trkpt>
      <trkpt lat="43.43629" lon="6.41879">
        <ele>112.4</ele>
        <time>2020-10-13T13:29:46Z</time>
      </trkpt>
      <trkpt lat="43.43624" lon="6.4188">
        <ele>112</ele>
        <time>2020-10-13T13:29:50Z</time>
      </trkpt>
      <trkpt lat="43.43618" lon="6.4188">
        <ele>111.8</ele>
        <time>2020-10-13T13:29:53Z</time>
      </trkpt>
      <trkpt lat="43.43612" lon="6.41881">
        <ele>111.7</ele>
        <time>2020-10-13T13:29:57Z</time>
      </trkpt>
      <trkpt lat="43.43608" lon="6.41882">
        <ele>111.3</ele>
        <time>2020-10-13T13:30:01Z</time>
      </trkpt>
      <trkpt lat="43.43603" lon="6.41883">
        <ele>110.7</ele>
        <time>2020-10-13T13:30:05Z</time>
      </trkpt>
      <trkpt lat="43.43597" lon="6.41884">
        <ele>110.1</ele>
        <time>2020-10-13T13:30:09Z</time>
      </trkpt>
      <trkpt lat="43.43591" lon="6.41886">
        <ele>109.4</ele>
        <time>2020-10-13T13:30:13Z</time>
      </trkpt>
      <trkpt lat="43.43587" lon="6.41889">
        <ele>108.6</ele>
        <time>2020-10-13T13:30:17Z</time>
      </trkpt>
      <trkpt lat="43.43581" lon="6.4189">
        <ele>107.9</ele>
        <time>2020-10-13T13:30:21Z</time>
      </trkpt>
      <trkpt lat="43.43576" lon="6.41892">
        <ele>107.6</ele>
        <time>2020-10-13T13:30:24Z</time>
      </trkpt>
      <trkpt lat="43.4357" lon="6.41891">
        <ele>107.2</ele>
        <time>2020-10-13T13:30:28Z</time>
      </trkpt>
      <trkpt lat="43.43567" lon="6.41886">
        <ele>106.5</ele>
        <time>2020-10-13T13:30:36Z</time>
      </trkpt>
      <trkpt lat="43.43569" lon="6.41879">
        <ele>105.1</ele>
        <time>2020-10-13T13:30:43Z</time>
      </trkpt>
      <trkpt lat="43.4357" lon="6.41873">
        <ele>104.4</ele>
        <time>2020-10-13T13:30:48Z</time>
      </trkpt>
      <trkpt lat="43.4357" lon="6.41867">
        <ele>103.8</ele>
        <time>2020-10-13T13:30:53Z</time>
      </trkpt>
      <trkpt lat="43.4357" lon="6.4186">
        <ele>103.2</ele>
        <time>2020-10-13T13:30:58Z</time>
      </trkpt>
      <trkpt lat="43.43571" lon="6.41852">
        <ele>102.4</ele>
        <time>2020-10-13T13:31:02Z</time>
      </trkpt>
      <trkpt lat="43.43571" lon="6.41845">
        <ele>101.9</ele>
        <time>2020-10-13T13:31:05Z</time>
      </trkpt>
      <trkpt lat="43.43571" lon="6.41839">
        <ele>101.3</ele>
        <time>2020-10-13T13:31:09Z</time>
      </trkpt>
      <trkpt lat="43.43572" lon="6.41832">
        <ele>100.8</ele>
        <time>2020-10-13T13:31:12Z</time>
      </trkpt>
      <trkpt lat="43.43572" lon="6.41825">
        <ele>100.4</ele>
        <time>2020-10-13T13:31:16Z</time>
      </trkpt>
      <trkpt lat="43.43573" lon="6.41819">
        <ele>100</ele>
        <time>2020-10-13T13:31:19Z</time>
      </trkpt>
      <trkpt lat="43.43574" lon="6.41813">
        <ele>99.7</ele>
        <time>2020-10-13T13:31:22Z</time>
      </trkpt>
      <trkpt lat="43.43574" lon="6.41807">
        <ele>99.3</ele>
        <time>2020-10-13T13:31:25Z</time>
      </trkpt>
      <trkpt lat="43.43573" lon="6.41799">
        <ele>98.7</ele>
        <time>2020-10-13T13:31:30Z</time>
      </trkpt>
      <trkpt lat="43.43573" lon="6.41792">
        <ele>98.3</ele>
        <time>2020-10-13T13:31:35Z</time>
      </trkpt>
      <trkpt lat="43.43573" lon="6.41785">
        <ele>98</ele>
        <time>2020-10-13T13:31:38Z</time>
      </trkpt>
      <trkpt lat="43.43572" lon="6.41777">
        <ele>97.6</ele>
        <time>2020-10-13T13:31:42Z</time>
      </trkpt>
      <trkpt lat="43.43573" lon="6.41771">
        <ele>97.4</ele>
        <time>2020-10-13T13:31:45Z</time>
      </trkpt>
      <trkpt lat="43.43573" lon="6.41764">
        <ele>97</ele>
        <time>2020-10-13T13:31:49Z</time>
      </trkpt>
      <trkpt lat="43.43573" lon="6.41757">
        <ele>96.7</ele>
        <time>2020-10-13T13:31:52Z</time>
      </trkpt>
      <trkpt lat="43.43573" lon="6.4175">
        <ele>96.4</ele>
        <time>2020-10-13T13:31:56Z</time>
      </trkpt>
      <trkpt lat="43.43573" lon="6.41742">
        <ele>96.2</ele>
        <time>2020-10-13T13:32:00Z</time>
      </trkpt>
      <trkpt lat="43.43573" lon="6.41735">
        <ele>96</ele>
        <time>2020-10-13T13:32:04Z</time>
      </trkpt>
      <trkpt lat="43.43573" lon="6.41729">
        <ele>95.7</ele>
        <time>2020-10-13T13:32:07Z</time>
      </trkpt>
      <trkpt lat="43.43573" lon="6.41721">
        <ele>95.2</ele>
        <time>2020-10-13T13:32:11Z</time>
      </trkpt>
      <trkpt lat="43.43574" lon="6.41714">
        <ele>94.8</ele>
        <time>2020-10-13T13:32:14Z</time>
      </trkpt>
      <trkpt lat="43.43574" lon="6.41707">
        <ele>94.4</ele>
        <time>2020-10-13T13:32:17Z</time>
      </trkpt>
      <trkpt lat="43.43574" lon="6.41699">
        <ele>94.1</ele>
        <time>2020-10-13T13:32:21Z</time>
      </trkpt>
      <trkpt lat="43.43574" lon="6.41692">
        <ele>93.8</ele>
        <time>2020-10-13T13:32:24Z</time>
      </trkpt>
      <trkpt lat="43.43574" lon="6.41684">
        <ele>93.2</ele>
        <time>2020-10-13T13:32:28Z</time>
      </trkpt>
      <trkpt lat="43.43573" lon="6.41678">
        <ele>92.9</ele>
        <time>2020-10-13T13:32:32Z</time>
      </trkpt>
      <trkpt lat="43.43572" lon="6.41672">
        <ele>92.8</ele>
        <time>2020-10-13T13:32:36Z</time>
      </trkpt>
      <trkpt lat="43.43571" lon="6.41665">
        <ele>92.6</ele>
        <time>2020-10-13T13:32:40Z</time>
      </trkpt>
      <trkpt lat="43.4357" lon="6.41658">
        <ele>92.4</ele>
        <time>2020-10-13T13:32:43Z</time>
      </trkpt>
      <trkpt lat="43.43569" lon="6.41651">
        <ele>92</ele>
        <time>2020-10-13T13:32:47Z</time>
      </trkpt>
      <trkpt lat="43.43567" lon="6.41644">
        <ele>91.4</ele>
        <time>2020-10-13T13:32:51Z</time>
      </trkpt>
      <trkpt lat="43.43565" lon="6.41638">
        <ele>91.1</ele>
        <time>2020-10-13T13:32:54Z</time>
      </trkpt>
      <trkpt lat="43.43564" lon="6.41631">
        <ele>90.6</ele>
        <time>2020-10-13T13:32:58Z</time>
      </trkpt>
      <trkpt lat="43.43563" lon="6.41623">
        <ele>89.9</ele>
        <time>2020-10-13T13:33:02Z</time>
      </trkpt>
      <trkpt lat="43.43561" lon="6.41617">
        <ele>89.5</ele>
        <time>2020-10-13T13:33:05Z</time>
      </trkpt>
      <trkpt lat="43.4356" lon="6.4161">
        <ele>89.3</ele>
        <time>2020-10-13T13:33:09Z</time>
      </trkpt>
      <trkpt lat="43.43558" lon="6.41605">
        <ele>89</ele>
        <time>2020-10-13T13:33:12Z</time>
      </trkpt>
      <trkpt lat="43.43555" lon="6.41597">
        <ele>88.7</ele>
        <time>2020-10-13T13:33:16Z</time>
      </trkpt>
      <trkpt lat="43.43553" lon="6.41591">
        <ele>88.3</ele>
        <time>2020-10-13T13:33:20Z</time>
      </trkpt>
      <trkpt lat="43.4355" lon="6.41584">
        <ele>88.1</ele>
        <time>2020-10-13T13:33:24Z</time>
      </trkpt>
      <trkpt lat="43.43546" lon="6.41579">
        <ele>87.8</ele>
        <time>2020-10-13T13:33:28Z</time>
      </trkpt>
      <trkpt lat="43.43544" lon="6.41571">
        <ele>87.6</ele>
        <time>2020-10-13T13:33:32Z</time>
      </trkpt>
      <trkpt lat="43.43542" lon="6.41564">
        <ele>87.5</ele>
        <time>2020-10-13T13:33:36Z</time>
      </trkpt>
      <trkpt lat="43.4354" lon="6.41557">
        <ele>87.2</ele>
        <time>2020-10-13T13:33:40Z</time>
      </trkpt>
      <trkpt lat="43.43538" lon="6.4155">
        <ele>87</ele>
        <time>2020-10-13T13:33:43Z</time>
      </trkpt>
      <trkpt lat="43.43537" lon="6.41543">
        <ele>86.9</ele>
        <time>2020-10-13T13:33:46Z</time>
      </trkpt>
      <trkpt lat="43.43535" lon="6.41537">
        <ele>86.9</ele>
        <time>2020-10-13T13:33:49Z</time>
      </trkpt>
      <trkpt lat="43.43534" lon="6.4153">
        <ele>86.7</ele>
        <time>2020-10-13T13:33:52Z</time>
      </trkpt>
      <trkpt lat="43.43534" lon="6.41522">
        <ele>86.3</ele>
        <time>2020-10-13T13:33:56Z</time>
      </trkpt>
      <trkpt lat="43.43532" lon="6.41515">
        <ele>86.1</ele>
        <time>2020-10-13T13:34:00Z</time>
      </trkpt>
      <trkpt lat="43.43531" lon="6.41508">
        <ele>85.8</ele>
        <time>2020-10-13T13:34:04Z</time>
      </trkpt>
      <trkpt lat="43.43534" lon="6.41503">
        <ele>85.6</ele>
        <time>2020-10-13T13:34:10Z</time>
      </trkpt>
      <trkpt lat="43.43537" lon="6.41498">
        <ele>85.5</ele>
        <time>2020-10-13T13:34:14Z</time>
      </trkpt>
      <trkpt lat="43.4354" lon="6.41493">
        <ele>85.5</ele>
        <time>2020-10-13T13:34:18Z</time>
      </trkpt>
      <trkpt lat="43.43545" lon="6.41489">
        <ele>85.5</ele>
        <time>2020-10-13T13:34:22Z</time>
      </trkpt>
      <trkpt lat="43.43549" lon="6.41484">
        <ele>85.5</ele>
        <time>2020-10-13T13:34:26Z</time>
      </trkpt>
      <trkpt lat="43.43554" lon="6.41481">
        <ele>85.5</ele>
        <time>2020-10-13T13:34:30Z</time>
      </trkpt>
      <trkpt lat="43.43558" lon="6.41477">
        <ele>85.5</ele>
        <time>2020-10-13T13:34:33Z</time>
      </trkpt>
      <trkpt lat="43.43561" lon="6.41472">
        <ele>85.5</ele>
        <time>2020-10-13T13:34:36Z</time>
      </trkpt>
      <trkpt lat="43.43565" lon="6.41468">
        <ele>85.7</ele>
        <time>2020-10-13T13:34:41Z</time>
      </trkpt>
      <trkpt lat="43.43568" lon="6.41461">
        <ele>85.9</ele>
        <time>2020-10-13T13:34:46Z</time>
      </trkpt>
      <trkpt lat="43.43572" lon="6.41456">
        <ele>86.1</ele>
        <time>2020-10-13T13:34:50Z</time>
      </trkpt>
      <trkpt lat="43.43575" lon="6.41451">
        <ele>86.3</ele>
        <time>2020-10-13T13:34:53Z</time>
      </trkpt>
      <trkpt lat="43.43577" lon="6.41446">
        <ele>86.5</ele>
        <time>2020-10-13T13:35:02Z</time>
      </trkpt>
      <trkpt lat="43.43582" lon="6.41441">
        <ele>86.8</ele>
        <time>2020-10-13T13:35:10Z</time>
      </trkpt>
      <trkpt lat="43.43586" lon="6.41438">
        <ele>87.1</ele>
        <time>2020-10-13T13:35:14Z</time>
      </trkpt>
      <trkpt lat="43.43589" lon="6.41434">
        <ele>87.5</ele>
        <time>2020-10-13T13:35:17Z</time>
      </trkpt>
      <trkpt lat="43.43594" lon="6.4143">
        <ele>87.7</ele>
        <time>2020-10-13T13:35:21Z</time>
      </trkpt>
      <trkpt lat="43.43599" lon="6.41426">
        <ele>87.9</ele>
        <time>2020-10-13T13:35:26Z</time>
      </trkpt>
      <trkpt lat="43.43603" lon="6.41423">
        <ele>88.4</ele>
        <time>2020-10-13T13:35:32Z</time>
      </trkpt>
      <trkpt lat="43.43608" lon="6.41419">
        <ele>88.6</ele>
        <time>2020-10-13T13:35:36Z</time>
      </trkpt>
      <trkpt lat="43.43612" lon="6.41416">
        <ele>89.1</ele>
        <time>2020-10-13T13:35:40Z</time>
      </trkpt>
      <trkpt lat="43.43616" lon="6.41412">
        <ele>89.4</ele>
        <time>2020-10-13T13:35:44Z</time>
      </trkpt>
      <trkpt lat="43.43621" lon="6.41409">
        <ele>89.8</ele>
        <time>2020-10-13T13:35:48Z</time>
      </trkpt>
      <trkpt lat="43.43625" lon="6.41406">
        <ele>89.9</ele>
        <time>2020-10-13T13:35:51Z</time>
      </trkpt>
      <trkpt lat="43.4363" lon="6.41403">
        <ele>90.1</ele>
        <time>2020-10-13T13:35:54Z</time>
      </trkpt>
      <trkpt lat="43.43634" lon="6.41399">
        <ele>90.1</ele>
        <time>2020-10-13T13:35:59Z</time>
      </trkpt>
      <trkpt lat="43.43638" lon="6.41397">
        <ele>90.2</ele>
        <time>2020-10-13T13:36:02Z</time>
      </trkpt>
      <trkpt lat="43.43642" lon="6.41394">
        <ele>90.5</ele>
        <time>2020-10-13T13:36:07Z</time>
      </trkpt>
      <trkpt lat="43.43646" lon="6.4139">
        <ele>90.4</ele>
        <time>2020-10-13T13:36:15Z</time>
      </trkpt>
      <trkpt lat="43.43647" lon="6.41382">
        <ele>90.3</ele>
        <time>2020-10-13T13:36:22Z</time>
      </trkpt>
      <trkpt lat="43.43647" lon="6.41375">
        <ele>89.9</ele>
        <time>2020-10-13T13:36:26Z</time>
      </trkpt>
      <trkpt lat="43.43646" lon="6.41368">
        <ele>89.6</ele>
        <time>2020-10-13T13:36:30Z</time>
      </trkpt>
      <trkpt lat="43.43645" lon="6.4136">
        <ele>89.4</ele>
        <time>2020-10-13T13:36:34Z</time>
      </trkpt>
      <trkpt lat="43.43644" lon="6.41352">
        <ele>89.2</ele>
        <time>2020-10-13T13:36:37Z</time>
      </trkpt>
      <trkpt lat="43.43643" lon="6.41345">
        <ele>89.2</ele>
        <time>2020-10-13T13:36:40Z</time>
      </trkpt>
      <trkpt lat="43.43641" lon="6.41338">
        <ele>89.2</ele>
        <time>2020-10-13T13:36:44Z</time>
      </trkpt>
      <trkpt lat="43.43641" lon="6.41331">
        <ele>89.2</ele>
        <time>2020-10-13T13:36:47Z</time>
      </trkpt>
      <trkpt lat="43.43642" lon="6.41322">
        <ele>89.3</ele>
        <time>2020-10-13T13:36:50Z</time>
      </trkpt>
      <trkpt lat="43.43642" lon="6.41314">
        <ele>89.5</ele>
        <time>2020-10-13T13:36:54Z</time>
      </trkpt>
      <trkpt lat="43.43642" lon="6.41307">
        <ele>89.8</ele>
        <time>2020-10-13T13:36:59Z</time>
      </trkpt>
      <trkpt lat="43.43642" lon="6.413">
        <ele>90</ele>
        <time>2020-10-13T13:37:02Z</time>
      </trkpt>
      <trkpt lat="43.43642" lon="6.41294">
        <ele>90.3</ele>
        <time>2020-10-13T13:37:06Z</time>
      </trkpt>
      <trkpt lat="43.43641" lon="6.41287">
        <ele>90.6</ele>
        <time>2020-10-13T13:37:11Z</time>
      </trkpt>
      <trkpt lat="43.43644" lon="6.4128">
        <ele>90.8</ele>
        <time>2020-10-13T13:37:16Z</time>
      </trkpt>
      <trkpt lat="43.43645" lon="6.41274">
        <ele>90.9</ele>
        <time>2020-10-13T13:37:19Z</time>
      </trkpt>
      <trkpt lat="43.43645" lon="6.41267">
        <ele>91</ele>
        <time>2020-10-13T13:37:22Z</time>
      </trkpt>
      <trkpt lat="43.43646" lon="6.41258">
        <ele>91.2</ele>
        <time>2020-10-13T13:37:25Z</time>
      </trkpt>
      <trkpt lat="43.43646" lon="6.41252">
        <ele>91.3</ele>
        <time>2020-10-13T13:37:28Z</time>
      </trkpt>
      <trkpt lat="43.43647" lon="6.41245">
        <ele>91.8</ele>
        <time>2020-10-13T13:37:32Z</time>
      </trkpt>
      <trkpt lat="43.43648" lon="6.41239">
        <ele>92.1</ele>
        <time>2020-10-13T13:37:35Z</time>
      </trkpt>
      <trkpt lat="43.43648" lon="6.41231">
        <ele>92.4</ele>
        <time>2020-10-13T13:37:39Z</time>
      </trkpt>
      <trkpt lat="43.43648" lon="6.41224">
        <ele>92.6</ele>
        <time>2020-10-13T13:37:43Z</time>
      </trkpt>
      <trkpt lat="43.43649" lon="6.41218">
        <ele>92.8</ele>
        <time>2020-10-13T13:37:46Z</time>
      </trkpt>
      <trkpt lat="43.43649" lon="6.41211">
        <ele>93.3</ele>
        <time>2020-10-13T13:37:51Z</time>
      </trkpt>
      <trkpt lat="43.43649" lon="6.41203">
        <ele>93.6</ele>
        <time>2020-10-13T13:37:55Z</time>
      </trkpt>
      <trkpt lat="43.43649" lon="6.41197">
        <ele>93.8</ele>
        <time>2020-10-13T13:37:59Z</time>
      </trkpt>
      <trkpt lat="43.43649" lon="6.41191">
        <ele>94.2</ele>
        <time>2020-10-13T13:38:03Z</time>
      </trkpt>
      <trkpt lat="43.43649" lon="6.41184">
        <ele>94.6</ele>
        <time>2020-10-13T13:38:07Z</time>
      </trkpt>
      <trkpt lat="43.43651" lon="6.41176">
        <ele>94.9</ele>
        <time>2020-10-13T13:38:10Z</time>
      </trkpt>
      <trkpt lat="43.43653" lon="6.4117">
        <ele>95</ele>
        <time>2020-10-13T13:38:13Z</time>
      </trkpt>
      <trkpt lat="43.43654" lon="6.41163">
        <ele>95.1</ele>
        <time>2020-10-13T13:38:17Z</time>
      </trkpt>
      <trkpt lat="43.43654" lon="6.41157">
        <ele>95.2</ele>
        <time>2020-10-13T13:38:20Z</time>
      </trkpt>
      <trkpt lat="43.43655" lon="6.41151">
        <ele>95.1</ele>
        <time>2020-10-13T13:38:23Z</time>
      </trkpt>
      <trkpt lat="43.43654" lon="6.41144">
        <ele>95.1</ele>
        <time>2020-10-13T13:38:27Z</time>
      </trkpt>
      <trkpt lat="43.43655" lon="6.41137">
        <ele>95</ele>
        <time>2020-10-13T13:38:30Z</time>
      </trkpt>
      <trkpt lat="43.43655" lon="6.41131">
        <ele>95.3</ele>
        <time>2020-10-13T13:38:34Z</time>
      </trkpt>
      <trkpt lat="43.43656" lon="6.41125">
        <ele>95.4</ele>
        <time>2020-10-13T13:38:37Z</time>
      </trkpt>
      <trkpt lat="43.43658" lon="6.41119">
        <ele>95.4</ele>
        <time>2020-10-13T13:38:39Z</time>
      </trkpt>
      <trkpt lat="43.43658" lon="6.41112">
        <ele>95.3</ele>
        <time>2020-10-13T13:38:43Z</time>
      </trkpt>
      <trkpt lat="43.43659" lon="6.41106">
        <ele>95.2</ele>
        <time>2020-10-13T13:38:46Z</time>
      </trkpt>
      <trkpt lat="43.43659" lon="6.41098">
        <ele>95</ele>
        <time>2020-10-13T13:38:50Z</time>
      </trkpt>
      <trkpt lat="43.43658" lon="6.4109">
        <ele>95</ele>
        <time>2020-10-13T13:38:56Z</time>
      </trkpt>
      <trkpt lat="43.4366" lon="6.41081">
        <ele>94.9</ele>
        <time>2020-10-13T13:38:59Z</time>
      </trkpt>
      <trkpt lat="43.43661" lon="6.41074">
        <ele>94.8</ele>
        <time>2020-10-13T13:39:01Z</time>
      </trkpt>
      <trkpt lat="43.43663" lon="6.41067">
        <ele>94.8</ele>
        <time>2020-10-13T13:39:04Z</time>
      </trkpt>
      <trkpt lat="43.43664" lon="6.4106">
        <ele>94.7</ele>
        <time>2020-10-13T13:39:08Z</time>
      </trkpt>
      <trkpt lat="43.43665" lon="6.41053">
        <ele>94.7</ele>
        <time>2020-10-13T13:39:11Z</time>
      </trkpt>
      <trkpt lat="43.43666" lon="6.41045">
        <ele>94.5</ele>
        <time>2020-10-13T13:39:15Z</time>
      </trkpt>
      <trkpt lat="43.43668" lon="6.41039">
        <ele>94.1</ele>
        <time>2020-10-13T13:39:18Z</time>
      </trkpt>
      <trkpt lat="43.43669" lon="6.41032">
        <ele>93.7</ele>
        <time>2020-10-13T13:39:21Z</time>
      </trkpt>
      <trkpt lat="43.4367" lon="6.41025">
        <ele>93.4</ele>
        <time>2020-10-13T13:39:24Z</time>
      </trkpt>
      <trkpt lat="43.43671" lon="6.41018">
        <ele>93</ele>
        <time>2020-10-13T13:39:28Z</time>
      </trkpt>
      <trkpt lat="43.43672" lon="6.41011">
        <ele>92.8</ele>
        <time>2020-10-13T13:39:31Z</time>
      </trkpt>
      <trkpt lat="43.43673" lon="6.41005">
        <ele>92.6</ele>
        <time>2020-10-13T13:39:33Z</time>
      </trkpt>
      <trkpt lat="43.43672" lon="6.40998">
        <ele>92</ele>
        <time>2020-10-13T13:39:38Z</time>
      </trkpt>
      <trkpt lat="43.43673" lon="6.40989">
        <ele>91.4</ele>
        <time>2020-10-13T13:39:43Z</time>
      </trkpt>
      <trkpt lat="43.43675" lon="6.40981">
        <ele>90.7</ele>
        <time>2020-10-13T13:39:47Z</time>
      </trkpt>
      <trkpt lat="43.43676" lon="6.40974">
        <ele>90.3</ele>
        <time>2020-10-13T13:39:50Z</time>
      </trkpt>
      <trkpt lat="43.43677" lon="6.40967">
        <ele>89.6</ele>
        <time>2020-10-13T13:39:54Z</time>
      </trkpt>
      <trkpt lat="43.4368" lon="6.4096">
        <ele>89.3</ele>
        <time>2020-10-13T13:39:57Z</time>
      </trkpt>
      <trkpt lat="43.43682" lon="6.40952">
        <ele>88.8</ele>
        <time>2020-10-13T13:40:00Z</time>
      </trkpt>
      <trkpt lat="43.43684" lon="6.40944">
        <ele>88.3</ele>
        <time>2020-10-13T13:40:03Z</time>
      </trkpt>
      <trkpt lat="43.43685" lon="6.40937">
        <ele>88.1</ele>
        <time>2020-10-13T13:40:06Z</time>
      </trkpt>
      <trkpt lat="43.43685" lon="6.4093">
        <ele>87.4</ele>
        <time>2020-10-13T13:40:10Z</time>
      </trkpt>
      <trkpt lat="43.43686" lon="6.40923">
        <ele>86.8</ele>
        <time>2020-10-13T13:40:14Z</time>
      </trkpt>
      <trkpt lat="43.43687" lon="6.40915">
        <ele>86.2</ele>
        <time>2020-10-13T13:40:18Z</time>
      </trkpt>
      <trkpt lat="43.43686" lon="6.40908">
        <ele>85.7</ele>
        <time>2020-10-13T13:40:22Z</time>
      </trkpt>
      <trkpt lat="43.43683" lon="6.40903">
        <ele>84.8</ele>
        <time>2020-10-13T13:40:27Z</time>
      </trkpt>
      <trkpt lat="43.43678" lon="6.40903">
        <ele>84.2</ele>
        <time>2020-10-13T13:40:33Z</time>
      </trkpt>
      <trkpt lat="43.43673" lon="6.40904">
        <ele>83.6</ele>
        <time>2020-10-13T13:40:36Z</time>
      </trkpt>
      <trkpt lat="43.43668" lon="6.40903">
        <ele>82.9</ele>
        <time>2020-10-13T13:40:41Z</time>
      </trkpt>
      <trkpt lat="43.43662" lon="6.40903">
        <ele>82.3</ele>
        <time>2020-10-13T13:40:46Z</time>
      </trkpt>
      <trkpt lat="43.43657" lon="6.40905">
        <ele>82</ele>
        <time>2020-10-13T13:40:49Z</time>
      </trkpt>
      <trkpt lat="43.43651" lon="6.40908">
        <ele>81.5</ele>
        <time>2020-10-13T13:40:53Z</time>
      </trkpt>
      <trkpt lat="43.43646" lon="6.4091">
        <ele>81.1</ele>
        <time>2020-10-13T13:40:56Z</time>
      </trkpt>
      <trkpt lat="43.43642" lon="6.40913">
        <ele>80.8</ele>
        <time>2020-10-13T13:40:59Z</time>
      </trkpt>
      <trkpt lat="43.43637" lon="6.40917">
        <ele>80.4</ele>
        <time>2020-10-13T13:41:03Z</time>
      </trkpt>
      <trkpt lat="43.43631" lon="6.40918">
        <ele>79.8</ele>
        <time>2020-10-13T13:41:08Z</time>
      </trkpt>
      <trkpt lat="43.43626" lon="6.40919">
        <ele>79.4</ele>
        <time>2020-10-13T13:41:12Z</time>
      </trkpt>
      <trkpt lat="43.43621" lon="6.40923">
        <ele>79.1</ele>
        <time>2020-10-13T13:41:16Z</time>
      </trkpt>
      <trkpt lat="43.43617" lon="6.40927">
        <ele>78.8</ele>
        <time>2020-10-13T13:41:20Z</time>
      </trkpt>
      <trkpt lat="43.43613" lon="6.40932">
        <ele>78.7</ele>
        <time>2020-10-13T13:41:24Z</time>
      </trkpt>
      <trkpt lat="43.43609" lon="6.40938">
        <ele>78.6</ele>
        <time>2020-10-13T13:41:28Z</time>
      </trkpt>
      <trkpt lat="43.43604" lon="6.4094">
        <ele>78.3</ele>
        <time>2020-10-13T13:41:34Z</time>
      </trkpt>
      <trkpt lat="43.43601" lon="6.40936">
        <ele>78.1</ele>
        <time>2020-10-13T13:41:40Z</time>
      </trkpt>
      <trkpt lat="43.43596" lon="6.40936">
        <ele>78</ele>
        <time>2020-10-13T13:41:44Z</time>
      </trkpt>
      <trkpt lat="43.43592" lon="6.40933">
        <ele>77.5</ele>
        <time>2020-10-13T13:41:49Z</time>
      </trkpt>
      <trkpt lat="43.43586" lon="6.40931">
        <ele>77.2</ele>
        <time>2020-10-13T13:41:53Z</time>
      </trkpt>
      <trkpt lat="43.43583" lon="6.40937">
        <ele>77</ele>
        <time>2020-10-13T13:41:57Z</time>
      </trkpt>
      <trkpt lat="43.43584" lon="6.40938">
        <ele>77</ele>
        <time>2020-10-13T13:42:10Z</time>
      </trkpt>
    </trkseg>
  </trk>
</gpx>